
Distance (Route):
Temperature : -9.8°C
Humidity : 87.3%
Pressure : 0hPa| Receiver | Frames | First received | Last received |
|---|---|---|---|
| BIOWL1-15 | 380 | 2026-09-02 23:58:49 | 2026-09-03 01:25:01 |
| DM0DOS-11 | 352 | 2026-09-02 23:57:46 | 2026-09-03 01:25:33 |
| AU51GT2 | 73 | 2026-09-02 23:57:43 | 2026-09-03 01:24:07 |
| DL1XH-west | 54 | 2026-09-03 00:45:56 | 2026-09-03 00:57:40 |
| DB0UT-7 | 50 | 2026-09-02 23:57:35 | 2026-09-03 01:35:28 |
| BIOWL9-15 | 47 | 2026-09-03 00:02:05 | 2026-09-03 01:25:10 |
| WEDDY | 47 | 2026-09-03 00:37:30 | 2026-09-03 01:20:46 |
| DO1YAY-16 | 43 | 2026-09-03 00:22:38 | 2026-09-03 01:18:32 |
| DL1XH1-15 | 27 | 2026-09-03 00:50:54 | 2026-09-03 00:57:00 |
| HTAHTA | 24 | 2026-09-03 00:18:00 | 2026-09-03 01:18:02 |
| DO9LL-15 | 13 | 2026-09-03 00:39:03 | 2026-09-03 00:59:37 |
| DJ2DS-15 | 10 | 2026-09-03 00:35:25 | 2026-09-03 01:12:05 |
| BIOWL7-15 | 3 | 2026-09-03 00:59:26 | 2026-09-03 01:23:00 |
| Receiver | Date | Latitude | Longitude | Direction | Speed | Altitude | Climb | Temperature | Humidity | Pressure | Voltage | Killtimer | Uptime | BKT | XDATA |
|---|---|---|---|---|---|---|---|---|---|---|---|---|---|---|---|
| DB0UT-7 | 2026-09-03 01:35:28 | 50.53979 | 2.38208 | 109° | 93km/h | 5602m | -7.4m/s | -9.8°C | 87.3% | 0hPa | 2.5V | 00:00:00 | 00:00:00 | 00:00:00 | |
| DB0UT-7 | 2026-09-03 01:34:58 | 50.54204 | 2.37157 | 109° | 95km/h | 5811m | -6.5m/s | -11.1°C | 85.2% | 0hPa | 2.5V | 07:51:00 | 02:44:39 | 00:00:00 | |
| DB0UT-7 | 2026-09-03 01:33:56 | 50.54700 | 2.34959 | 107° | 99km/h | 6218m | -6.1m/s | -14.1°C | 88.6% | 0hPa | 2.5V | 00:00:00 | 00:00:00 | 00:00:00 | |
| DB0UT-7 | 2026-09-03 01:33:26 | 50.54886 | 2.33825 | 104° | 106km/h | 6404m | -6.8m/s | -14.8°C | 80.4% | 0hPa | 2.5V | 00:00:00 | 02:43:07 | 00:00:00 | |
| DB0UT-7 | 2026-09-03 01:32:03 | 50.55559 | 2.30423 | 107° | 102km/h | 6974m | -7.5m/s | -18.7°C | 66.9% | 0hPa | 2.5V | 00:00:00 | 00:00:00 | 00:00:00 | |
| DB0UT-7 | 2026-09-03 01:31:33 | 50.55776 | 2.29249 | 108° | 104km/h | 7207m | -8.2m/s | -20.3°C | 49.2% | 0hPa | 2.5V | 00:00:00 | 02:41:14 | 00:00:00 | |
| DB0UT-7 | 2026-09-03 01:30:18 | 50.56625 | 2.26422 | 118° | 110km/h | 7822m | -8.6m/s | -23.7°C | 29.0% | 0hPa | 2.5V | 00:00:00 | 00:00:00 | 00:00:00 | |
| DB0UT-7 | 2026-09-03 01:28:38 | 50.57992 | 2.22857 | 122° | 108km/h | 8691m | -8.7m/s | -31.5°C | 35.3% | 0hPa | 2.5V | 00:00:00 | 02:38:19 | 00:00:00 | |
| DB0UT-7 | 2026-09-03 01:28:08 | 50.58402 | 2.21736 | 119° | 111km/h | 8957m | -9.6m/s | -33.7°C | 39.0% | 0hPa | 2.5V | 00:00:00 | 00:00:00 | 00:00:00 | |
| DB0UT-7 | 2026-09-03 01:26:55 | 50.59227 | 2.18885 | 113° | 128km/h | 9627m | -10.0m/s | -39.5°C | 46.6% | 0hPa | 2.5V | 07:59:00 | 02:36:36 | 00:00:00 | |
| DB0UT-7 | 2026-09-03 01:26:25 | 50.59580 | 2.17469 | 116° | 131km/h | 9856m | -6.3m/s | -41.2°C | 44.1% | 0hPa | 2.5V | 00:00:00 | 00:00:00 | 00:00:00 | |
| DM0DOS-11 | 2026-09-03 01:25:33 | 50.60321 | 2.14888 | 111° | 117km/h | 10207m | -6.2m/s | -44.1°C | 38.6% | 0hPa | 2.5V | 08:01:19 | 02:35:09 | 00:00:00 | |
| DM0DOS-11 | 2026-09-03 01:25:23 | 50.60421 | 2.14425 | 108° | 131km/h | 10269m | -6.2m/s | -44.4°C | 36.4% | 0hPa | 2.5V | 08:01:29 | 02:34:59 | 00:00:00 | |
| DB0UT-7 | 2026-09-03 01:25:13 | 50.60478 | 2.14175 | 111° | 120km/h | 10299m | -6.4m/s | -44.6°C | 36.8% | 0hPa | 2.5V | 00:00:00 | 02:34:54 | 00:00:00 | |
| BIOWL9-15 | 2026-09-03 01:25:10 | 50.60516 | 2.14028 | 113° | 131km/h | 10318m | -6.5m/s | -44.8°C | 31.7% | -1.0hPa | 2.5V | 00:00:00 | 00:00:00 | 00:00:00 | |
| DM0DOS-11 | 2026-09-03 01:25:09 | 50.60596 | 2.13748 | 114° | 124km/h | 10357m | -6.4m/s | -45.1°C | 37.2% | 0hPa | 2.5V | 08:01:43 | 02:34:45 | 00:00:00 | |
| BIOWL1-15 | 2026-09-03 01:25:01 | 50.60634 | 2.13616 | 114° | 119km/h | 10375m | -6.4m/s | -45.3°C | 39% | 0hPa | 2.4V | 08:01:46 | 02:34:42 | 00:00:00 | |
| DM0DOS-11 | 2026-09-03 01:24:59 | 50.60714 | 2.13319 | 110° | 113km/h | 10421m | -6.6m/s | -45.6°C | 38.5% | 0hPa | 2.5V | 08:01:53 | 02:34:35 | 00:00:00 | |
| BIOWL1-15 | 2026-09-03 01:24:51 | 50.60743 | 2.13190 | 108° | 115km/h | 10440m | -6.5m/s | -45.8°C | 41.3% | 0hPa | 2.4V | 08:02:37 | 02:34:32 | 00:00:00 | |
| BIOWL1-15 | 2026-09-03 01:24:40 | 50.60839 | 2.12679 | 107° | 130km/h | 10512m | -6.1m/s | -46.5°C | 43.9% | 0hPa | 2.5V | 08:02:37 | 02:34:21 | 00:00:00 | |
| BIOWL1-15 | 2026-09-03 01:24:29 | 50.60972 | 2.12164 | 114° | 117km/h | 10580m | -6.2m/s | -47.1°C | 43.3% | 0hPa | 2.5V | 08:02:37 | 02:34:10 | 00:00:00 | |
| BIOWL1-15 | 2026-09-03 01:24:18 | 50.61080 | 2.11691 | 107° | 117km/h | 10650m | -6.7m/s | -47.8°C | 43.9% | 0hPa | 2.4V | 08:02:37 | 02:33:59 | 00:00:00 | |
| BIOWL1-15 | 2026-09-03 01:24:07 | 50.61189 | 2.11166 | 113° | 133km/h | 10719m | -6.5m/s | -48.4°C | 44.2% | 0hPa | 2.4V | 08:03:28 | 02:33:48 | 00:00:00 | |
| AU51GT2 | 2026-09-03 01:24:07 | 50.61202 | 2.11118 | 113° | 131km/h | 10725m | -6.6m/s | -48.5°C | 36.5% | -1.0hPa | 2.5V | 00:00:00 | 00:00:00 | 00:00:00 | |
| DM0DOS-11 | 2026-09-03 01:24:00 | 50.61348 | 2.10632 | 112° | 113km/h | 10798m | -6.8m/s | -49°C | 43% | 0hPa | 2.5V | 08:02:52 | 02:33:36 | 00:00:00 | |
| BIOWL1-15 | 2026-09-03 01:23:58 | 50.61337 | 2.10674 | 113° | 113km/h | 10792m | -6.4m/s | -49°C | 44.1% | 0hPa | 2.4V | 08:03:28 | 02:33:37 | 00:00:00 | |
| DM0DOS-11 | 2026-09-03 01:23:50 | 50.61446 | 2.10171 | 109° | 133km/h | 10865m | -6.6m/s | -49.6°C | 44.8% | 0hPa | 2.4V | 08:03:02 | 02:33:26 | 00:00:00 | |
| BIOWL1-15 | 2026-09-03 01:23:46 | 50.61435 | 2.10221 | 109° | 131km/h | 10858m | -6.8m/s | -49.5°C | 45.8% | 0hPa | 2.4V | 08:03:28 | 02:33:27 | 00:00:00 | |
| DM0DOS-11 | 2026-09-03 01:23:40 | 50.61577 | 2.09703 | 114° | 117km/h | 10931m | -6.7m/s | -50.2°C | 47.1% | 0hPa | 2.4V | 08:03:12 | 02:33:16 | 00:00:00 | |
| BIOWL1-15 | 2026-09-03 01:23:36 | 50.61565 | 2.09746 | 115° | 119km/h | 10924m | -6.9m/s | -50.1°C | 47.8% | 0hPa | 2.4V | 08:03:28 | 02:33:17 | 00:00:00 | |
| DB0UT-7 | 2026-09-03 01:23:31 | 50.61621 | 2.09533 | 110° | 122km/h | 10957m | -6.4m/s | -50.4°C | 48.1% | 0hPa | 2.4V | 00:00:00 | 02:33:12 | 00:00:00 | |
| DM0DOS-11 | 2026-09-03 01:23:30 | 50.61676 | 2.09256 | 107° | 131km/h | 10995m | -6.6m/s | -50.8°C | 50% | 0hPa | 2.4V | 08:03:22 | 02:33:06 | 00:00:00 | |
| BIOWL1-15 | 2026-09-03 01:23:27 | 50.61676 | 2.09256 | 107° | 131km/h | 10996m | -6.6m/s | -50.8°C | 50.4% | 0hPa | 2.4V | 08:03:28 | 02:33:06 | 00:00:00 | |
| DM0DOS-11 | 2026-09-03 01:23:20 | 50.61799 | 2.08774 | 115° | 120km/h | 11061m | -6.7m/s | -51.4°C | 51.4% | 0hPa | 2.5V | 08:03:32 | 02:32:56 | 00:00:00 | |
| BIOWL1-15 | 2026-09-03 01:23:15 | 50.61799 | 2.08774 | 116° | 120km/h | 11061m | -6.7m/s | -51.4°C | 51.5% | 0hPa | 2.5V | 08:04:19 | 02:32:56 | 00:00:00 | |
| DM0DOS-11 | 2026-09-03 01:23:10 | 50.61903 | 2.08347 | 106° | 117km/h | 11126m | -6.3m/s | -52°C | 52.5% | 0hPa | 2.5V | 08:03:42 | 02:32:46 | 00:00:00 | |
| BIOWL1-15 | 2026-09-03 01:23:05 | 50.61904 | 2.08347 | 107° | 117km/h | 11126m | -6.3m/s | -52°C | 52.1% | 0hPa | 2.5V | 08:04:19 | 02:32:46 | 00:00:00 | |
| AU51GT2 | 2026-09-03 01:23:05 | 50.61912 | 2.08301 | 106° | 119km/h | 11132m | -6.5m/s | -52.0°C | 44.5% | -1.0hPa | 2.4V | 00:00:00 | 00:00:00 | 00:00:00 | |
| DB0UT-7 | 2026-09-03 01:23:01 | 50.61939 | 2.08159 | 108° | 131km/h | 11151m | -6.5m/s | -52.1°C | 52.8% | 0hPa | 2.4V | 00:00:00 | 00:00:00 | 00:00:00 | |
| BIOWL7-15 | 2026-09-03 01:23:00 | 50.61939 | 2.08159 | 108° | 130km/h | 11151m | -6.6m/s | -52.2°C | 44.8% | 0hPa | 2.4V | 00:00:00 | 00:00:00 | 00:00:00 | |
| DM0DOS-11 | 2026-09-03 01:22:59 | 50.62009 | 2.07864 | 114° | 131km/h | 11191m | -6.9m/s | -52.4°C | 52.2% | 0hPa | 2.4V | 08:03:52 | 02:32:36 | 00:00:00 | |
| BIOWL1-15 | 2026-09-03 01:22:54 | 50.62022 | 2.07817 | 115° | 131km/h | 11197m | -6.7m/s | -52.5°C | 51.5% | 0hPa | 2.5V | 08:04:19 | 02:32:35 | 00:00:00 | |
| DM0DOS-11 | 2026-09-03 01:22:49 | 50.62140 | 2.07425 | 112° | 117km/h | 11254m | -6.5m/s | -52.9°C | 51.4% | 0hPa | 2.4V | 08:04:02 | 02:32:26 | 00:00:00 | |
| BIOWL1-15 | 2026-09-03 01:22:47 | 50.62161 | 2.07338 | 110° | 119km/h | 11267m | -6.3m/s | -53°C | 49.6% | 0hPa | 2.5V | 08:04:19 | 02:32:24 | 00:00:00 | |
| DM0DOS-11 | 2026-09-03 01:22:39 | 50.62247 | 2.06950 | 110° | 139km/h | 11320m | -6.7m/s | -53.2°C | 46.3% | 0hPa | 2.5V | 08:04:12 | 02:32:16 | 00:00:00 | |
| BIOWL1-15 | 2026-09-03 01:22:34 | 50.62288 | 2.06794 | 114° | 142km/h | 11340m | -6.6m/s | -53.4°C | 44.6% | 0hPa | 2.4V | 08:04:19 | 02:32:13 | 00:00:00 | |
| AU51GT2 | 2026-09-03 01:22:33 | 50.62274 | 2.06846 | 113° | 142km/h | 11333m | -6.5m/s | -53.3°C | 37.9% | -1.0hPa | 2.4V | 00:00:00 | 00:00:00 | 00:00:00 | |
| DM0DOS-11 | 2026-09-03 01:22:29 | 50.62395 | 2.06459 | 116° | 124km/h | 11385m | -6.5m/s | -53.5°C | 41.8% | 0hPa | 2.4V | 08:04:22 | 02:32:06 | 00:00:00 | |
| BIOWL1-15 | 2026-09-03 01:22:22 | 50.62435 | 2.06326 | 113° | 120km/h | 11404m | -6.4m/s | -53.6°C | 40.3% | 0hPa | 2.4V | 08:05:10 | 02:32:03 | 00:00:00 | |
| DM0DOS-11 | 2026-09-03 01:22:18 | 50.62510 | 2.05997 | 108° | 133km/h | 11449m | -6.4m/s | -53.8°C | 39.9% | 0hPa | 2.4V | 08:04:32 | 02:31:56 | 00:00:00 | |
| DM0DOS-11 | 2026-09-03 01:22:10 | 50.62649 | 2.05501 | 117° | 130km/h | 11516m | -6.5m/s | -54.1°C | 41.3% | 0hPa | 2.5V | 08:04:42 | 02:31:46 | 00:00:00 | |
| AU51GT2 | 2026-09-03 01:22:02 | 50.62692 | 2.05369 | 116° | 120km/h | 11535m | -6.6m/s | -54.3°C | 34.4% | -1.0hPa | 2.4V | 00:00:00 | 00:00:00 | 00:00:00 | |
| DM0DOS-11 | 2026-09-03 01:21:58 | 50.62776 | 2.05059 | 110° | 126km/h | 11581m | -6.2m/s | -54.7°C | 44% | 0hPa | 2.4V | 08:04:52 | 02:31:36 | 00:00:00 | |
| DM0DOS-11 | 2026-09-03 01:21:50 | 50.62905 | 2.04556 | 115° | 142km/h | 11645m | -6.2m/s | -55.3°C | 44% | 0hPa | 2.4V | 08:05:02 | 02:31:26 | 00:00:00 | |
| BIOWL1-15 | 2026-09-03 01:21:43 | 50.62968 | 2.04354 | 118° | 139km/h | 11671m | -6.7m/s | -55.5°C | 42.2% | 0hPa | 2.5V | 08:05:10 | 02:31:22 | 00:00:00 | |
| DM0DOS-11 | 2026-09-03 01:21:39 | 50.63060 | 2.04081 | 114° | 120km/h | 11711m | -6.6m/s | -55.4°C | 41.8% | 0hPa | 2.4V | 08:05:12 | 02:31:16 | 00:00:00 | |
| BIOWL1-15 | 2026-09-03 01:21:30 | 50.63123 | 2.03805 | 108° | 131km/h | 11751m | -6.7m/s | -55.4°C | 40.6% | 0hPa | 2.4V | 08:06:01 | 02:31:10 | 00:00:00 | |
| DM0DOS-11 | 2026-09-03 01:21:29 | 50.63168 | 2.03601 | 111° | 139km/h | 11778m | -6.3m/s | -55.5°C | 40.6% | 0hPa | 2.6V | 08:05:22 | 02:31:06 | 00:00:00 | |
| BIOWL1-15 | 2026-09-03 01:21:18 | 50.63275 | 2.03219 | 113° | 120km/h | 11831m | -6.7m/s | -55.8°C | 40.5% | 0hPa | 2.4V | 08:06:01 | 02:30:58 | 00:00:00 | |
| DM0DOS-11 | 2026-09-03 01:21:18 | 50.63297 | 2.03130 | 109° | 119km/h | 11845m | -6.8m/s | -55.9°C | 40.3% | 0hPa | 2.5V | 08:05:32 | 02:30:56 | 00:00:00 | |
| DM0DOS-11 | 2026-09-03 01:21:10 | 50.63374 | 2.02647 | 103° | 137km/h | 11912m | -6.4m/s | -56.3°C | 40.7% | 0hPa | 2.5V | 08:05:42 | 02:30:46 | 00:00:00 | |
| BIOWL1-15 | 2026-09-03 01:21:08 | 50.63352 | 2.02802 | 102° | 128km/h | 11892m | -6.7m/s | -56.2°C | 40.7% | 0hPa | 2.5V | 08:06:01 | 02:30:49 | 00:00:00 | |
| BIOWL9-15 | 2026-09-03 01:21:01 | 50.63411 | 2.02431 | 107° | 141km/h | 11939m | -6.7m/s | -56.5°C | 33.5% | -1.0hPa | 2.6V | 00:00:00 | 00:00:00 | 00:00:00 | |
| AU51GT2 | 2026-09-03 01:21:00 | 50.63422 | 2.02378 | 108° | 139km/h | 11946m | -6.2m/s | -56.5°C | 33.6% | -1.0hPa | 2.6V | 00:00:00 | 00:00:00 | 00:00:00 | |
| DM0DOS-11 | 2026-09-03 01:20:58 | 50.63478 | 2.02132 | 109° | 124km/h | 11979m | -6.9m/s | -56.8°C | 42.2% | 0hPa | 2.6V | 08:05:52 | 02:30:36 | 00:00:00 | |
| BIOWL1-15 | 2026-09-03 01:20:58 | 50.63545 | 2.01697 | 101° | 137km/h | 12040m | -6.5m/s | -57.4°C | 44.4% | 0hPa | 2.4V | 08:06:01 | 02:30:27 | 00:00:00 | |
| DM0DOS-11 | 2026-09-03 01:20:47 | 50.63552 | 2.01643 | 101° | 139km/h | 12047m | -6.7m/s | -57.4°C | 44.7% | 0hPa | 2.5V | 08:06:02 | 02:30:26 | 00:00:00 | |
| BIOWL1-15 | 2026-09-03 01:20:47 | 50.63560 | 2.01588 | 103° | 142km/h | 12054m | -6.6m/s | -57.5°C | 44.8% | 0hPa | 2.5V | 08:06:52 | 02:30:25 | 00:00:00 | |
| WEDDY | 2026-09-03 01:20:46 | 50.63545 | 2.01697 | 102° | 137km/h | 12041m | -6.5m/s | -57.4°C | 36.3% | 0hPa | 2.4V | 08:06:00 | 00:00:00 | 00:00:00 | |
| DM0DOS-11 | 2026-09-03 01:20:40 | 50.63656 | 2.01120 | 107° | 124km/h | 12113m | -6.7m/s | -58°C | 46.8% | 0hPa | 2.4V | 08:06:12 | 02:30:16 | 00:00:00 | |
| BIOWL1-15 | 2026-09-03 01:20:36 | 50.63680 | 2.00977 | 103° | 124km/h | 12133m | -6.8m/s | -58.2°C | 46.8% | 0hPa | 2.5V | 08:06:52 | 02:30:13 | 00:00:00 | |
| BIOWL9-15 | 2026-09-03 01:20:31 | 50.63693 | 2.00879 | 100° | 128km/h | 12147m | -7.0m/s | -58.3°C | 38.4% | -1.0hPa | 2.4V | 00:00:00 | 00:00:00 | 00:00:00 | |
| AU51GT2 | 2026-09-03 01:20:30 | 50.63699 | 2.00828 | 100° | 131km/h | 12154m | -6.9m/s | -58.4°C | 38.5% | -1.0hPa | 2.4V | 00:00:00 | 00:00:00 | 00:00:00 | |
| DM0DOS-11 | 2026-09-03 01:20:28 | 50.63726 | 2.00613 | 102° | 144km/h | 12181m | -6.8m/s | -58.6°C | 48.2% | 0hPa | 2.4V | 08:06:22 | 02:30:06 | 00:00:00 | |
| BIOWL1-15 | 2026-09-03 01:20:28 | 50.63735 | 2.00557 | 104° | 146km/h | 12187m | -6.9m/s | -58.7°C | 47.6% | 0hPa | 2.4V | 08:06:52 | 02:30:05 | 00:00:00 | |
| WEDDY | 2026-09-03 01:20:25 | 50.63719 | 2.00668 | 102° | 141km/h | 12174m | -6.6m/s | -58.6°C | 39.2% | 0hPa | 2.5V | 08:06:00 | 00:00:00 | 00:00:00 | |
| DM0DOS-11 | 2026-09-03 01:20:16 | 50.63834 | 2.00080 | 108° | 130km/h | 12249m | -6.7m/s | -59.3°C | 49.8% | 0hPa | 2.5V | 08:06:32 | 02:29:56 | 00:00:00 | |
| BIOWL1-15 | 2026-09-03 01:20:13 | 50.63883 | 1.99782 | 101° | 133km/h | 12289m | -6.6m/s | -59.6°C | 48.1% | 0hPa | 2.4V | 08:06:52 | 02:29:50 | 00:00:00 | |
| DB0UT-7 | 2026-09-03 01:20:12 | 50.63862 | 1.99934 | 105° | 142km/h | 12269m | -6.7m/s | -59.4°C | 49.8% | 0hPa | 2.5V | 08:06:00 | 00:00:00 | 00:00:00 | |
| DM0DOS-11 | 2026-09-03 01:20:10 | 50.63910 | 1.99562 | 101° | 148km/h | 12316m | -7m/s | -59.9°C | 49.2% | 0hPa | 2.6V | 08:06:42 | 02:29:46 | 00:00:00 | |
| BIOWL1-15 | 2026-09-03 01:19:59 | 50.63983 | 1.99159 | 110° | 144km/h | 12364m | -6.8m/s | -60.3°C | 46.2% | 0hPa | 2.4V | 08:06:52 | 02:29:39 | 00:00:00 | |
| DM0DOS-11 | 2026-09-03 01:19:58 | 50.64017 | 1.99003 | 107° | 135km/h | 12384m | -6.8m/s | -60.5°C | 48.7% | 0hPa | 2.5V | 08:06:52 | 02:29:36 | 00:00:00 | |
| BIOWL1-15 | 2026-09-03 01:19:49 | 50.64066 | 1.98683 | 102° | 148km/h | 12425m | -6.8m/s | -60.7°C | 42.7% | 0hPa | 2.6V | 08:07:43 | 02:29:30 | 00:00:00 | |
| DM0DOS-11 | 2026-09-03 01:19:48 | 50.64102 | 1.98445 | 105° | 159km/h | 12453m | -7m/s | -60.8°C | 43.8% | 0hPa | 2.4V | 08:07:02 | 02:29:26 | 00:00:00 | |
| BIOWL1-15 | 2026-09-03 01:19:39 | 50.64181 | 1.98095 | 112° | 148km/h | 12495m | -6.9m/s | -61°C | 38% | 0hPa | 2.5V | 08:07:43 | 02:29:20 | 00:00:00 | |
| DM0DOS-11 | 2026-09-03 01:19:38 | 50.64232 | 1.97885 | 108° | 137km/h | 12523m | -6.9m/s | -61°C | 39.6% | 0hPa | 2.4V | 08:07:12 | 02:29:16 | 00:00:00 | |
| BIOWL1-15 | 2026-09-03 01:19:31 | 50.64288 | 1.97556 | 104° | 151km/h | 12563m | -7m/s | -60.8°C | 33.9% | 0hPa | 2.4V | 08:07:43 | 02:29:10 | 00:00:00 | |
| DM0DOS-11 | 2026-09-03 01:19:30 | 50.64332 | 1.97324 | 108° | 151km/h | 12590m | -6.8m/s | -60.6°C | 37.4% | 0hPa | 2.4V | 08:07:22 | 02:29:06 | 00:00:00 | |
| BIOWL1-15 | 2026-09-03 01:19:21 | 50.64410 | 1.97000 | 112° | 137km/h | 12632m | -7.3m/s | -60.6°C | 32.3% | 0hPa | 2.4V | 08:07:43 | 02:29:00 | 00:00:00 | |
| DM0DOS-11 | 2026-09-03 01:19:19 | 50.64457 | 1.96806 | 109° | 126km/h | 12661m | -7.2m/s | -60.4°C | 34.9% | 0hPa | 2.5V | 08:07:32 | 02:28:56 | 00:00:00 | |
| BIOWL1-15 | 2026-09-03 01:19:12 | 50.64507 | 1.96478 | 98° | 126km/h | 12712m | -7m/s | -59.6°C | 30.4% | 0hPa | 2.4V | 08:07:43 | 02:28:49 | 00:00:00 | |
| DM0DOS-11 | 2026-09-03 01:19:08 | 50.64521 | 1.96323 | 99° | 137km/h | 12732m | -6.7m/s | -59.2°C | 30.9% | 0hPa | 2.6V | 08:07:42 | 02:28:46 | 00:00:00 | |
| WEDDY | 2026-09-03 01:19:03 | 50.64527 | 1.96269 | 102° | 139km/h | 12739m | -6.9m/s | -59.2°C | 23.6% | 0hPa | 2.5V | 08:07:00 | 00:00:00 | 00:00:00 | |
| DM0DOS-11 | 2026-09-03 01:18:58 | 50.64598 | 1.95825 | 100° | 117km/h | 12805m | -7.2m/s | -59.4°C | 31% | 0hPa | 2.5V | 08:07:52 | 02:28:36 | 00:00:00 | |
| BIOWL1-15 | 2026-09-03 01:18:57 | 50.64585 | 1.95916 | 104° | 120km/h | 12790m | -7.3m/s | -59.3°C | 29.8% | 0hPa | 2.5V | 08:09:25 | 02:28:38 | 00:00:00 | |
| AU51GT2 | 2026-09-03 01:18:56 | 50.64592 | 1.95870 | 102° | 117km/h | 12798m | -7.2m/s | -59.4°C | 23.3% | -1.0hPa | 2.5V | 00:00:00 | 00:00:00 | 00:00:00 | |
| DM0DOS-11 | 2026-09-03 01:18:48 | 50.64631 | 1.95329 | 96° | 139km/h | 12877m | -7.2m/s | -60°C | 30.9% | 0hPa | 2.5V | 08:08:02 | 02:28:26 | 00:00:00 | |
| BIOWL1-15 | 2026-09-03 01:18:48 | 50.64627 | 1.95383 | 95° | 137km/h | 12870m | -7m/s | -59.9°C | 29.3% | 0hPa | 2.6V | 08:09:25 | 02:28:27 | 00:00:00 | |
| WEDDY | 2026-09-03 01:18:42 | 50.64641 | 1.95219 | 101° | 141km/h | 12892m | -6.6m/s | -60.0°C | 23.4% | 0hPa | 2.6V | 08:08:00 | 00:00:00 | 00:00:00 | |
| DM0DOS-11 | 2026-09-03 01:18:40 | 50.64709 | 1.94802 | 104° | 120km/h | 12950m | -6.9m/s | -59.8°C | 28.8% | 0hPa | 2.6V | 08:08:12 | 02:28:16 | 00:00:00 | |
| BIOWL1-15 | 2026-09-03 01:18:37 | 50.64710 | 1.94802 | 105° | 120km/h | 12950m | -6.9m/s | -59.8°C | 27.4% | 0hPa | 2.6V | 08:09:25 | 02:28:16 | 00:00:00 | |
| DO1YAY-16 | 2026-09-03 01:18:32 | 50.64729 | 1.94664 | 99° | 119km/h | 12972m | -7.1m/s | -59.8°C | 20.8% | -1.0hPa | 2.4V | 00:00:00 | 00:00:00 | 00:00:00 | |
| DM0DOS-11 | 2026-09-03 01:18:28 | 50.64769 | 1.94297 | 102° | 144km/h | 13023m | -7.2m/s | -59.9°C | 25.5% | 0hPa | 2.4V | 08:08:22 | 02:28:06 | 00:00:00 | |
| BIOWL1-15 | 2026-09-03 01:18:27 | 50.64768 | 1.94297 | 103° | 144km/h | 13023m | -7.2m/s | -59.9°C | 24.4% | 0hPa | 2.4V | 08:09:25 | 02:28:06 | 00:00:00 | |
| BIOWL1-15 | 2026-09-03 01:18:13 | 50.64876 | 1.93590 | 97° | 135km/h | 13127m | -7.6m/s | -60.1°C | 20.5% | 0hPa | 2.6V | 08:09:25 | 02:27:52 | 00:00:00 | |
| HTAHTA | 2026-09-03 01:18:02 | 50.64944 | 1.93087 | 107° | 142km/h | 13194m | -7.2m/s | -60.6°C | 14.0% | -1.0hPa | 2.6V | 00:00:00 | 00:00:00 | 00:00:00 | |
| BIOWL1-15 | 2026-09-03 01:18:02 | 50.64966 | 1.92982 | 109° | 137km/h | 13209m | -7.4m/s | -60.6°C | 17.5% | 0hPa | 2.4V | 08:09:25 | 02:27:41 | 00:00:00 | |
| WEDDY | 2026-09-03 01:18:00 | 50.64966 | 1.92982 | 110° | 137km/h | 13209m | -7.4m/s | -60.6°C | 13.8% | 0hPa | 2.6V | 08:09:00 | 00:00:00 | 00:00:00 | |
| DM0DOS-11 | 2026-09-03 01:17:57 | 50.65018 | 1.92738 | 105° | 122km/h | 13245m | -7.5m/s | -60.4°C | 18.3% | 0hPa | 2.6V | 08:08:52 | 02:27:36 | 00:00:00 | |
| BIOWL1-15 | 2026-09-03 01:17:50 | 50.65049 | 1.92492 | 100° | 133km/h | 13283m | -7.1m/s | -60.1°C | 15% | 0hPa | 2.5V | 08:09:25 | 02:27:31 | 00:00:00 | |
| BIOWL1-15 | 2026-09-03 01:17:41 | 50.65150 | 1.91925 | 107° | 117km/h | 13365m | -7.7m/s | -59.7°C | 12.9% | 0hPa | 2.6V | 08:09:25 | 02:27:20 | 00:00:00 | |
| BIOWL1-15 | 2026-09-03 01:17:28 | 50.65220 | 1.91393 | 106° | 135km/h | 13448m | -7.9m/s | 0°C | 0% | 0hPa | 2.4V | 08:09:25 | 02:27:09 | 00:00:00 | |
| BIOWL1-15 | 2026-09-03 01:17:18 | 50.65318 | 1.90939 | 104° | 108km/h | 13526m | -7.7m/s | 0°C | 0% | 0hPa | 2.5V | 18:12:15 | 02:26:59 | 00:00:00 | |
| BIOWL1-15 | 2026-09-03 01:17:08 | 50.65372 | 1.90468 | 105° | 130km/h | 13602m | -7.8m/s | 0°C | 0% | 0hPa | 2.6V | 18:12:15 | 02:26:49 | 00:00:00 | |
| BIOWL1-15 | 2026-09-03 01:16:57 | 50.65448 | 1.89838 | 98° | 128km/h | 13711m | -8.1m/s | 0°C | 0% | 0hPa | 2.5V | 18:12:15 | 02:26:35 | 00:00:00 | |
| BIOWL9-15 | 2026-09-03 01:16:53 | 50.65453 | 1.89787 | 99° | 130km/h | 13719m | -7.6m/s | -58.6°C | 6.1% | -1.0hPa | 2.6V | 00:00:00 | 00:00:00 | 00:00:00 | |
| AU51GT2 | 2026-09-03 01:16:52 | 50.65459 | 1.89736 | 102° | 130km/h | 13726m | -7.8m/s | -58.6°C | 6.0% | -1.0hPa | 2.6V | 00:00:00 | 00:00:00 | 00:00:00 | |
| DM0DOS-11 | 2026-09-03 01:16:47 | 50.65534 | 1.89329 | 100° | 106km/h | 13796m | -8m/s | -58.8°C | 9.9% | 0hPa | 2.6V | 08:10:04 | 02:26:24 | 00:00:00 | |
| BIOWL1-15 | 2026-09-03 01:16:45 | 50.65521 | 1.89411 | 107° | 108km/h | 13781m | -7.7m/s | 0°C | 0% | 0hPa | 2.5V | 18:12:15 | 02:26:26 | 00:00:00 | |
| DB0UT-7 | 2026-09-03 01:16:41 | 50.65543 | 1.89245 | 99° | 117km/h | 13813m | -7.8m/s | -58.8°C | 9.9% | 0hPa | 2.5V | 00:00:00 | 00:00:00 | 00:00:00 | |
| WEDDY | 2026-09-03 01:16:35 | 50.65564 | 1.89006 | 102° | 131km/h | 13851m | -8.0m/s | -58.8°C | 5.5% | 0hPa | 2.5V | 08:10:00 | 00:00:00 | 00:00:00 | |
| DM0DOS-11 | 2026-09-03 01:16:32 | 50.65617 | 1.88712 | 109° | 119km/h | 13897m | -7.5m/s | -58.4°C | 8.9% | 0hPa | 2.5V | 08:10:17 | 02:26:11 | 00:00:00 | |
| BIOWL1-15 | 2026-09-03 01:16:32 | 50.65597 | 1.88805 | 108° | 128km/h | 13882m | -7.9m/s | 0°C | 0% | 0hPa | 2.5V | 18:12:15 | 02:26:13 | 00:00:00 | |
| DO1YAY-16 | 2026-09-03 01:16:28 | 50.65644 | 1.88586 | 106° | 104km/h | 13921m | -8.3m/s | -58.2°C | 4.7% | -1.0hPa | 2.5V | 00:00:00 | 00:00:00 | 00:00:00 | |
| DM0DOS-11 | 2026-09-03 01:16:22 | 50.65672 | 1.88283 | 96° | 122km/h | 13977m | -7.9m/s | -57.8°C | 8.2% | 0hPa | 2.5V | 08:10:27 | 02:26:01 | 00:00:00 | |
| AU51GT2 | 2026-09-03 01:16:21 | 50.65669 | 1.88331 | 95° | 119km/h | 13969m | -8.2m/s | -57.9°C | 4.3% | -1.0hPa | 2.6V | 00:00:00 | 00:00:00 | 00:00:00 | |
| WEDDY | 2026-09-03 01:16:15 | 50.65703 | 1.88046 | 108° | 113km/h | 14017m | -7.4m/s | -57.8°C | 4.4% | 0hPa | 2.6V | 08:11:00 | 00:00:00 | 00:00:00 | |
| AU51GT2 | 2026-09-03 01:15:50 | 50.65840 | 1.87051 | 94° | 89km/h | 14216m | -8.2m/s | -57.9°C | 3.4% | -1.0hPa | 2.6V | 00:00:00 | 00:00:00 | 00:00:00 | |
| WEDDY | 2026-09-03 01:15:33 | 50.65920 | 1.86408 | 97° | 89km/h | 14353m | -7.7m/s | -57.5°C | 3.2% | 0hPa | 2.6V | 00:00:00 | 00:00:00 | 00:00:00 | |
| DM0DOS-11 | 2026-09-03 01:15:21 | 50.66011 | 1.85705 | 93° | 100km/h | 14498m | -8.8m/s | -57.5°C | 6.1% | 0hPa | 2.6V | 08:11:32 | 02:24:56 | 00:00:00 | |
| AU51GT2 | 2026-09-03 01:15:19 | 50.66000 | 1.85850 | 104° | 86km/h | 14466m | -7.8m/s | -57.5°C | 2.7% | -1.0hPa | 2.5V | 00:00:00 | 00:00:00 | 00:00:00 | |
| WEDDY | 2026-09-03 01:15:13 | 50.66016 | 1.85622 | 97° | 110km/h | 14515m | -8.0m/s | -57.6°C | 2.8% | 0hPa | 2.5V | 00:00:00 | 00:00:00 | 00:00:00 | |
| DM0DOS-11 | 2026-09-03 01:15:10 | 50.66061 | 1.85325 | 110° | 102km/h | 14572m | -8.2m/s | -57.5°C | 5.9% | 0hPa | 2.5V | 08:11:41 | 02:24:47 | 00:00:00 | |
| BIOWL1-15 | 2026-09-03 01:15:03 | 50.66087 | 1.85219 | 108° | 86km/h | 14597m | -8m/s | -57.6°C | 2.3% | 0hPa | 2.5V | 08:11:58 | 02:24:44 | 00:00:00 | |
| DM0DOS-11 | 2026-09-03 01:14:59 | 50.66114 | 1.84930 | 100° | 108km/h | 14662m | -8m/s | -57.6°C | 5.8% | 0hPa | 2.6V | 08:11:52 | 02:24:36 | 00:00:00 | |
| BIOWL1-15 | 2026-09-03 01:14:54 | 50.66136 | 1.84809 | 110° | 102km/h | 14686m | -8.3m/s | -57.4°C | 2.1% | 0hPa | 2.5V | 08:11:58 | 02:24:33 | 00:00:00 | |
| BIOWL9-15 | 2026-09-03 01:14:49 | 50.66163 | 1.84705 | 113° | 86km/h | 14712m | -8.5m/s | -57.3°C | 2.2% | -1.0hPa | 2.6V | 00:00:00 | 00:00:00 | 00:00:00 | |
| AU51GT2 | 2026-09-03 01:14:48 | 50.66172 | 1.84674 | 112° | 82km/h | 14720m | -7.9m/s | -57.3°C | 2.2% | -1.0hPa | 2.6V | 00:00:00 | 00:00:00 | 00:00:00 | |
| BIOWL1-15 | 2026-09-03 01:14:43 | 50.66201 | 1.84446 | 98° | 99km/h | 14775m | -8.3m/s | -57°C | 1.9% | 0hPa | 2.6V | 08:12:49 | 02:24:22 | 00:00:00 | |
| DM0DOS-11 | 2026-09-03 01:14:39 | 50.66244 | 1.84208 | 114° | 100km/h | 14826m | -8.3m/s | -56.8°C | 5.4% | 0hPa | 2.6V | 08:12:12 | 02:24:16 | 00:00:00 | |
| BIOWL1-15 | 2026-09-03 01:14:32 | 50.66286 | 1.84046 | 104° | 80km/h | 14866m | -8.5m/s | -56.8°C | 2% | 0hPa | 2.5V | 08:12:49 | 02:24:11 | 00:00:00 | |
| WEDDY | 2026-09-03 01:14:31 | 50.66280 | 1.84076 | 109° | 80km/h | 14858m | -8.2m/s | -56.7°C | 2.3% | 0hPa | 2.5V | 08:12:00 | 00:00:00 | 00:00:00 | |
| DM0DOS-11 | 2026-09-03 01:14:29 | 50.66302 | 1.83866 | 97° | 106km/h | 14907m | -8.2m/s | -57°C | 5.5% | 0hPa | 2.5V | 08:12:22 | 02:24:06 | 00:00:00 | |
| DB0UT-7 | 2026-09-03 01:14:28 | 50.66293 | 1.83980 | 98° | 84km/h | 14883m | -8.3m/s | -56.8°C | 5.5% | 0hPa | 2.5V | 00:00:00 | 02:24:09 | 00:00:00 | |
| HTAHTA | 2026-09-03 01:14:25 | 50.66349 | 1.83618 | 113° | 102km/h | 14958m | -8.9m/s | -57.4°C | 2.2% | -1.0hPa | 2.5V | 00:00:00 | 00:00:00 | 00:00:00 | |
| DM0DOS-11 | 2026-09-03 01:14:19 | 50.66386 | 1.83483 | 109° | 82km/h | 14991m | -8m/s | -57.5°C | 5.7% | 0hPa | 2.5V | 08:12:32 | 02:23:56 | 00:00:00 | |
| BIOWL1-15 | 2026-09-03 01:14:19 | 50.66349 | 1.83618 | 114° | 102km/h | 14958m | -8.9m/s | -57.4°C | 2.1% | 0hPa | 2.5V | 08:12:49 | 02:24:00 | 00:00:00 | |
| BIOWL9-15 | 2026-09-03 01:14:18 | 50.66370 | 1.83547 | 114° | 91km/h | 14975m | -8.4m/s | -57.5°C | 2.3% | -1.0hPa | 2.5V | 00:00:00 | 00:00:00 | 00:00:00 | |
| AU51GT2 | 2026-09-03 01:14:17 | 50.66370 | 1.83547 | 114° | 91km/h | 14975m | -8.4m/s | -57.5°C | 2.3% | -1.0hPa | 2.5V | 00:00:00 | 00:00:00 | 00:00:00 | |
| DM0DOS-11 | 2026-09-03 01:14:09 | 50.66452 | 1.83118 | 114° | 108km/h | 15074m | -8.7m/s | -57°C | 5.4% | 0hPa | 2.5V | 08:12:42 | 02:23:46 | 00:00:00 | |
| BIOWL1-15 | 2026-09-03 01:14:08 | 50.66423 | 1.83240 | 106° | 106km/h | 15049m | -8m/s | -56.8°C | 2% | 0hPa | 2.5V | 08:12:49 | 02:23:49 | 00:00:00 | |
| DM0DOS-11 | 2026-09-03 01:13:59 | 50.66547 | 1.82798 | 103° | 91km/h | 15159m | -8.3m/s | -57.4°C | 5.6% | 0hPa | 2.5V | 08:12:52 | 02:23:36 | 00:00:00 | |
| BIOWL1-15 | 2026-09-03 01:13:56 | 50.66567 | 1.82683 | 109° | 106km/h | 15185m | -8.5m/s | -57.4°C | 2% | 0hPa | 2.5V | 08:13:40 | 02:23:33 | 00:00:00 | |
| BIOWL9-15 | 2026-09-03 01:13:47 | 50.66639 | 1.82472 | 124° | 86km/h | 15236m | -8.5m/s | -57.3°C | 2.1% | -1.0hPa | 2.5V | 00:00:00 | 00:00:00 | 00:00:00 | |
| AU51GT2 | 2026-09-03 01:13:46 | 50.66639 | 1.82472 | 124° | 86km/h | 15236m | -8.5m/s | -57.3°C | 2.1% | -1.0hPa | 2.5V | 00:00:00 | 00:00:00 | 00:00:00 | |
| BIOWL1-15 | 2026-09-03 01:13:43 | 50.66677 | 1.82365 | 112° | 75km/h | 15271m | -8.6m/s | -57.3°C | 2.1% | 0hPa | 2.5V | 08:13:40 | 02:23:23 | 00:00:00 | |
| BIOWL1-15 | 2026-09-03 01:13:32 | 50.66797 | 1.82019 | 115° | 64km/h | 15373m | -9.1m/s | -57.4°C | 2.1% | 0hPa | 2.5V | 08:13:40 | 02:23:11 | 00:00:00 | |
| DM0DOS-11 | 2026-09-03 01:13:30 | 50.66824 | 1.81876 | 106° | 89km/h | 15416m | -9.1m/s | -56.9°C | 5.4% | 0hPa | 2.5V | 08:13:22 | 02:23:06 | 00:00:00 | |
| BIOWL1-15 | 2026-09-03 01:13:21 | 50.66871 | 1.81707 | 122° | 89km/h | 15461m | -8.9m/s | -56.9°C | 1.8% | 0hPa | 2.6V | 08:13:40 | 02:23:01 | 00:00:00 | |
| BIOWL1-15 | 2026-09-03 01:13:11 | 50.66943 | 1.81488 | 100° | 69km/h | 15541m | -9.1m/s | -56.8°C | 1.5% | 0hPa | 2.5V | 08:13:40 | 02:22:52 | 00:00:00 | |
| DM0DOS-11 | 2026-09-03 01:13:09 | 50.66980 | 1.81308 | 120° | 77km/h | 15592m | -8.7m/s | -56.9°C | 5% | 0hPa | 2.5V | 08:13:42 | 02:22:46 | 00:00:00 | |
| BIOWL1-15 | 2026-09-03 01:13:00 | 50.67013 | 1.81203 | 100° | 53km/h | 15635m | -9.1m/s | -57.2°C | 1.3% | 0hPa | 2.5V | 08:15:22 | 02:22:41 | 00:00:00 | |
| DM0DOS-11 | 2026-09-03 01:12:59 | 50.67021 | 1.81073 | 100° | 78km/h | 15679m | -8.6m/s | -57.4°C | 5% | 0hPa | 2.6V | 08:13:52 | 02:22:36 | 00:00:00 | |
| DO1YAY-16 | 2026-09-03 01:12:50 | 50.67050 | 1.80940 | 107° | 55km/h | 15722m | -8.6m/s | -57.6°C | 1.7% | -1.0hPa | 2.5V | 00:00:00 | 00:00:00 | 00:00:00 | |
| DM0DOS-11 | 2026-09-03 01:12:49 | 50.67051 | 1.80821 | 84° | 77km/h | 15766m | -8.8m/s | -57.6°C | 5.1% | 0hPa | 2.5V | 08:14:02 | 02:22:26 | 00:00:00 | |
| BIOWL1-15 | 2026-09-03 01:12:49 | 50.67053 | 1.80919 | 99° | 53km/h | 15731m | -8.9m/s | -57.6°C | 1.1% | 0hPa | 2.6V | 08:15:22 | 02:22:30 | 00:00:00 | |
| WEDDY | 2026-09-03 01:12:48 | 50.67053 | 1.80919 | 100° | 53km/h | 15731m | -8.9m/s | -57.6°C | 1.8% | 0hPa | 2.5V | 08:14:00 | 00:00:00 | 00:00:00 | |
| DB0UT-7 | 2026-09-03 01:12:45 | 50.67051 | 1.80821 | 85° | 68km/h | 15766m | -8.8m/s | -57.6°C | 5.1% | 0hPa | 2.5V | 08:14:00 | 02:22:26 | 00:00:00 | |
| AU51GT2 | 2026-09-03 01:12:44 | 50.67049 | 1.80789 | 87° | 82km/h | 15775m | -8.7m/s | -57.6°C | 1.6% | -1.0hPa | 2.5V | 00:00:00 | 00:00:00 | 00:00:00 | |
| DM0DOS-11 | 2026-09-03 01:12:39 | 50.67075 | 1.80517 | 90° | 64km/h | 15853m | -8.2m/s | -57.2°C | 4.9% | 0hPa | 2.5V | 08:14:12 | 02:22:16 | 00:00:00 | |
| BIOWL1-15 | 2026-09-03 01:12:38 | 50.67071 | 1.80567 | 102° | 66km/h | 15836m | -8.9m/s | -57.2°C | 1% | 0hPa | 2.6V | 08:15:22 | 02:22:18 | 00:00:00 | |
| DM0DOS-11 | 2026-09-03 01:12:28 | 50.67101 | 1.80195 | 109° | 68km/h | 15940m | -8.7m/s | -57.2°C | 4.8% | 0hPa | 2.6V | 08:14:22 | 02:22:06 | 00:00:00 | |
| WEDDY | 2026-09-03 01:12:24 | 50.67101 | 1.80195 | 110° | 68km/h | 15940m | -8.7m/s | -57.2°C | 1.7% | 0hPa | 2.5V | 08:14:00 | 00:00:00 | 00:00:00 | |
| HTAHTA | 2026-09-03 01:12:21 | 50.67113 | 1.80044 | 93° | 78km/h | 15993m | -8.4m/s | -57.0°C | 1.5% | -1.0hPa | 2.5V | 00:00:00 | 00:00:00 | 00:00:00 | |
| DO1YAY-16 | 2026-09-03 01:12:19 | 50.67113 | 1.80044 | 93° | 78km/h | 15993m | -8.4m/s | -57.0°C | 1.5% | -1.0hPa | 2.5V | 00:00:00 | 00:00:00 | 00:00:00 | |
| DM0DOS-11 | 2026-09-03 01:12:16 | 50.67133 | 1.79910 | 113° | 86km/h | 16028m | -9.3m/s | -57°C | 4.7% | 0hPa | 2.5V | 08:14:32 | 02:21:56 | 00:00:00 | |
| AU51GT2 | 2026-09-03 01:12:13 | 50.67160 | 1.79827 | 119° | 68km/h | 16055m | -8.9m/s | -57.1°C | 1.5% | -1.0hPa | 2.5V | 00:00:00 | 00:00:00 | 00:00:00 | |
| DM0DOS-11 | 2026-09-03 01:12:10 | 50.67189 | 1.79647 | 104° | 84km/h | 16115m | -9.1m/s | -57.1°C | 4.8% | 0hPa | 2.5V | 08:14:42 | 02:21:46 | 00:00:00 | |
| DJ2DS-15 | 2026-09-03 01:12:05 | 50.67190 | 1.79647 | 104° | 84km/h | 16115m | -9.1m/s | -57.1°C | 1.5% | -1.0hPa | 2.6V | 00:00:00 | 00:00:00 | 00:00:00 | |
| WEDDY | 2026-09-03 01:12:04 | 50.67196 | 1.79614 | 111° | 88km/h | 16124m | -8.5m/s | -57.0°C | 1.6% | 0hPa | 2.6V | 08:15:00 | 00:00:00 | 00:00:00 | |
| DM0DOS-11 | 2026-09-03 01:11:59 | 50.67269 | 1.79382 | 104° | 69km/h | 16204m | -8.9m/s | -57.2°C | 4.7% | 0hPa | 2.6V | 08:14:52 | 02:21:36 | 00:00:00 | |
| BIOWL1-15 | 2026-09-03 01:11:59 | 50.67244 | 1.79475 | 122° | 68km/h | 16170m | -8.9m/s | -56.9°C | 0.8% | 0hPa | 2.5V | 08:15:22 | 02:21:40 | 00:00:00 | |
| DM0DOS-11 | 2026-09-03 01:11:49 | 50.67337 | 1.79147 | 107° | 57km/h | 16295m | -9m/s | -57.2°C | 4.6% | 0hPa | 2.6V | 08:15:02 | 02:21:26 | 00:00:00 | |
| BIOWL1-15 | 2026-09-03 01:11:48 | 50.67323 | 1.79208 | 120° | 55km/h | 16267m | -9.2m/s | -57.1°C | 0.8% | 0hPa | 2.5V | 08:15:22 | 02:21:29 | 00:00:00 | |
| BIOWL9-15 | 2026-09-03 01:11:43 | 50.67348 | 1.79079 | 101° | 60km/h | 16322m | -9.6m/s | -57.3°C | 1.4% | -1.0hPa | 2.5V | 00:00:00 | 00:00:00 | 00:00:00 | |
| AU51GT2 | 2026-09-03 01:11:42 | 50.67352 | 1.79055 | 101° | 64km/h | 16332m | -9.9m/s | -57.4°C | 1.4% | -1.0hPa | 2.5V | 00:00:00 | 00:00:00 | 00:00:00 | |
| DM0DOS-11 | 2026-09-03 01:11:39 | 50.67384 | 1.78896 | 118° | 71km/h | 16386m | -8.4m/s | -57.8°C | 4.9% | 0hPa | 2.5V | 08:15:12 | 02:21:16 | 00:00:00 | |
| BIOWL1-15 | 2026-09-03 01:11:37 | 50.67369 | 1.78949 | 111° | 73km/h | 16369m | -8.7m/s | -57.7°C | 0.9% | 0hPa | 2.6V | 08:15:22 | 02:21:18 | 00:00:00 | |
| DB0UT-7 | 2026-09-03 01:11:33 | 50.67402 | 1.78850 | 125° | 57km/h | 16404m | -9.1m/s | -57.9°C | 4.9% | 0hPa | 2.5V | 00:00:00 | 00:00:00 | 00:00:00 | |
| DM0DOS-11 | 2026-09-03 01:11:29 | 50.67458 | 1.78714 | 109° | 42km/h | 16474m | -8.9m/s | -57.8°C | 5% | 0hPa | 2.5V | 08:15:22 | 02:21:06 | 00:00:00 | |
| BIOWL1-15 | 2026-09-03 01:11:26 | 50.67463 | 1.78680 | 97° | 46km/h | 16492m | -8.9m/s | -57.4°C | 0.7% | 0hPa | 2.5V | 08:17:04 | 02:21:04 | 00:00:00 | |
| WEDDY | 2026-09-03 01:11:22 | 50.67464 | 1.78662 | 94° | 49km/h | 16501m | -9.3m/s | -57.4°C | 1.5% | 0hPa | 2.6V | 08:16:00 | 00:00:00 | 00:00:00 | |
| DM0DOS-11 | 2026-09-03 01:11:19 | 50.67467 | 1.78489 | 97° | 73km/h | 16563m | -9.4m/s | -56.7°C | 4.5% | 0hPa | 2.6V | 08:15:32 | 02:20:56 | 00:00:00 | |
| BIOWL1-15 | 2026-09-03 01:11:14 | 50.67479 | 1.78404 | 108° | 73km/h | 16591m | -8.8m/s | -56.7°C | 0.6% | 0hPa | 2.5V | 08:17:04 | 02:20:53 | 00:00:00 | |
| BIOWL9-15 | 2026-09-03 01:11:12 | 50.67485 | 1.78378 | 110° | 68km/h | 16600m | -8.6m/s | -56.6°C | 1.2% | -1.0hPa | 2.5V | 00:00:00 | 00:00:00 | 00:00:00 | |
| AU51GT2 | 2026-09-03 01:11:11 | 50.67491 | 1.78353 | 113° | 64km/h | 16609m | -8.8m/s | -56.5°C | 1.2% | -1.0hPa | 2.5V | 00:00:00 | 00:00:00 | 00:00:00 | |
| DM0DOS-11 | 2026-09-03 01:11:09 | 50.67514 | 1.78257 | 98° | 42km/h | 16651m | -8.7m/s | -56.5°C | 4.4% | 0hPa | 2.5V | 08:15:42 | 02:20:46 | 00:00:00 | |
| BIOWL1-15 | 2026-09-03 01:11:02 | 50.67513 | 1.78202 | 84° | 51km/h | 16676m | -9.3m/s | -56.5°C | 0.5% | 0hPa | 2.5V | 08:17:04 | 02:20:43 | 00:00:00 | |
| DM0DOS-11 | 2026-09-03 01:10:59 | 50.67506 | 1.78025 | 91° | 71km/h | 16737m | -9.2m/s | -56.1°C | 4.4% | 0hPa | 2.5V | 08:15:52 | 02:20:36 | 00:00:00 | |
| BIOWL1-15 | 2026-09-03 01:10:51 | 50.67525 | 1.77856 | 109° | 69km/h | 16792m | -9.2m/s | -55.9°C | 0.4% | 0hPa | 2.5V | 08:17:04 | 02:20:30 | 00:00:00 | |
| DM0DOS-11 | 2026-09-03 01:10:49 | 50.67551 | 1.77763 | 118° | 58km/h | 16827m | -9.6m/s | -56.1°C | 4.4% | 0hPa | 2.5V | 08:16:02 | 02:20:26 | 00:00:00 | |
| DO1YAY-16 | 2026-09-03 01:10:46 | 50.67544 | 1.77784 | 117° | 62km/h | 16818m | -9.1m/s | -56.0°C | 1.1% | -1.0hPa | 2.6V | 00:00:00 | 00:00:00 | 00:00:00 | |
| BIOWL9-15 | 2026-09-03 01:10:41 | 50.67583 | 1.77682 | 118° | 33km/h | 16874m | -9.3m/s | -55.9°C | 1.1% | -1.0hPa | 2.6V | 00:00:00 | 00:00:00 | 00:00:00 | |
| AU51GT2 | 2026-09-03 01:10:40 | 50.67586 | 1.77670 | 111° | 29km/h | 16883m | -9.2m/s | -55.7°C | 1.1% | -1.0hPa | 2.6V | 00:00:00 | 00:00:00 | 00:00:00 | |
| DM0DOS-11 | 2026-09-03 01:10:39 | 50.67585 | 1.77621 | 75° | 37km/h | 16919m | -8.6m/s | -55.6°C | 4.2% | 0hPa | 2.6V | 08:16:12 | 02:20:16 | 00:00:00 | |
| BIOWL1-15 | 2026-09-03 01:10:38 | 50.67588 | 1.77659 | 100° | 27km/h | 16892m | -9.5m/s | -55.5°C | 0.4% | 0hPa | 2.5V | 08:17:04 | 02:20:19 | 00:00:00 | |
| DM0DOS-11 | 2026-09-03 01:10:29 | 50.67590 | 1.77434 | 115° | 46km/h | 17009m | -9.5m/s | -54.9°C | 3.9% | 0hPa | 2.6V | 08:16:22 | 02:20:06 | 00:00:00 | |
| DM0DOS-11 | 2026-09-03 01:10:19 | 50.67604 | 1.77317 | 74° | 42km/h | 17101m | -9.4m/s | -55.1°C | 4% | 0hPa | 2.5V | 08:16:32 | 02:19:56 | 00:00:00 | |
| BIOWL1-15 | 2026-09-03 01:10:13 | 50.67601 | 1.77196 | 101° | 53km/h | 17155m | -9.5m/s | -54.8°C | 0.1% | 0hPa | 2.5V | 08:17:04 | 02:19:50 | 00:00:00 | |
| BIOWL9-15 | 2026-09-03 01:10:10 | 50.67601 | 1.77196 | 101° | 51km/h | 17155m | -9.5m/s | -54.8°C | 1.0% | -1.0hPa | 2.5V | 00:00:00 | 00:00:00 | 00:00:00 | |
| AU51GT2 | 2026-09-03 01:10:09 | 50.67604 | 1.77176 | 106° | 49km/h | 17164m | -8.9m/s | -54.8°C | 0.9% | -1.0hPa | 2.5V | 00:00:00 | 00:00:00 | 00:00:00 | |
| DM0DOS-11 | 2026-09-03 01:10:06 | 50.67617 | 1.77125 | 116° | 42km/h | 17190m | -9.3m/s | -55°C | 3.9% | 0hPa | 2.5V | 08:16:42 | 02:19:46 | 00:00:00 | |
| BIOWL1-15 | 2026-09-03 01:10:01 | 50.67643 | 1.77059 | 115° | 20km/h | 17246m | -9.1m/s | -55.5°C | 0.2% | 0hPa | 2.5V | 08:17:04 | 02:19:40 | 00:00:00 | |
| DM0DOS-11 | 2026-09-03 01:10:00 | 50.67643 | 1.77029 | 68° | 26km/h | 17281m | -8.7m/s | -55.8°C | 4.1% | 0hPa | 2.5V | 08:16:52 | 02:19:36 | 00:00:00 | |
| WEDDY | 2026-09-03 01:09:53 | 50.67640 | 1.77018 | 64° | 33km/h | 17290m | -8.8m/s | -55.9°C | 1.2% | 0hPa | 2.5V | 08:17:00 | 00:00:00 | 00:00:00 | |
| DB0UT-7 | 2026-09-03 01:09:50 | 50.67625 | 1.76956 | 77° | 47km/h | 17326m | -9.4m/s | -56.0°C | 4.2% | 0hPa | 2.5V | 00:00:00 | 00:00:00 | 00:00:00 | |
| DM0DOS-11 | 2026-09-03 01:09:49 | 50.67620 | 1.76847 | 98° | 60km/h | 17372m | -8.5m/s | -55.9°C | 4.1% | 0hPa | 2.6V | 08:17:02 | 02:19:26 | 00:00:00 | |
| BIOWL1-15 | 2026-09-03 01:09:48 | 50.67619 | 1.76893 | 86° | 58km/h | 17355m | -9.5m/s | -55.9°C | 0.3% | 0hPa | 2.6V | 08:17:04 | 02:19:28 | 00:00:00 | |
| HTAHTA | 2026-09-03 01:09:45 | 50.67620 | 1.76847 | 98° | 58km/h | 17373m | -8.5m/s | -55.9°C | 1.0% | -1.0hPa | 2.5V | 00:00:00 | 00:00:00 | 00:00:00 | |
| BIOWL1-15 | 2026-09-03 01:09:38 | 50.67657 | 1.76732 | 128° | 31km/h | 17435m | -9.1m/s | -56.3°C | 0.3% | 0hPa | 2.5V | 08:17:55 | 02:19:19 | 00:00:00 | |
| DM0DOS-11 | 2026-09-03 01:09:36 | 50.67664 | 1.76704 | 96° | 24km/h | 17461m | -9.2m/s | -56.2°C | 4.2% | 0hPa | 2.6V | 08:17:12 | 02:19:16 | 00:00:00 | |
| WEDDY | 2026-09-03 01:09:33 | 50.67664 | 1.76681 | 84° | 35km/h | 17480m | -9.5m/s | -56.2°C | 1.2% | 0hPa | 2.6V | 08:17:00 | 00:00:00 | 00:00:00 | |
| DM0DOS-11 | 2026-09-03 01:09:30 | 50.67677 | 1.76518 | 111° | 60km/h | 17556m | -9.8m/s | -55.9°C | 4.1% | 0hPa | 2.6V | 08:17:22 | 02:19:06 | 00:00:00 | |
| BIOWL1-15 | 2026-09-03 01:09:27 | 50.67668 | 1.76563 | 103° | 60km/h | 17536m | -10.4m/s | -56.1°C | 0.2% | 0hPa | 2.5V | 08:17:55 | 02:19:08 | 00:00:00 | |
| DB0UT-7 | 2026-09-03 01:09:20 | 50.67711 | 1.76423 | 125° | 42km/h | 17604m | -9.1m/s | -55.8°C | 4.1% | 0hPa | 2.6V | 00:00:00 | 02:19:01 | 00:00:00 | |
| DM0DOS-11 | 2026-09-03 01:09:16 | 50.67736 | 1.76360 | 112° | 31km/h | 17650m | -9.7m/s | -55.5°C | 3.9% | 0hPa | 2.6V | 08:17:32 | 02:18:56 | 00:00:00 | |
| BIOWL1-15 | 2026-09-03 01:09:16 | 50.67733 | 1.76371 | 119° | 33km/h | 17640m | -9.6m/s | -55.5°C | 0.1% | 0hPa | 2.5V | 08:17:55 | 02:18:57 | 00:00:00 | |
| HTAHTA | 2026-09-03 01:09:14 | 50.67739 | 1.76349 | 106° | 27km/h | 17660m | -9.5m/s | -55.5°C | 0.9% | -1.0hPa | 2.6V | 00:00:00 | 00:00:00 | 00:00:00 | |
| WEDDY | 2026-09-03 01:09:13 | 50.67740 | 1.76338 | 100° | 27km/h | 17670m | -10.1m/s | -55.5°C | 1.1% | 0hPa | 2.6V | 08:17:00 | 00:00:00 | 00:00:00 | |
| DM0DOS-11 | 2026-09-03 01:09:06 | 50.67728 | 1.76225 | 77° | 51km/h | 17748m | -9.5m/s | -55.6°C | 4% | 0hPa | 2.6V | 08:17:42 | 02:18:46 | 00:00:00 | |
| BIOWL1-15 | 2026-09-03 01:09:06 | 50.67731 | 1.76243 | 76° | 46km/h | 17738m | -9.5m/s | -55.6°C | 0.1% | 0hPa | 2.5V | 08:17:55 | 02:18:47 | 00:00:00 | |
| BIOWL1-15 | 2026-09-03 01:08:55 | 50.67743 | 1.75996 | 115° | 57km/h | 17843m | -9.1m/s | -56°C | 0.2% | 0hPa | 2.6V | 08:17:55 | 02:18:36 | 00:00:00 | |
| BIOWL1-15 | 2026-09-03 01:08:46 | 50.67804 | 1.75850 | 113° | 24km/h | 17952m | -10.4m/s | -55.5°C | 0.1% | 0hPa | 2.6V | 08:19:37 | 02:18:25 | 00:00:00 | |
| BIOWL1-15 | 2026-09-03 01:08:34 | 50.67800 | 1.75713 | 89° | 51km/h | 18053m | -9.8m/s | -55.5°C | 0.1% | 0hPa | 2.6V | 08:19:37 | 02:18:15 | 00:00:00 | |
| WEDDY | 2026-09-03 01:08:32 | 50.67801 | 1.75669 | 96° | 57km/h | 18073m | -9.3m/s | -55.5°C | 1.0% | 0hPa | 2.5V | 08:18:00 | 00:00:00 | 00:00:00 | |
| DM0DOS-11 | 2026-09-03 01:08:30 | 50.67825 | 1.75537 | 116° | 57km/h | 18132m | -10.2m/s | -55.5°C | 3.9% | 0hPa | 2.5V | 08:18:21 | 02:18:07 | 00:00:00 | |
| BIOWL1-15 | 2026-09-03 01:08:23 | 50.67854 | 1.75456 | 113° | 35km/h | 18184m | -10.3m/s | -55.5°C | 0.1% | 0hPa | 2.5V | 08:19:37 | 02:18:02 | 00:00:00 | |
| DM0DOS-11 | 2026-09-03 01:08:20 | 50.67858 | 1.75390 | 80° | 38km/h | 18235m | -9.9m/s | -55.4°C | 4% | 0hPa | 2.5V | 08:18:31 | 02:17:57 | 00:00:00 | |
| BIOWL1-15 | 2026-09-03 01:08:13 | 50.67853 | 1.75338 | 84° | 47km/h | 18265m | -10.5m/s | -55.5°C | 0.1% | 0hPa | 2.5V | 08:19:37 | 02:17:54 | 00:00:00 | |
| BIOWL1-15 | 2026-09-03 01:08:02 | 50.67897 | 1.75115 | 130° | 49km/h | 18380m | -9.9m/s | -55.5°C | 0.1% | 0hPa | 2.5V | 08:19:37 | 02:17:43 | 00:00:00 | |
| DM0DOS-11 | 2026-09-03 01:07:59 | 50.67939 | 1.75044 | 128° | 27km/h | 18443m | -11m/s | -55.4°C | 4% | 0hPa | 2.5V | 08:18:51 | 02:17:37 | 00:00:00 | |
| DM0DOS-11 | 2026-09-03 01:07:51 | 50.67939 | 1.74942 | 66° | 38km/h | 18560m | -11m/s | -55°C | 3.8% | 0hPa | 2.6V | 08:19:02 | 02:17:26 | 00:00:00 | |
| BIOWL1-15 | 2026-09-03 01:07:51 | 50.67950 | 1.75004 | 96° | 20km/h | 18496m | -10.7m/s | -55.1°C | 0.1% | 0hPa | 2.5V | 08:19:37 | 02:17:32 | 00:00:00 | |
| WEDDY | 2026-09-03 01:07:51 | 50.67950 | 1.75004 | 97° | 20km/h | 18497m | -10.7m/s | -55.1°C | 1.0% | 0hPa | 2.6V | 08:19:00 | 00:00:00 | 00:00:00 | |
| HTAHTA | 2026-09-03 01:07:41 | 50.67925 | 1.74877 | 76° | 49km/h | 18604m | -11.4m/s | -55.1°C | -1.0% | -1.0hPa | 2.6V | 00:00:00 | 00:00:00 | 00:00:00 | |
| DM0DOS-11 | 2026-09-03 01:07:39 | 50.67918 | 1.74752 | 91° | 53km/h | 18671m | -10.9m/s | -55.6°C | 4.1% | 0hPa | 2.6V | 08:19:12 | 02:17:16 | 00:00:00 | |
| BIOWL1-15 | 2026-09-03 01:07:34 | 50.67919 | 1.74731 | 97° | 53km/h | 18682m | -11.3m/s | -55.7°C | 0.2% | 0hPa | 2.6V | 08:19:37 | 02:17:15 | 00:00:00 | |
| AU51GT2 | 2026-09-03 01:07:34 | 50.67921 | 1.74710 | 99° | 53km/h | 18694m | -11.9m/s | -55.8°C | 0.9% | -1.0hPa | 2.6V | 00:00:00 | 00:00:00 | 00:00:00 | |
| DM0DOS-11 | 2026-09-03 01:07:29 | 50.67952 | 1.74587 | 118° | 31km/h | 18784m | -11.2m/s | -55°C | 3.9% | 0hPa | 2.6V | 08:19:22 | 02:17:06 | 00:00:00 | |
| BIOWL1-15 | 2026-09-03 01:07:23 | 50.67970 | 1.74528 | 116° | 26km/h | 18851m | -10.9m/s | -54.8°C | 0.1% | 0hPa | 2.6V | 08:19:37 | 02:17:00 | 00:00:00 | |
| DM0DOS-11 | 2026-09-03 01:07:19 | 50.67982 | 1.74488 | 115° | 29km/h | 18895m | -10.4m/s | -54.5°C | 3.9% | 0hPa | 2.6V | 08:19:32 | 02:16:56 | 00:00:00 | |
| BIOWL1-15 | 2026-09-03 01:07:08 | 50.67996 | 1.74395 | 78° | 18km/h | 19003m | -10.4m/s | -53.8°C | 0% | 0hPa | 2.6V | 08:20:28 | 02:16:46 | 00:00:00 | |
| AU51GT2 | 2026-09-03 01:07:03 | 50.67992 | 1.74374 | 72° | 16km/h | 19037m | -11.4m/s | -53.8°C | 0.8% | -1.0hPa | 2.6V | 00:00:00 | 00:00:00 | 00:00:00 | |
| DM0DOS-11 | 2026-09-03 01:06:58 | 50.67984 | 1.74325 | 85° | 13km/h | 19125m | -10.6m/s | -53.7°C | 3.6% | 0hPa | 2.6V | 08:19:53 | 02:16:35 | 00:00:00 | |
| BIOWL1-15 | 2026-09-03 01:06:56 | 50.67984 | 1.74304 | 86° | 13km/h | 19168m | -11.4m/s | -53.8°C | 0% | 0hPa | 2.6V | 08:20:28 | 02:16:31 | 00:00:00 | |
| DM0DOS-11 | 2026-09-03 01:06:48 | 50.67981 | 1.74276 | 84° | 11km/h | 19236m | -11.3m/s | -54°C | 3.6% | 0hPa | 2.6V | 08:20:03 | 02:16:25 | 00:00:00 | |
| BIOWL1-15 | 2026-09-03 01:06:41 | 50.67991 | 1.74207 | 105° | 38km/h | 19314m | -11.1m/s | -54.1°C | 0% | 0hPa | 2.5V | 08:20:28 | 02:16:18 | 00:00:00 | |
| HTAHTA | 2026-09-03 01:06:39 | 50.67986 | 1.74234 | 104° | 33km/h | 19292m | -11.3m/s | -54.0°C | 0% | -1.0hPa | 2.6V | 00:00:00 | 00:00:00 | 00:00:00 | |
| DM0DOS-11 | 2026-09-03 01:06:38 | 50.67999 | 1.74159 | 104° | 44km/h | 19347m | -11.1m/s | -54.1°C | 3.7% | 0hPa | 2.6V | 08:20:13 | 02:16:15 | 00:00:00 | |
| BIOWL1-15 | 2026-09-03 01:06:27 | 50.67986 | 1.73951 | 71° | 35km/h | 19477m | -10.4m/s | -54.6°C | 0.1% | 0hPa | 2.5V | 08:20:28 | 02:16:03 | 00:00:00 | |
| DM0DOS-11 | 2026-09-03 01:06:27 | 50.67992 | 1.73980 | 73° | 40km/h | 19455m | -10.9m/s | -54.5°C | 3.7% | 0hPa | 2.6V | 08:20:23 | 02:16:05 | 00:00:00 | |
| BIOWL1-15 | 2026-09-03 01:06:17 | 50.67974 | 1.73904 | 63° | 18km/h | 19530m | -10.5m/s | -54.7°C | 0.1% | 0hPa | 2.5V | 08:21:19 | 02:15:58 | 00:00:00 | |
| DM0DOS-11 | 2026-09-03 01:06:16 | 50.67968 | 1.73889 | 50° | 11km/h | 19563m | -11.1m/s | -54.8°C | 3.9% | 0hPa | 2.6V | 08:20:33 | 02:15:55 | 00:00:00 | |
| BIOWL1-15 | 2026-09-03 01:06:07 | 50.67972 | 1.73876 | 147° | 24km/h | 19643m | -10.7m/s | -55°C | 0.2% | 0hPa | 2.5V | 08:21:19 | 02:15:48 | 00:00:00 | |
| WEDDY | 2026-09-03 01:06:06 | 50.67972 | 1.73875 | 148° | 24km/h | 19644m | -10.7m/s | -55.0°C | 1.0% | 0hPa | 2.6V | 08:21:00 | 00:00:00 | 00:00:00 | |
| DM0DOS-11 | 2026-09-03 01:06:05 | 50.67985 | 1.73843 | 102° | 40km/h | 19677m | -11.1m/s | -55.1°C | 3.9% | 0hPa | 2.6V | 08:20:43 | 02:15:45 | 00:00:00 | |
| BIOWL1-15 | 2026-09-03 01:05:57 | 50.67958 | 1.73758 | 42° | 15km/h | 19757m | -11.7m/s | -54.9°C | 0.1% | 0hPa | 2.5V | 08:21:19 | 02:15:38 | 00:00:00 | |
| DM0DOS-11 | 2026-09-03 01:05:55 | 50.67961 | 1.73741 | 118° | 29km/h | 19792m | -12.1m/s | -54.8°C | 3.7% | 0hPa | 2.6V | 08:20:53 | 02:15:35 | 00:00:00 | |
| DM0DOS-11 | 2026-09-03 01:05:50 | 50.67945 | 1.73587 | 84° | 20km/h | 19908m | -12.2m/s | -55.5°C | 4% | 0hPa | 2.6V | 08:21:03 | 02:15:25 | 00:00:00 | |
| BIOWL1-15 | 2026-09-03 01:05:47 | 50.67946 | 1.73595 | 63° | 24km/h | 19896m | -12.2m/s | -55.4°C | 0.2% | 0hPa | 2.6V | 08:21:19 | 02:15:26 | 00:00:00 | |
| DM0DOS-11 | 2026-09-03 01:05:39 | 50.67959 | 1.73410 | 86° | 31km/h | 20025m | -12.2m/s | -55.3°C | 4% | 0hPa | 2.5V | 08:21:13 | 02:15:15 | 00:00:00 | |
| BIOWL1-15 | 2026-09-03 01:05:32 | 50.67978 | 1.73366 | 135° | 49km/h | 20074m | -12.4m/s | -55.3°C | 0.2% | 0hPa | 2.5V | 08:21:19 | 02:15:11 | 00:00:00 | |
| BIOWL9-15 | 2026-09-03 01:05:30 | 50.67978 | 1.73366 | 134° | 47km/h | 20074m | -12.4m/s | -55.3°C | 0.9% | -1.0hPa | 2.5V | 00:00:00 | 00:00:00 | 00:00:00 | |
| DM0DOS-11 | 2026-09-03 01:05:29 | 50.68010 | 1.73251 | 89° | 42km/h | 20148m | -13.1m/s | -54.7°C | 3.8% | 0hPa | 2.5V | 08:21:23 | 02:15:05 | 00:00:00 | |
| BIOWL1-15 | 2026-09-03 01:05:22 | 50.68004 | 1.73210 | 67° | 9km/h | 20199m | -12.3m/s | -54.5°C | 0.1% | 0hPa | 2.5V | 08:22:10 | 02:15:01 | 00:00:00 | |
| BIOWL1-15 | 2026-09-03 01:05:10 | 50.68054 | 1.73150 | 107° | 46km/h | 20327m | -12.8m/s | -54.6°C | 0.1% | 0hPa | 2.6V | 08:22:10 | 02:14:51 | 00:00:00 | |
| HTAHTA | 2026-09-03 01:05:06 | 50.68053 | 1.73081 | 75° | 16km/h | 20391m | -13.3m/s | 0°C | -1.0% | -1.0hPa | 2.6V | 00:00:00 | 00:00:00 | 00:00:00 | |
| DO1YAY-16 | 2026-09-03 01:05:05 | 50.68053 | 1.73076 | 86° | 9km/h | 20404m | -12.7m/s | -54.7°C | 0.8% | -1.0hPa | 2.6V | 00:00:00 | 00:00:00 | 00:00:00 | |
| BIOWL9-15 | 2026-09-03 01:04:59 | 50.68078 | 1.73058 | 158° | 40km/h | 20470m | -13.6m/s | -55.1°C | 0.9% | -1.0hPa | 2.6V | 00:00:00 | 00:00:00 | 00:00:00 | |
| BIOWL1-15 | 2026-09-03 01:04:59 | 50.68078 | 1.73058 | 158° | 42km/h | 20469m | -13.6m/s | -55.1°C | 0.2% | 0hPa | 2.5V | 08:22:10 | 02:14:40 | 00:00:00 | |
| DM0DOS-11 | 2026-09-03 01:04:58 | 50.68126 | 1.72990 | 118° | 55km/h | 20534m | -12.8m/s | -55.2°C | 4.1% | 0hPa | 2.6V | 08:21:53 | 02:14:35 | 00:00:00 | |
| BIOWL1-15 | 2026-09-03 01:04:49 | 50.68134 | 1.72916 | 69° | 18km/h | 20601m | -13.7m/s | -54.4°C | 0.1% | 0hPa | 2.6V | 08:22:10 | 02:14:30 | 00:00:00 | |
| DM0DOS-11 | 2026-09-03 01:04:48 | 50.68141 | 1.72904 | 161° | 26km/h | 20668m | -13.3m/s | -54.5°C | 3.9% | 0hPa | 2.6V | 08:22:03 | 02:14:25 | 00:00:00 | |
| BIOWL1-15 | 2026-09-03 01:04:40 | 50.68180 | 1.72802 | 92° | 46km/h | 20761m | -13.4m/s | -54.4°C | 0.1% | 0hPa | 2.6V | 08:22:10 | 02:14:18 | 00:00:00 | |
| DM0DOS-11 | 2026-09-03 01:04:38 | 50.68177 | 1.72760 | 70° | 24km/h | 20801m | -13.8m/s | -54.1°C | 3.8% | 0hPa | 2.5V | 08:22:13 | 02:14:15 | 00:00:00 | |
| HTAHTA | 2026-09-03 01:04:35 | 50.68175 | 1.72753 | 68° | 15km/h | 20815m | -13.7m/s | 0°C | -1.0% | -1.0hPa | 2.5V | 00:00:00 | 00:00:00 | 00:00:00 | |
| DO1YAY-16 | 2026-09-03 01:04:33 | 50.68175 | 1.72753 | 68° | 15km/h | 20815m | -13.7m/s | -54.1°C | 0.8% | -1.0hPa | 2.5V | 00:00:00 | 00:00:00 | 00:00:00 | |
| AU51GT2 | 2026-09-03 01:04:28 | 50.68200 | 1.72740 | 158° | 37km/h | 20895m | -13.9m/s | -54.1°C | 0.8% | -1.0hPa | 2.5V | 00:00:00 | 00:00:00 | 00:00:00 | |
| DM0DOS-11 | 2026-09-03 01:04:27 | 50.68225 | 1.72707 | 125° | 49km/h | 20936m | -13.4m/s | -53.9°C | 3.8% | 0hPa | 2.5V | 08:22:23 | 02:14:05 | 00:00:00 | |
| BIOWL1-15 | 2026-09-03 01:04:26 | 50.68235 | 1.72671 | 100° | 47km/h | 20963m | -14.1m/s | -53.7°C | 0.1% | 0hPa | 2.5V | 08:23:01 | 02:14:03 | 00:00:00 | |
| DM0DOS-11 | 2026-09-03 01:04:16 | 50.68230 | 1.72587 | 154° | 20km/h | 21071m | -13.7m/s | -53.3°C | 3.7% | 0hPa | 2.6V | 08:22:33 | 02:13:55 | 00:00:00 | |
| BIOWL1-15 | 2026-09-03 01:04:14 | 50.68236 | 1.72583 | 158° | 31km/h | 21085m | -14m/s | -53.2°C | 0.1% | 0hPa | 2.5V | 08:23:01 | 02:13:54 | 00:00:00 | |
| DB0UT-7 | 2026-09-03 01:04:13 | 50.68236 | 1.72583 | 159° | 27km/h | 21085m | -13.9m/s | -53.1°C | 3.7% | 0hPa | 2.6V | 00:00:00 | 02:13:54 | 00:00:00 | |
| DM0DOS-11 | 2026-09-03 01:04:05 | 50.68292 | 1.72460 | 89° | 33km/h | 21210m | -14.8m/s | -52.4°C | 3.4% | 0hPa | 2.6V | 08:22:43 | 02:13:45 | 00:00:00 | |
| BIOWL1-15 | 2026-09-03 01:04:03 | 50.68291 | 1.72448 | 76° | 27km/h | 21225m | -14.9m/s | -52.3°C | 0% | 0hPa | 2.6V | 08:23:01 | 02:13:44 | 00:00:00 | |
| DO1YAY-16 | 2026-09-03 01:04:02 | 50.68290 | 1.72440 | 71° | 18km/h | 21239m | -14.1m/s | -52.3°C | 0.7% | -1.0hPa | 2.5V | 00:00:00 | 00:00:00 | 00:00:00 | |
| DM0DOS-11 | 2026-09-03 01:04:00 | 50.68304 | 1.72438 | 154° | 26km/h | 21369m | -14.3m/s | -52.5°C | 3.4% | 0hPa | 2.5V | 08:22:54 | 02:13:34 | 00:00:00 | |
| BIOWL1-15 | 2026-09-03 01:03:53 | 50.68304 | 1.72438 | 154° | 26km/h | 21369m | -14.3m/s | -52.5°C | 0% | 0hPa | 2.5V | 08:23:01 | 02:13:34 | 00:00:00 | |
| DM0DOS-11 | 2026-09-03 01:03:48 | 50.68279 | 1.72350 | 353° | 22km/h | 21528m | -14.3m/s | -53°C | 3.5% | 0hPa | 2.5V | 08:23:05 | 02:13:23 | 00:00:00 | |
| BIOWL1-15 | 2026-09-03 01:03:43 | 50.68279 | 1.72350 | 354° | 22km/h | 21529m | -14.3m/s | -53°C | 0% | 0hPa | 2.5V | 08:23:52 | 02:13:23 | 00:00:00 | |
| DJ2DS-15 | 2026-09-03 01:03:40 | 50.68272 | 1.72355 | 308° | 9km/h | 21558m | -14.9m/s | -53.2°C | 0.7% | -1.0hPa | 2.5V | 00:00:00 | 00:00:00 | 00:00:00 | |
| DM0DOS-11 | 2026-09-03 01:03:36 | 50.68296 | 1.72310 | 103° | 42km/h | 21675m | -14.7m/s | -53.4°C | 3.6% | 0hPa | 2.5V | 08:23:15 | 02:13:13 | 00:00:00 | |
| BIOWL1-15 | 2026-09-03 01:03:31 | 50.68297 | 1.72293 | 91° | 44km/h | 21690m | -14.3m/s | -53.4°C | 0% | 0hPa | 2.5V | 08:23:52 | 02:13:12 | 00:00:00 | |
| AU51GT2 | 2026-09-03 01:03:26 | 50.68283 | 1.72228 | 57° | 7km/h | 21779m | -15.0m/s | -53.8°C | 0.8% | -1.0hPa | 2.6V | 00:00:00 | 00:00:00 | 00:00:00 | |
| DM0DOS-11 | 2026-09-03 01:03:25 | 50.68288 | 1.72228 | 181° | 20km/h | 21823m | -14.9m/s | -53.7°C | 3.7% | 0hPa | 2.6V | 08:23:25 | 02:13:03 | 00:00:00 | |
| BIOWL1-15 | 2026-09-03 01:03:21 | 50.68294 | 1.72228 | 179° | 27km/h | 21837m | -15.3m/s | -53.6°C | 0.1% | 0hPa | 2.6V | 08:23:52 | 02:13:02 | 00:00:00 | |
| DM0DOS-11 | 2026-09-03 01:03:17 | 50.68341 | 1.72143 | 72° | 33km/h | 21975m | -15.2m/s | -53.2°C | 3.6% | 0hPa | 2.5V | 08:23:35 | 02:12:53 | 00:00:00 | |
| DM0DOS-11 | 2026-09-03 01:03:05 | 50.68328 | 1.72111 | 154° | 24km/h | 22130m | -15.6m/s | -53.1°C | 3.7% | 0hPa | 2.6V | 08:23:45 | 02:12:43 | 00:00:00 | |
| BIOWL1-15 | 2026-09-03 01:03:04 | 50.68339 | 1.72096 | 132° | 35km/h | 22161m | -15.4m/s | -53°C | 0% | 0hPa | 2.5V | 08:23:52 | 02:12:41 | 00:00:00 | |
| BIOWL1-15 | 2026-09-03 01:02:56 | 50.68343 | 1.72009 | 57° | 35km/h | 22254m | -15.7m/s | -53°C | 0% | 0hPa | 2.5V | 08:24:43 | 02:12:35 | 00:00:00 | |
| BIOWL9-15 | 2026-09-03 01:02:55 | 50.68343 | 1.72009 | 57° | 33km/h | 22254m | -15.7m/s | -53.0°C | 0.7% | -1.0hPa | 2.6V | 00:00:00 | 00:00:00 | 00:00:00 | |
| DM0DOS-11 | 2026-09-03 01:02:54 | 50.68334 | 1.71995 | 31° | 22km/h | 22286m | -15.7m/s | -52.9°C | 3.5% | 0hPa | 2.6V | 08:23:55 | 02:12:33 | 00:00:00 | |
| AU51GT2 | 2026-09-03 01:02:54 | 50.68343 | 1.72009 | 57° | 33km/h | 22254m | -15.7m/s | -53.0°C | 0.7% | -1.0hPa | 2.5V | 00:00:00 | 00:00:00 | 00:00:00 | |
| BIOWL1-15 | 2026-09-03 01:02:44 | 50.68350 | 1.72005 | 160° | 31km/h | 22427m | -15.3m/s | -52.5°C | 0% | 0hPa | 2.5V | 08:24:43 | 02:12:24 | 00:00:00 | |
| DM0DOS-11 | 2026-09-03 01:02:43 | 50.68356 | 1.72000 | 139° | 27km/h | 22443m | -16m/s | -52.5°C | 3.4% | 0hPa | 2.5V | 08:24:05 | 02:12:23 | 00:00:00 | |
| BIOWL1-15 | 2026-09-03 01:02:33 | 50.68341 | 1.71964 | 299° | 16km/h | 22585m | -15.6m/s | -53°C | 0% | 0hPa | 2.6V | 08:24:43 | 02:12:14 | 00:00:00 | |
| DM0DOS-11 | 2026-09-03 01:02:33 | 50.68340 | 1.71970 | 268° | 16km/h | 22601m | -16.1m/s | -53.1°C | 3.6% | 0hPa | 2.6V | 08:24:15 | 02:12:13 | 00:00:00 | |
| DB0UT-7 | 2026-09-03 01:02:30 | 50.68345 | 1.71979 | 201° | 29km/h | 22634m | -17.1m/s | -53.2°C | 3.6% | 0hPa | 2.5V | 00:00:00 | 02:12:11 | 00:00:00 | |
| DO1YAY-16 | 2026-09-03 01:02:29 | 50.68351 | 1.71980 | 179° | 22km/h | 22651m | -16.5m/s | -53.3°C | 0.7% | -1.0hPa | 2.5V | 00:00:00 | 00:00:00 | 00:00:00 | |
| DM0DOS-11 | 2026-09-03 01:02:27 | 50.68375 | 1.71902 | 80° | 38km/h | 22763m | -16.1m/s | -53.6°C | 3.8% | 0hPa | 2.5V | 08:24:25 | 02:12:03 | 00:00:00 | |
| BIOWL1-15 | 2026-09-03 01:02:23 | 50.68376 | 1.71917 | 88° | 40km/h | 22746m | -17m/s | -53.6°C | 0.1% | 0hPa | 2.5V | 08:24:43 | 02:12:04 | 00:00:00 | |
| WEDDY | 2026-09-03 01:02:22 | 50.68375 | 1.71901 | 81° | 38km/h | 22763m | -16.1m/s | -53.6°C | 0.8% | 0hPa | 2.6V | 08:24:00 | 00:00:00 | 00:00:00 | |
| DM0DOS-11 | 2026-09-03 01:02:15 | 50.68388 | 1.71861 | 162° | 37km/h | 22926m | -16.6m/s | -53.5°C | 3.8% | 0hPa | 2.6V | 08:24:35 | 02:11:53 | 00:00:00 | |
| BIOWL1-15 | 2026-09-03 01:02:10 | 50.68406 | 1.71846 | 139° | 40km/h | 22959m | -16.3m/s | -53.4°C | 0.1% | 0hPa | 2.5V | 08:24:43 | 02:11:51 | 00:00:00 | |
| DM0DOS-11 | 2026-09-03 01:02:04 | 50.68409 | 1.71765 | 10° | 9km/h | 23091m | -17.3m/s | -52.7°C | 3.6% | 0hPa | 2.6V | 08:24:45 | 02:11:43 | 00:00:00 | |
| BIOWL1-15 | 2026-09-03 01:02:01 | 50.68470 | 1.71722 | 94° | 35km/h | 23294m | -17.3m/s | -51.9°C | 0% | 0hPa | 2.5V | 08:25:34 | 02:11:31 | 00:00:00 | |
| DO1YAY-16 | 2026-09-03 01:01:58 | 50.68424 | 1.71780 | 187° | 33km/h | 23175m | -17.3m/s | -52.4°C | 0.7% | -1.0hPa | 2.5V | 00:00:00 | 00:00:00 | 00:00:00 | |
| DM0DOS-11 | 2026-09-03 01:01:57 | 50.68464 | 1.71750 | 122° | 38km/h | 23259m | -17.6m/s | -51.9°C | 3.3% | 0hPa | 2.5V | 08:24:55 | 02:11:33 | 00:00:00 | |
| BIOWL9-15 | 2026-09-03 01:01:53 | 50.68464 | 1.71750 | 122° | 38km/h | 23259m | -17.6m/s | -51.9°C | 0.6% | -1.0hPa | 2.6V | 00:00:00 | 00:00:00 | 00:00:00 | |
| AU51GT2 | 2026-09-03 01:01:52 | 50.68464 | 1.71750 | 122° | 38km/h | 23259m | -17.6m/s | -51.9°C | 0.6% | -1.0hPa | 2.6V | 00:00:00 | 00:00:00 | 00:00:00 | |
| DM0DOS-11 | 2026-09-03 01:01:45 | 50.68452 | 1.71699 | 214° | 13km/h | 23426m | -17.1m/s | -52.4°C | 3.5% | 0hPa | 2.6V | 08:25:05 | 02:11:23 | 00:00:00 | |
| BIOWL1-15 | 2026-09-03 01:01:45 | 50.68454 | 1.71689 | 347° | 15km/h | 23376m | -16.4m/s | -52.1°C | 0% | 0hPa | 2.5V | 08:25:34 | 02:11:26 | 00:00:00 | |
| BIOWL1-15 | 2026-09-03 01:01:34 | 50.68493 | 1.71618 | 70° | 27km/h | 23599m | -17.9m/s | -52.3°C | 0% | 0hPa | 2.5V | 08:25:34 | 02:11:13 | 00:00:00 | |
| DM0DOS-11 | 2026-09-03 01:01:33 | 50.68493 | 1.71618 | 69° | 26km/h | 23599m | -17.9m/s | -52.3°C | 3.5% | 0hPa | 2.5V | 08:25:15 | 02:11:13 | 00:00:00 | |
| DM0DOS-11 | 2026-09-03 01:01:27 | 50.68541 | 1.71636 | 166° | 46km/h | 23792m | -18m/s | -52.1°C | 3.5% | 0hPa | 2.6V | 08:25:26 | 02:11:02 | 00:00:00 | |
| BIOWL1-15 | 2026-09-03 01:01:20 | 50.68561 | 1.71622 | 141° | 38km/h | 23827m | -17.6m/s | -52.1°C | 0% | 0hPa | 2.5V | 08:25:34 | 02:11:00 | 00:00:00 | |
| WEDDY | 2026-09-03 01:01:19 | 50.68552 | 1.71630 | 158° | 44km/h | 23810m | -17.4m/s | -52.1°C | 0.8% | 0hPa | 2.5V | 08:25:00 | 00:00:00 | 00:00:00 | |
| DB0UT-7 | 2026-09-03 01:01:18 | 50.68567 | 1.71613 | 130° | 27km/h | 23845m | -17.9m/s | -52.1°C | 3.5% | 0hPa | 2.5V | 00:00:00 | 00:00:00 | 00:00:00 | |
| DM0DOS-11 | 2026-09-03 01:01:15 | 50.68561 | 1.71598 | 299° | 22km/h | 23949m | -17.2m/s | -52.3°C | 3.6% | 0hPa | 2.5V | 08:25:35 | 02:10:53 | 00:00:00 | |
| BIOWL1-15 | 2026-09-03 01:01:09 | 50.68581 | 1.71644 | 174° | 29km/h | 24055m | -18.5m/s | -52.1°C | 0% | 0hPa | 2.5V | 08:26:25 | 02:10:47 | 00:00:00 | |
| BIOWL1-15 | 2026-09-03 01:01:03 | 50.68584 | 1.71552 | 275° | 9km/h | 24251m | -17.7m/s | -51°C | 0% | 0hPa | 2.6V | 08:26:25 | 02:10:36 | 00:00:00 | |
| DM0DOS-11 | 2026-09-03 01:01:03 | 50.68603 | 1.71608 | 103° | 38km/h | 24126m | -17.8m/s | -51.8°C | 3.5% | 0hPa | 2.6V | 08:25:45 | 02:10:43 | 00:00:00 | |
| WEDDY | 2026-09-03 01:00:58 | 50.68598 | 1.71566 | 60° | 33km/h | 24180m | -17.7m/s | -51.6°C | 0.7% | 0hPa | 2.5V | 08:26:00 | 00:00:00 | 00:00:00 | |
| DM0DOS-11 | 2026-09-03 01:00:57 | 50.68607 | 1.71567 | 184° | 40km/h | 24322m | -18.1m/s | -50.8°C | 3.3% | 0hPa | 2.5V | 08:25:56 | 02:10:32 | 00:00:00 | |
| DO1YAY-16 | 2026-09-03 01:00:56 | 50.68586 | 1.71550 | 356° | 9km/h | 24233m | -18.1m/s | -51.2°C | 0.6% | -1.0hPa | 2.6V | 00:00:00 | 00:00:00 | 00:00:00 | |
| BIOWL9-15 | 2026-09-03 01:00:51 | 50.68618 | 1.71567 | 171° | 47km/h | 24340m | -18.4m/s | -50.7°C | 0.6% | -1.0hPa | 2.6V | 00:00:00 | 00:00:00 | 00:00:00 | |
| AU51GT2 | 2026-09-03 01:00:50 | 50.68618 | 1.71567 | 171° | 47km/h | 24340m | -18.4m/s | -50.7°C | 0.6% | -1.0hPa | 2.6V | 00:00:00 | 00:00:00 | 00:00:00 | |
| DB0UT-7 | 2026-09-03 01:00:48 | 50.68639 | 1.71555 | 150° | 27km/h | 24377m | -17.8m/s | -50.8°C | 3.3% | 0hPa | 2.6V | 00:00:00 | 02:10:29 | 00:00:00 | |
| DM0DOS-11 | 2026-09-03 01:00:46 | 50.68649 | 1.71522 | 298° | 22km/h | 24506m | -18.9m/s | -50.8°C | 3.3% | 0hPa | 2.6V | 08:26:06 | 02:10:22 | 00:00:00 | |
| BIOWL1-15 | 2026-09-03 01:00:45 | 50.68655 | 1.71526 | 102° | 22km/h | 24431m | -19m/s | -50.8°C | 0% | 0hPa | 2.5V | 08:26:25 | 02:10:26 | 00:00:00 | |
| BIOWL1-15 | 2026-09-03 01:00:37 | 50.68667 | 1.71575 | 187° | 35km/h | 24618m | -18.7m/s | -50.3°C | 0% | 0hPa | 2.6V | 08:26:25 | 02:10:16 | 00:00:00 | |
| DM0DOS-11 | 2026-09-03 01:00:35 | 50.68694 | 1.71548 | 110° | 35km/h | 24693m | -18.7m/s | -50°C | 3.2% | 0hPa | 2.5V | 08:26:16 | 02:10:12 | 00:00:00 | |
| BIOWL1-15 | 2026-09-03 01:00:24 | 50.68736 | 1.71573 | 169° | 26km/h | 24956m | -19.2m/s | -49.8°C | 0% | 0hPa | 2.5V | 08:27:16 | 02:09:58 | 00:00:00 | |
| DM0DOS-11 | 2026-09-03 01:00:24 | 50.68700 | 1.71554 | 219° | 46km/h | 24881m | -18.6m/s | -49.8°C | 3.2% | 0hPa | 2.6V | 08:26:26 | 02:10:02 | 00:00:00 | |
| BIOWL7-15 | 2026-09-03 01:00:22 | 50.68687 | 1.71531 | 245° | 31km/h | 24843m | -18.4m/s | -49.7°C | 0.6% | 0hPa | 2.5V | 08:26:00 | 00:00:00 | 00:00:00 | |
| BIOWL9-15 | 2026-09-03 01:00:20 | 50.68719 | 1.71570 | 197° | 38km/h | 24918m | -19.1m/s | -49.9°C | 0.6% | -1.0hPa | 2.5V | 00:00:00 | 00:00:00 | 00:00:00 | |
| AU51GT2 | 2026-09-03 01:00:19 | 50.68719 | 1.71570 | 197° | 38km/h | 24918m | -19.1m/s | -49.9°C | 0.6% | -1.0hPa | 2.5V | 00:00:00 | 00:00:00 | 00:00:00 | |
| DM0DOS-11 | 2026-09-03 01:00:18 | 50.68721 | 1.71582 | 319° | 42km/h | 25069m | -18.6m/s | -49.3°C | 3% | 0hPa | 2.5V | 08:26:36 | 02:09:52 | 00:00:00 | |
| BIOWL1-15 | 2026-09-03 01:00:14 | 50.68721 | 1.71582 | 320° | 42km/h | 25069m | -18.6m/s | -49.3°C | 0% | 0hPa | 2.5V | 08:27:16 | 02:09:52 | 00:00:00 | |
| DM0DOS-11 | 2026-09-03 01:00:06 | 50.68703 | 1.71683 | 44° | 20km/h | 25262m | -19m/s | -48.8°C | 2.9% | 0hPa | 2.5V | 08:26:46 | 02:09:42 | 00:00:00 | |
| BIOWL1-15 | 2026-09-03 00:59:59 | 50.68689 | 1.71670 | 21° | 40km/h | 25300m | -19m/s | -48.9°C | 0% | 0hPa | 2.6V | 08:27:16 | 02:09:40 | 00:00:00 | |
| DM0DOS-11 | 2026-09-03 00:59:56 | 50.68622 | 1.71717 | 249° | 22km/h | 25455m | -19.5m/s | -49.3°C | 3% | 0hPa | 2.6V | 08:26:56 | 02:09:32 | 00:00:00 | |
| DO1YAY-16 | 2026-09-03 00:59:54 | 50.68626 | 1.71696 | 302° | 35km/h | 25417m | -19.4m/s | -49.4°C | 0.5% | -1.0hPa | 2.5V | 00:00:00 | 00:00:00 | 00:00:00 | |
| BIOWL1-15 | 2026-09-03 00:59:49 | 50.68582 | 1.71769 | 273° | 40km/h | 26035m | -20.6m/s | -49.7°C | 0% | 0hPa | 2.5V | 08:28:07 | 02:09:03 | 00:00:00 | |
| AU51GT2 | 2026-09-03 00:59:48 | 50.68635 | 1.71724 | 155° | 22km/h | 25514m | -19.1m/s | -49.3°C | 0.5% | -1.0hPa | 2.5V | 00:00:00 | 00:00:00 | 00:00:00 | |
| DM0DOS-11 | 2026-09-03 00:59:46 | 50.68625 | 1.71677 | 343° | 27km/h | 25650m | -20.2m/s | -49.2°C | 3% | 0hPa | 2.5V | 08:27:06 | 02:09:22 | 00:00:00 | |
| BIOWL1-15 | 2026-09-03 00:59:38 | 50.68587 | 1.71798 | 238° | 37km/h | 26077m | -21.8m/s | -49.7°C | 0% | 0hPa | 2.5V | 08:28:07 | 02:09:01 | 00:00:00 | |
| DM0DOS-11 | 2026-09-03 00:59:38 | 50.68621 | 1.71721 | 21° | 31km/h | 25913m | -19.8m/s | -49.4°C | 3% | 0hPa | 2.5V | 08:27:19 | 02:09:09 | 00:00:00 | |
| DO9LL-15 | 2026-09-03 00:59:37 | 50.68608 | 1.71718 | 269° | 33km/h | 25732m | -19.9m/s | -49.1°C | 2.9% | 0hPa | 2.5V | 00:00:00 | 02:09:18 | 00:00:00 | |
| WEDDY | 2026-09-03 00:59:35 | 50.68610 | 1.71730 | 250° | 31km/h | 25752m | -20.4m/s | -49.2°C | 0.6% | 0hPa | 2.5V | 00:00:00 | 00:00:00 | 00:00:00 | |
| DJ2DS-15 | 2026-09-03 00:59:27 | 50.68613 | 1.71719 | 1° | 33km/h | 25933m | -20.3m/s | -49.4°C | 0.5% | -1.0hPa | 2.5V | 00:00:00 | 00:00:00 | 00:00:00 | |
| BIOWL7-15 | 2026-09-03 00:59:26 | 50.68613 | 1.71719 | 2° | 35km/h | 25933m | -20.3m/s | -49.4°C | 0.5% | 0hPa | 2.5V | 00:00:00 | 00:00:00 | 00:00:00 | |
| DM0DOS-11 | 2026-09-03 00:59:21 | 50.68587 | 1.71798 | 237° | 37km/h | 26077m | -21.8m/s | -49.7°C | 3.1% | 0hPa | 2.5V | 08:27:27 | 02:09:01 | 00:00:00 | |
| BIOWL1-15 | 2026-09-03 00:59:20 | 50.68592 | 1.71808 | 221° | 33km/h | 26099m | -21.7m/s | -49.9°C | 0% | 0hPa | 2.5V | 08:28:07 | 02:09:00 | 00:00:00 | |
| AU51GT2 | 2026-09-03 00:59:18 | 50.68604 | 1.71816 | 177° | 22km/h | 26141m | -21.0m/s | -50.2°C | 0.6% | -1.0hPa | 2.6V | 00:00:00 | 00:00:00 | 00:00:00 | |
| DM0DOS-11 | 2026-09-03 00:59:16 | 50.68581 | 1.71786 | 341° | 38km/h | 26286m | -21.4m/s | -50.6°C | 3.4% | 0hPa | 2.6V | 08:27:37 | 02:08:51 | 00:00:00 | |
| BIOWL1-15 | 2026-09-03 00:59:08 | 50.68562 | 1.71820 | 286° | 44km/h | 26351m | -20.7m/s | -50.5°C | 0% | 0hPa | 2.5V | 08:28:07 | 02:08:48 | 00:00:00 | |
| DB0UT-7 | 2026-09-03 00:59:08 | 50.68566 | 1.71805 | 304° | 35km/h | 26330m | -21.7m/s | -50.5°C | 3.4% | 0hPa | 2.5V | 00:00:00 | 02:08:49 | 00:00:00 | |
| DM0DOS-11 | 2026-09-03 00:59:04 | 50.68589 | 1.71872 | 105° | 18km/h | 26499m | -21.5m/s | -49.9°C | 3.2% | 0hPa | 2.5V | 08:27:47 | 02:08:41 | 00:00:00 | |
| BIOWL1-15 | 2026-09-03 00:58:57 | 50.68578 | 1.71846 | 30° | 40km/h | 26561m | -20.8m/s | -49.8°C | 0% | 0hPa | 2.6V | 08:28:07 | 02:08:38 | 00:00:00 | |
| DM0DOS-11 | 2026-09-03 00:58:54 | 50.68524 | 1.71861 | 245° | 11km/h | 26711m | -23.1m/s | -49.1°C | 3.2% | 0hPa | 2.6V | 08:27:57 | 02:08:31 | 00:00:00 | |
| BIOWL1-15 | 2026-09-03 00:58:47 | 50.68536 | 1.71857 | 136° | 29km/h | 26778m | -22.1m/s | -48.8°C | 0% | 0hPa | 2.5V | 08:28:07 | 02:08:28 | 00:00:00 | |
| AU51GT2 | 2026-09-03 00:58:46 | 50.68540 | 1.71846 | 118° | 37km/h | 26800m | -21.6m/s | -48.9°C | 0.5% | -1.0hPa | 2.5V | 00:00:00 | 00:00:00 | 00:00:00 | |
| BIOWL1-15 | 2026-09-03 00:58:39 | 50.68503 | 1.71781 | 295° | 29km/h | 26997m | -22m/s | -48.4°C | 0% | 0hPa | 2.5V | 08:28:58 | 02:08:18 | 00:00:00 | |
| WEDDY | 2026-09-03 00:58:32 | 50.68517 | 1.71818 | 195° | 37km/h | 27085m | -21.4m/s | -48.3°C | 0.6% | 0hPa | 2.5V | 08:28:00 | 00:00:00 | 00:00:00 | |
| DM0DOS-11 | 2026-09-03 00:58:31 | 50.68539 | 1.71808 | 124° | 27km/h | 27149m | -21.8m/s | -48.3°C | 3% | 0hPa | 2.5V | 08:28:17 | 02:08:11 | 00:00:00 | |
| BIOWL1-15 | 2026-09-03 00:58:28 | 50.68522 | 1.71784 | 334° | 31km/h | 27259m | -22.5m/s | -48.2°C | 0% | 0hPa | 2.5V | 08:28:58 | 02:08:06 | 00:00:00 | |
| DM0DOS-11 | 2026-09-03 00:58:25 | 50.68523 | 1.71847 | 192° | 31km/h | 27394m | -22.2m/s | -47.8°C | 3% | 0hPa | 2.5V | 08:28:28 | 02:08:00 | 00:00:00 | |
| HTAHTA | 2026-09-03 00:58:22 | 50.68510 | 1.71817 | 266° | 35km/h | 27326m | -22.4m/s | -48.1°C | 0.5% | -1.0hPa | 2.5V | 00:00:00 | 00:00:00 | 00:00:00 | |
| DO1YAY-16 | 2026-09-03 00:58:21 | 50.68517 | 1.71841 | 220° | 33km/h | 27371m | -22.1m/s | -47.9°C | 0.5% | -1.0hPa | 2.5V | 00:00:00 | 00:00:00 | 00:00:00 | |
| AU51GT2 | 2026-09-03 00:58:15 | 50.68541 | 1.71804 | 64° | 35km/h | 27505m | -23.4m/s | -47.8°C | 0.5% | -1.0hPa | 2.5V | 00:00:00 | 00:00:00 | 00:00:00 | |
| WEDDY | 2026-09-03 00:58:12 | 50.68528 | 1.71785 | 24° | 35km/h | 27552m | -23.0m/s | -47.7°C | 0.6% | 0hPa | 2.5V | 08:28:00 | 00:00:00 | 00:00:00 | |
| DM0DOS-11 | 2026-09-03 00:58:09 | 50.68506 | 1.71792 | 310° | 29km/h | 27620m | -22.6m/s | -47.4°C | 3% | 0hPa | 2.5V | 08:28:38 | 02:07:50 | 00:00:00 | |
| DM0DOS-11 | 2026-09-03 00:58:04 | 50.68549 | 1.71769 | 61° | 29km/h | 27850m | -23.3m/s | -46.4°C | 2.8% | 0hPa | 2.6V | 08:28:48 | 02:07:40 | 00:00:00 | |
| BIOWL1-15 | 2026-09-03 00:57:55 | 50.68528 | 1.71775 | 289° | 35km/h | 27942m | -23.4m/s | -46.1°C | 0% | 0hPa | 2.5V | 08:28:58 | 02:07:36 | 00:00:00 | |
| DM0DOS-11 | 2026-09-03 00:57:54 | 50.68562 | 1.71833 | 166° | 37km/h | 28082m | -23.4m/s | -45.5°C | 2.6% | 0hPa | 2.5V | 08:28:58 | 02:07:30 | 00:00:00 | |
| HTAHTA | 2026-09-03 00:57:51 | 50.68543 | 1.71829 | 208° | 40km/h | 28036m | -23.1m/s | -45.6°C | 0.4% | -1.0hPa | 2.5V | 00:00:00 | 00:00:00 | 00:00:00 | |
| DO1YAY-16 | 2026-09-03 00:57:50 | 50.68562 | 1.71833 | 166° | 37km/h | 28082m | -23.4m/s | -45.5°C | 0.4% | -1.0hPa | 2.5V | 00:00:00 | 00:00:00 | 00:00:00 | |
| BIOWL1-15 | 2026-09-03 00:57:44 | 50.68563 | 1.71790 | 351° | 24km/h | 28224m | -24.1m/s | -45.5°C | 0% | 0hPa | 2.5V | 08:29:49 | 02:07:24 | 00:00:00 | |
| AU51GT2 | 2026-09-03 00:57:44 | 50.68563 | 1.71790 | 350° | 22km/h | 28224m | -24.1m/s | -45.5°C | 0.4% | -1.0hPa | 2.6V | 00:00:00 | 00:00:00 | 00:00:00 | |
| DM0DOS-11 | 2026-09-03 00:57:42 | 50.68559 | 1.71830 | 239° | 44km/h | 28317m | -23.7m/s | -45.2°C | 2.5% | 0hPa | 2.6V | 08:29:08 | 02:07:20 | 00:00:00 | |
| DL1XH-west | 2026-09-03 00:57:40 | 50.68555 | 1.71816 | 257° | 37km/h | 28293m | -24m/s | -45.2°C | 0% | 0hPa | 2.6V | 08:29:49 | 02:07:21 | 00:00:00 | |
| BIOWL1-15 | 2026-09-03 00:57:34 | 50.68612 | 1.71848 | 127° | 22km/h | 28464m | -24.7m/s | -45.3°C | 0% | 0hPa | 2.6V | 08:29:49 | 02:07:14 | 00:00:00 | |
| DM0DOS-11 | 2026-09-03 00:57:31 | 50.68598 | 1.71843 | 322° | 38km/h | 28558m | -23.7m/s | -44.8°C | 2.5% | 0hPa | 2.5V | 08:29:18 | 02:07:10 | 00:00:00 | |
| DL1XH-west | 2026-09-03 00:57:27 | 50.68585 | 1.71872 | 289° | 51km/h | 28607m | -25.6m/s | -44.6°C | 0% | 0hPa | 2.5V | 08:29:49 | 02:07:08 | 00:00:00 | |
| BIOWL1-15 | 2026-09-03 00:57:23 | 50.68592 | 1.71940 | 225° | 35km/h | 28709m | -24.8m/s | -44.7°C | 0% | 0hPa | 2.5V | 08:29:49 | 02:07:04 | 00:00:00 | |
| DB0UT-7 | 2026-09-03 00:57:23 | 50.68592 | 1.71940 | 226° | 15km/h | 28709m | -24.8m/s | -44.7°C | 2.5% | 0hPa | 2.5V | 00:00:00 | 02:07:04 | 08:30:00 | |
| DM0DOS-11 | 2026-09-03 00:57:21 | 50.68605 | 1.71931 | 61° | 26km/h | 28808m | -24.6m/s | -44.8°C | 2.5% | 0hPa | 2.6V | 08:29:28 | 02:07:00 | 00:00:00 | |
| BIOWL1-15 | 2026-09-03 00:57:12 | 50.68548 | 1.71954 | 281° | 40km/h | 28986m | -25.5m/s | -45.1°C | 0% | 0hPa | 2.6V | 08:29:49 | 02:06:53 | 00:00:00 | |
| DM0DOS-11 | 2026-09-03 00:57:10 | 50.68557 | 1.71991 | 209° | 29km/h | 29065m | -26.1m/s | -45°C | 2.6% | 0hPa | 2.5V | 08:29:38 | 02:06:50 | 00:00:00 | |
| DL1XH-west | 2026-09-03 00:57:10 | 50.68551 | 1.71983 | 231° | 35km/h | 29038m | -26.2m/s | -45.1°C | 0% | 0hPa | 2.5V | 08:29:49 | 02:06:51 | 00:00:00 | |
| DM0DOS-11 | 2026-09-03 00:57:00 | 50.68536 | 1.71971 | 298° | 35km/h | 29318m | -25.5m/s | -44.6°C | 2.5% | 0hPa | 2.6V | 08:29:48 | 02:06:40 | 00:00:00 | |
| DL1XH1-15 | 2026-09-03 00:57:00 | 50.68533 | 1.71984 | 275° | 37km/h | 29344m | -26.2m/s | -44.5°C | 2.5% | 0hPa | 2.6V | 08:29:49 | 02:06:39 | 00:00:00 | |
| BIOWL1-15 | 2026-09-03 00:57:00 | 50.68533 | 1.71984 | 276° | 37km/h | 29344m | -26.2m/s | -44.5°C | 0% | 0hPa | 2.6V | 08:29:49 | 02:06:39 | 00:00:00 | |
| DL1XH-west | 2026-09-03 00:56:59 | 50.68536 | 1.71971 | 298° | 35km/h | 29318m | -25.5m/s | -44.6°C | 0% | 0hPa | 2.6V | 08:29:49 | 02:06:40 | 00:00:00 | |
| DL1XH1-15 | 2026-09-03 00:56:49 | 50.68528 | 1.71999 | 328° | 29km/h | 29606m | -28m/s | -44°C | 2.4% | 0hPa | 2.6V | 08:30:00 | 02:06:29 | 00:00:00 | |
| DL1XH-west | 2026-09-03 00:56:48 | 50.68528 | 1.71999 | 328° | 29km/h | 29606m | -28m/s | -44°C | 0% | 0hPa | 2.6V | 18:12:15 | 02:06:29 | 00:00:00 | |
| DO1YAY-16 | 2026-09-03 00:56:48 | 50.68523 | 1.72006 | 316° | 27km/h | 29634m | -28.3m/s | -44.0°C | 0.4% | -1.0hPa | 2.6V | 00:00:00 | 00:00:00 | 00:00:00 | |
| BIOWL1-15 | 2026-09-03 00:56:47 | 50.68505 | 1.72025 | 19° | 9km/h | 29998m | -40.9m/s | -43°C | 0% | 0hPa | 2.6V | 18:12:15 | 02:06:15 | 00:00:00 | |
| DM0DOS-11 | 2026-09-03 00:56:44 | 50.68514 | 1.72020 | 345° | 9km/h | 29860m | -24.3m/s | -43.6°C | 2.4% | 0hPa | 2.5V | 08:30:00 | 02:06:19 | 00:00:00 | |
| AU51GT2 | 2026-09-03 00:56:42 | 50.68515 | 1.72021 | 114° | 7km/h | 29786m | -25.0m/s | -44.0°C | 0.4% | -1.0hPa | 2.5V | 00:00:00 | 00:00:00 | 00:00:00 | |
| DL1XH1-15 | 2026-09-03 00:56:39 | 50.68514 | 1.72020 | 345° | 9km/h | 29860m | -24.3m/s | -43.6°C | 2.4% | 0hPa | 2.5V | 08:30:00 | 02:06:19 | 00:00:00 | |
| DL1XH-west | 2026-09-03 00:56:37 | 50.68509 | 1.72024 | 334° | 11km/h | 29918m | -38.7m/s | -43.2°C | 0% | 0hPa | 2.5V | 18:12:15 | 02:06:17 | 00:00:00 | |
| DM0DOS-11 | 2026-09-03 00:56:33 | 50.68481 | 1.72004 | 26° | 18km/h | 30214m | -27.5m/s | -43.2°C | 2.3% | 0hPa | 2.6V | 08:30:00 | 02:06:09 | 00:00:00 | |
| BIOWL1-15 | 2026-09-03 00:56:32 | 50.68498 | 1.72020 | 36° | 18km/h | 30077m | -38.6m/s | -43.1°C | 0% | 0hPa | 2.6V | 18:12:15 | 02:06:13 | 00:00:00 | |
| DL1XH-west | 2026-09-03 00:56:25 | 50.68470 | 1.72002 | 332° | 13km/h | 30291m | -25.3m/s | -43.4°C | 0% | 0hPa | 2.5V | 18:12:15 | 02:06:06 | 00:00:00 | |
| DL1XH1-15 | 2026-09-03 00:56:24 | 50.68465 | 1.72008 | 300° | 11km/h | 30339m | -22.2m/s | -43.5°C | 2.3% | 0hPa | 2.5V | 08:30:00 | 02:06:04 | 00:00:00 | |
| DM0DOS-11 | 2026-09-03 00:56:23 | 50.68462 | 1.72007 | 76° | 15km/h | 30427m | -10.8m/s | -43.5°C | 2.3% | 0hPa | 2.5V | 08:30:00 | 02:05:59 | 00:00:00 | |
| BIOWL1-15 | 2026-09-03 00:56:21 | 50.68463 | 1.72015 | 344° | 2km/h | 30396m | -15.5m/s | -43.5°C | 0% | 0hPa | 2.6V | 18:12:15 | 02:06:01 | 00:00:00 | |
| DL1XH-west | 2026-09-03 00:56:15 | 50.68458 | 1.71988 | 70° | 16km/h | 30422m | 4.8m/s | -43.6°C | 0% | 0hPa | 2.6V | 18:12:15 | 02:05:56 | 00:00:00 | |
| DL1XH1-15 | 2026-09-03 00:56:14 | 50.68454 | 1.71979 | 30° | 13km/h | 30411m | 6.9m/s | -43.6°C | 2.4% | 0hPa | 2.6V | 08:30:00 | 02:05:54 | 00:00:00 | |
| BIOWL1-15 | 2026-09-03 00:56:11 | 50.68447 | 1.71978 | 350° | 16km/h | 30398m | 5.6m/s | -43.6°C | 0% | 0hPa | 2.5V | 18:12:15 | 02:05:52 | 00:00:00 | |
| DL1XH-west | 2026-09-03 00:56:05 | 50.68426 | 1.71968 | 33° | 16km/h | 30356m | 6.4m/s | -43.7°C | 0% | 0hPa | 2.5V | 18:12:15 | 02:05:45 | 00:00:00 | |
| DL1XH1-15 | 2026-09-03 00:56:04 | 50.68422 | 1.71965 | 35° | 18km/h | 30349m | 6m/s | -43.6°C | 2.4% | 0hPa | 2.6V | 08:30:00 | 02:05:44 | 00:00:00 | |
| BIOWL1-15 | 2026-09-03 00:56:00 | 50.68410 | 1.71947 | 41° | 24km/h | 30331m | 4.5m/s | -43.6°C | 0% | 0hPa | 2.5V | 18:12:15 | 02:05:41 | 00:00:00 | |
| DL1XH1-15 | 2026-09-03 00:55:54 | 50.68383 | 1.71942 | 28° | 11km/h | 30290m | 6.6m/s | -43.5°C | 2.4% | 0hPa | 2.5V | 08:30:00 | 02:05:34 | 00:00:00 | |
| DL1XH-west | 2026-09-03 00:55:53 | 50.68382 | 1.71942 | 29° | 11km/h | 30290m | 6.6m/s | -43.5°C | 0% | 0hPa | 2.5V | 18:12:15 | 02:05:34 | 00:00:00 | |
| BIOWL1-15 | 2026-09-03 00:55:50 | 50.68377 | 1.71927 | 61° | 18km/h | 30273m | 5.9m/s | -43.5°C | 0% | 0hPa | 2.6V | 18:12:15 | 02:05:31 | 00:00:00 | |
| DM0DOS-11 | 2026-09-03 00:55:48 | 50.68371 | 1.71917 | 29° | 15km/h | 30260m | 6.3m/s | -43.5°C | 2.4% | 0hPa | 2.5V | 08:30:00 | 02:05:29 | 00:00:00 | |
| HTAHTA | 2026-09-03 00:55:47 | 50.68368 | 1.71915 | 7° | 16km/h | 30254m | 6.2m/s | -43.5°C | 0.4% | -1.0hPa | 2.6V | 00:00:00 | 00:00:00 | 00:00:00 | |
| DO1YAY-16 | 2026-09-03 00:55:45 | 50.68358 | 1.71915 | 359° | 18km/h | 30241m | 6.2m/s | -43.4°C | 0.4% | -1.0hPa | 2.6V | 00:00:00 | 00:00:00 | 00:00:00 | |
| DL1XH1-15 | 2026-09-03 00:55:44 | 50.68349 | 1.71914 | 7° | 18km/h | 30228m | 5.4m/s | -43.4°C | 2.3% | 0hPa | 2.6V | 08:30:00 | 02:05:24 | 00:00:00 | |
| DM0DOS-11 | 2026-09-03 00:55:43 | 50.68335 | 1.71912 | 82° | 7km/h | 30193m | 6.8m/s | -43.4°C | 2.3% | 0hPa | 2.6V | 08:30:00 | 02:05:18 | 00:00:00 | |
| DL1XH-west | 2026-09-03 00:55:43 | 50.68349 | 1.71914 | 8° | 18km/h | 30228m | 5.4m/s | -43.4°C | 0% | 0hPa | 2.6V | 18:12:15 | 02:05:24 | 00:00:00 | |
| BIOWL1-15 | 2026-09-03 00:55:43 | 50.68336 | 1.71914 | 351° | 5km/h | 30205m | 5.3m/s | -43.4°C | 0% | 0hPa | 2.5V | 18:12:15 | 02:05:20 | 00:00:00 | |
| AU51GT2 | 2026-09-03 00:55:40 | 50.68336 | 1.71914 | 351° | 5km/h | 30205m | 5.3m/s | -43.4°C | 0.4% | -1.0hPa | 2.5V | 00:00:00 | 00:00:00 | 00:00:00 | |
| DL1XH1-15 | 2026-09-03 00:55:34 | 50.68331 | 1.71895 | 23° | 11km/h | 30170m | 6.5m/s | -43.4°C | 2.4% | 0hPa | 2.5V | 08:30:00 | 02:05:14 | 00:00:00 | |
| DL1XH-west | 2026-09-03 00:55:32 | 50.68328 | 1.71895 | 352° | 15km/h | 30163m | 6.6m/s | -43.4°C | 0% | 0hPa | 2.5V | 18:12:15 | 02:05:13 | 00:00:00 | |
| DM0DOS-11 | 2026-09-03 00:55:32 | 50.68308 | 1.71907 | 348° | 22km/h | 30138m | 5.6m/s | -43.4°C | 2.3% | 0hPa | 2.5V | 08:30:00 | 02:05:09 | 00:00:00 | |
| BIOWL1-15 | 2026-09-03 00:55:28 | 50.68296 | 1.71910 | 344° | 11km/h | 30122m | 6.9m/s | -43.4°C | 0% | 0hPa | 2.6V | 18:12:15 | 02:05:06 | 00:00:00 | |
| WEDDY | 2026-09-03 00:55:27 | 50.68308 | 1.71906 | 349° | 22km/h | 30139m | 5.6m/s | -43.4°C | 0.4% | 0hPa | 2.6V | 00:00:00 | 00:00:00 | 00:00:00 | |
| DL1XH1-15 | 2026-09-03 00:55:24 | 50.68292 | 1.71912 | 341° | 4km/h | 30108m | 5.8m/s | -43.5°C | 2.4% | 0hPa | 2.6V | 08:30:00 | 02:05:04 | 00:00:00 | |
| DL1XH-west | 2026-09-03 00:55:21 | 50.68290 | 1.71911 | 46° | 9km/h | 30096m | 6.8m/s | -43.5°C | 0% | 0hPa | 2.5V | 18:12:15 | 02:05:02 | 00:00:00 | |
| DM0DOS-11 | 2026-09-03 00:55:21 | 50.68282 | 1.71901 | 14° | 16km/h | 30080m | 5m/s | -43.5°C | 2.4% | 0hPa | 2.6V | 08:30:00 | 02:04:59 | 00:00:00 | |
| BIOWL1-15 | 2026-09-03 00:55:18 | 50.68277 | 1.71901 | 351° | 18km/h | 30074m | 6.7m/s | -43.5°C | 0% | 0hPa | 2.5V | 18:12:15 | 02:04:58 | 00:00:00 | |
| HTAHTA | 2026-09-03 00:55:16 | 50.68263 | 1.71916 | 318° | 26km/h | 30057m | 5.0m/s | -43.5°C | 0.4% | -1.0hPa | 2.5V | 00:00:00 | 00:00:00 | 00:00:00 | |
| DO1YAY-16 | 2026-09-03 00:55:15 | 50.68263 | 1.71916 | 318° | 26km/h | 30057m | 5.0m/s | -43.5°C | 0.4% | -1.0hPa | 2.5V | 00:00:00 | 00:00:00 | 00:00:00 | |
| DM0DOS-11 | 2026-09-03 00:55:11 | 50.68232 | 1.71931 | 2° | 18km/h | 30021m | 6.5m/s | -43.6°C | 2.3% | 0hPa | 2.5V | 08:30:00 | 02:04:49 | 00:00:00 | |
| DL1XH-west | 2026-09-03 00:55:11 | 50.68247 | 1.71930 | 348° | 22km/h | 30039m | 5.8m/s | -43.5°C | 0% | 0hPa | 2.6V | 18:12:15 | 02:04:52 | 00:00:00 | |
| BIOWL1-15 | 2026-09-03 00:55:07 | 50.68228 | 1.71930 | 4° | 15km/h | 30015m | 5.3m/s | -43.5°C | 0% | 0hPa | 2.6V | 18:12:15 | 02:04:48 | 00:00:00 | |
| DL1XH-west | 2026-09-03 00:55:00 | 50.68213 | 1.71938 | 302° | 22km/h | 29973m | 5.2m/s | -43.7°C | 0% | 0hPa | 2.6V | 18:12:15 | 02:04:41 | 00:00:00 | |
| BIOWL1-15 | 2026-09-03 00:55:00 | 50.68195 | 1.71957 | 20° | 13km/h | 29946m | 5.7m/s | -43.8°C | 0% | 0hPa | 2.6V | 18:12:15 | 02:04:36 | 00:00:00 | |
| DL1XH1-15 | 2026-09-03 00:54:59 | 50.68206 | 1.71952 | 316° | 22km/h | 29963m | 5.3m/s | -43.7°C | 2.3% | 0hPa | 2.5V | 08:30:00 | 02:04:39 | 00:00:00 | |
| DM0DOS-11 | 2026-09-03 00:54:50 | 50.68175 | 1.71952 | 358° | 9km/h | 29903m | 6.3m/s | -43.8°C | 2.4% | 0hPa | 2.6V | 08:30:00 | 02:04:29 | 00:00:00 | |
| DL1XH-west | 2026-09-03 00:54:50 | 50.68180 | 1.71951 | 354° | 13km/h | 29916m | 5.8m/s | -43.8°C | 0% | 0hPa | 2.5V | 18:12:15 | 02:04:31 | 00:00:00 | |
| BIOWL1-15 | 2026-09-03 00:54:50 | 50.68171 | 1.71953 | 323° | 9km/h | 29892m | 5.7m/s | -43.8°C | 0% | 0hPa | 2.5V | 18:12:15 | 02:04:27 | 00:00:00 | |
| DL1XH1-15 | 2026-09-03 00:54:49 | 50.68171 | 1.71953 | 323° | 9km/h | 29892m | 5.7m/s | -43.8°C | 2.4% | 0hPa | 2.5V | 08:30:00 | 02:04:27 | 00:00:00 | |
| WEDDY | 2026-09-03 00:54:46 | 50.68172 | 1.71952 | 350° | 7km/h | 29898m | 5.1m/s | -43.8°C | 0.4% | 0hPa | 2.5V | 00:00:00 | 00:00:00 | 00:00:00 | |
| HTAHTA | 2026-09-03 00:54:45 | 50.68167 | 1.71962 | 295° | 5km/h | 29875m | 4.3m/s | -43.9°C | 0.4% | -1.0hPa | 2.5V | 00:00:00 | 00:00:00 | 00:00:00 | |
| DO1YAY-16 | 2026-09-03 00:54:44 | 50.68167 | 1.71962 | 295° | 5km/h | 29875m | 4.3m/s | -43.9°C | 0.4% | -1.0hPa | 2.5V | 00:00:00 | 00:00:00 | 00:00:00 | |
| DM0DOS-11 | 2026-09-03 00:54:40 | 50.68163 | 1.71948 | 51° | 15km/h | 29847m | 4.9m/s | -44.1°C | 2.4% | 0hPa | 2.5V | 08:30:00 | 02:04:19 | 00:00:00 | |
| DL1XH-west | 2026-09-03 00:54:39 | 50.68165 | 1.71953 | 70° | 15km/h | 29852m | 4.6m/s | -44.1°C | 0% | 0hPa | 2.5V | 18:12:15 | 02:04:20 | 00:00:00 | |
| BIOWL1-15 | 2026-09-03 00:54:35 | 50.68156 | 1.71947 | 317° | 13km/h | 29830m | 5.3m/s | -44.2°C | 0% | 0hPa | 2.6V | 18:12:15 | 02:04:16 | 00:00:00 | |
| DM0DOS-11 | 2026-09-03 00:54:29 | 50.68139 | 1.71967 | 339° | 7km/h | 29789m | 6m/s | -44.2°C | 2.5% | 0hPa | 2.5V | 08:30:00 | 02:04:09 | 00:00:00 | |
| DL1XH1-15 | 2026-09-03 00:54:29 | 50.68136 | 1.71963 | 74° | 9km/h | 29771m | 6.7m/s | -44.2°C | 2.4% | 0hPa | 2.6V | 08:30:00 | 02:04:06 | 00:00:00 | |
| DL1XH-west | 2026-09-03 00:54:29 | 50.68139 | 1.71967 | 340° | 7km/h | 29789m | 6m/s | -44.2°C | 0% | 0hPa | 2.5V | 18:12:15 | 02:04:09 | 00:00:00 | |
| BIOWL1-15 | 2026-09-03 00:54:25 | 50.68133 | 1.71954 | 331° | 7km/h | 29747m | 5.4m/s | -44.3°C | 0% | 0hPa | 2.5V | 18:12:15 | 02:04:02 | 00:00:00 | |
| DM0DOS-11 | 2026-09-03 00:54:19 | 50.68125 | 1.71962 | 334° | 13km/h | 29730m | 6.3m/s | -44.3°C | 2.5% | 0hPa | 2.6V | 08:30:00 | 02:03:59 | 00:00:00 | |
| DL1XH1-15 | 2026-09-03 00:54:19 | 50.68116 | 1.71963 | 12° | 9km/h | 29713m | 4.7m/s | -44.3°C | 2.5% | 0hPa | 2.5V | 08:30:00 | 02:03:56 | 00:00:00 | |
| DL1XH-west | 2026-09-03 00:54:18 | 50.68125 | 1.71962 | 335° | 13km/h | 29730m | 6.3m/s | -44.3°C | 0% | 0hPa | 2.6V | 18:12:15 | 02:03:59 | 00:00:00 | |
| BIOWL1-15 | 2026-09-03 00:54:14 | 50.68111 | 1.71964 | 334° | 7km/h | 29695m | 5.7m/s | -44.3°C | 0% | 0hPa | 2.6V | 18:12:15 | 02:03:53 | 00:00:00 | |
| DM0DOS-11 | 2026-09-03 00:54:14 | 50.68107 | 1.71958 | 73° | 11km/h | 29672m | 4.8m/s | -44.3°C | 2.4% | 0hPa | 2.5V | 08:30:00 | 02:03:49 | 00:00:00 | |
| DL1XH-west | 2026-09-03 00:54:08 | 50.68107 | 1.71958 | 74° | 11km/h | 29672m | 4.8m/s | -44.3°C | 0% | 0hPa | 2.5V | 18:12:15 | 02:03:49 | 00:00:00 | |
| AU51GT2 | 2026-09-03 00:54:07 | 50.68105 | 1.71950 | 64° | 7km/h | 29661m | 6.4m/s | -44.3°C | 0.4% | -1.0hPa | 2.5V | 00:00:00 | 00:00:00 | 00:00:00 | |
| WEDDY | 2026-09-03 00:54:05 | 50.68105 | 1.71950 | 65° | 7km/h | 29661m | 6.4m/s | -44.3°C | 0.4% | 0hPa | 2.5V | 00:00:00 | 00:00:00 | 00:00:00 | |
| DM0DOS-11 | 2026-09-03 00:54:03 | 50.68089 | 1.71950 | 333° | 11km/h | 29607m | 5.4m/s | -44.2°C | 2.4% | 0hPa | 2.5V | 08:30:00 | 02:03:38 | 00:00:00 | |
| BIOWL1-15 | 2026-09-03 00:54:02 | 50.68099 | 1.71947 | 15° | 7km/h | 29637m | 6.3m/s | -44.3°C | 0% | 0hPa | 2.5V | 18:12:15 | 02:03:43 | 00:00:00 | |
| DL1XH-west | 2026-09-03 00:53:58 | 50.68092 | 1.71948 | 332° | 11km/h | 29613m | 5.9m/s | -44.2°C | 0% | 0hPa | 2.5V | 18:12:15 | 02:03:39 | 00:00:00 | |
| DL1XH1-15 | 2026-09-03 00:53:58 | 50.68071 | 1.71944 | 10° | 16km/h | 29581m | 5.2m/s | -44.2°C | 2.4% | 0hPa | 2.5V | 08:30:00 | 02:03:33 | 00:00:00 | |
| BIOWL1-15 | 2026-09-03 00:53:54 | 50.68071 | 1.71944 | 11° | 16km/h | 29581m | 5.2m/s | -44.2°C | 0% | 0hPa | 2.5V | 18:12:15 | 02:03:33 | 00:00:00 | |
| DM0DOS-11 | 2026-09-03 00:53:52 | 50.68055 | 1.71957 | 313° | 11km/h | 29551m | 6.3m/s | -44.1°C | 2.4% | 0hPa | 2.6V | 08:30:00 | 02:03:28 | 00:00:00 | |
| DL1XH-west | 2026-09-03 00:53:47 | 50.68055 | 1.71957 | 314° | 11km/h | 29551m | 6.3m/s | -44.2°C | 0% | 0hPa | 2.6V | 18:12:15 | 02:03:28 | 00:00:00 | |
| DL1XH1-15 | 2026-09-03 00:53:47 | 50.68049 | 1.71970 | 347° | 5km/h | 29517m | 5.3m/s | -44.2°C | 2.4% | 0hPa | 2.5V | 08:30:00 | 02:03:22 | 00:00:00 | |
| WEDDY | 2026-09-03 00:53:44 | 50.68052 | 1.71962 | 311° | 5km/h | 29540m | 5.1m/s | -44.2°C | 0.4% | 0hPa | 2.6V | 00:00:00 | 00:00:00 | 00:00:00 | |
| HTAHTA | 2026-09-03 00:53:43 | 50.68049 | 1.71970 | 347° | 4km/h | 29518m | 5.3m/s | -44.3°C | 0.4% | -1.0hPa | 2.6V | 00:00:00 | 00:00:00 | 00:00:00 | |
| DM0DOS-11 | 2026-09-03 00:53:42 | 50.68038 | 1.71963 | 0° | 15km/h | 29496m | 4.9m/s | -44.3°C | 2.4% | 0hPa | 2.6V | 08:30:00 | 02:03:18 | 00:00:00 | |
| BIOWL1-15 | 2026-09-03 00:53:41 | 50.68049 | 1.71970 | 347° | 5km/h | 29517m | 5.3m/s | -44.3°C | 0% | 0hPa | 2.5V | 18:12:15 | 02:03:22 | 00:00:00 | |
| DL1XH-west | 2026-09-03 00:53:37 | 50.68034 | 1.71965 | 337° | 18km/h | 29491m | 6.8m/s | -44.4°C | 0% | 0hPa | 2.6V | 18:12:15 | 02:03:17 | 00:00:00 | |
| DL1XH1-15 | 2026-09-03 00:53:36 | 50.68021 | 1.71993 | 295° | 22km/h | 29467m | 6.5m/s | -44.5°C | 2.4% | 0hPa | 2.5V | 08:30:00 | 02:03:13 | 00:00:00 | |
| AU51GT2 | 2026-09-03 00:53:36 | 50.68030 | 1.71969 | 316° | 22km/h | 29485m | 6.0m/s | -44.4°C | 0.4% | -1.0hPa | 2.5V | 00:00:00 | 00:00:00 | 00:00:00 | |
| DM0DOS-11 | 2026-09-03 00:53:30 | 50.68012 | 1.72013 | 333° | 13km/h | 29438m | 5.3m/s | -44.8°C | 2.5% | 0hPa | 2.5V | 08:30:00 | 02:03:08 | 00:00:00 | |
| DL1XH-west | 2026-09-03 00:53:25 | 50.68005 | 1.72014 | 5° | 16km/h | 29427m | 6.2m/s | -44.8°C | 0% | 0hPa | 2.6V | 18:12:15 | 02:03:06 | 00:00:00 | |
| DL1XH1-15 | 2026-09-03 00:53:24 | 50.67990 | 1.72010 | 341° | 13km/h | 29405m | 6m/s | -45°C | 2.5% | 0hPa | 2.5V | 08:30:00 | 02:03:02 | 00:00:00 | |
| BIOWL1-15 | 2026-09-03 00:53:15 | 50.67978 | 1.72035 | 332° | 4km/h | 29372m | 5.1m/s | -45.1°C | 0% | 0hPa | 2.5V | 18:12:15 | 02:02:56 | 00:00:00 | |
| DL1XH-west | 2026-09-03 00:53:14 | 50.67978 | 1.72035 | 30° | 4km/h | 29367m | 5m/s | -45.1°C | 0% | 0hPa | 2.5V | 18:12:15 | 02:02:55 | 00:00:00 | |
| DL1XH-west | 2026-09-03 00:53:03 | 50.67962 | 1.72047 | 286° | 20km/h | 29304m | 4.5m/s | -45.4°C | 0% | 0hPa | 2.5V | 18:12:15 | 02:02:44 | 00:00:00 | |
| DL1XH1-15 | 2026-09-03 00:53:03 | 50.67961 | 1.72071 | 279° | 5km/h | 29277m | 4.7m/s | -45.4°C | 0% | 0hPa | 2.5V | 08:30:00 | 02:02:39 | 00:00:00 | |
| DM0DOS-11 | 2026-09-03 00:53:03 | 50.67959 | 1.72077 | 309° | 13km/h | 29265m | 5.6m/s | -45.4°C | 2.6% | 0hPa | 2.5V | 08:30:00 | 02:02:37 | 00:00:00 | |
| BIOWL1-15 | 2026-09-03 00:53:02 | 50.67961 | 1.72054 | 281° | 18km/h | 29299m | 5.5m/s | -45.4°C | 0% | 0hPa | 2.5V | 18:12:15 | 02:02:43 | 00:00:00 | |
| DL1XH-west | 2026-09-03 00:52:53 | 50.67946 | 1.72089 | 352° | 13km/h | 29243m | 5.7m/s | -45.5°C | 0% | 0hPa | 2.5V | 18:12:15 | 02:02:33 | 00:00:00 | |
| DL1XH1-15 | 2026-09-03 00:52:52 | 50.67940 | 1.72097 | 275° | 9km/h | 29220m | 4.8m/s | -45.5°C | 0% | 0hPa | 2.5V | 08:30:00 | 02:02:29 | 00:00:00 | |
| DM0DOS-11 | 2026-09-03 00:52:51 | 50.67941 | 1.72103 | 219° | 5km/h | 29209m | 6.5m/s | -45.5°C | 2.6% | 0hPa | 2.5V | 08:30:00 | 02:02:27 | 00:00:00 | |
| DB0UT-7 | 2026-09-03 00:52:45 | 50.67942 | 1.72103 | 172° | 11km/h | 29203m | 6.1m/s | -45.5°C | 2.6% | 0hPa | 2.6V | 00:00:00 | 00:00:00 | 00:00:00 | |
| DL1XH1-15 | 2026-09-03 00:52:42 | 50.67939 | 1.72107 | 347° | 9km/h | 29161m | 5.3m/s | -45.5°C | 0% | 0hPa | 2.6V | 08:30:00 | 02:02:19 | 00:00:00 | |
| DL1XH-west | 2026-09-03 00:52:41 | 50.67944 | 1.72103 | 316° | 7km/h | 29179m | 5.5m/s | -45.5°C | 0% | 0hPa | 2.5V | 18:12:15 | 02:02:22 | 00:00:00 | |
| DO9LL-15 | 2026-09-03 00:52:40 | 50.67942 | 1.72105 | 327° | 13km/h | 29174m | 5.5m/s | -45.4°C | 2.6% | 0hPa | 2.5V | 00:00:00 | 02:02:21 | 00:00:00 | |
| DM0DOS-11 | 2026-09-03 00:52:39 | 50.67933 | 1.72111 | 328° | 15km/h | 29150m | 7m/s | -45.6°C | 2.6% | 0hPa | 2.5V | 08:30:00 | 02:02:17 | 00:00:00 | |
| AU51GT2 | 2026-09-03 00:52:34 | 50.67925 | 1.72122 | 315° | 9km/h | 29133m | 5.9m/s | -45.6°C | 0.5% | -1.0hPa | 2.6V | 00:00:00 | 00:00:00 | 00:00:00 | |
| DM0DOS-11 | 2026-09-03 00:52:32 | 50.67924 | 1.72131 | 312° | 15km/h | 29094m | 4.8m/s | -45.7°C | 2.6% | 0hPa | 2.6V | 08:30:00 | 02:02:07 | 00:00:00 | |
| DL1XH-west | 2026-09-03 00:52:30 | 50.67925 | 1.72123 | 166° | 5km/h | 29115m | 4.2m/s | -45.7°C | 0% | 0hPa | 2.6V | 18:12:15 | 02:02:11 | 00:00:00 | |
| DL1XH1-15 | 2026-09-03 00:52:21 | 50.67896 | 1.72152 | 310° | 16km/h | 29043m | 5.8m/s | -45.6°C | 0% | 0hPa | 2.5V | 08:30:00 | 02:01:58 | 00:00:00 | |
| DM0DOS-11 | 2026-09-03 00:52:21 | 50.67894 | 1.72157 | 292° | 15km/h | 29037m | 6.8m/s | -45.6°C | 2.6% | 0hPa | 2.5V | 08:30:00 | 02:01:57 | 00:00:00 | |
| DL1XH-west | 2026-09-03 00:52:19 | 50.67902 | 1.72145 | 348° | 15km/h | 29055m | 6.3m/s | -45.7°C | 0% | 0hPa | 2.6V | 18:12:15 | 02:02:00 | 00:00:00 | |
| BIOWL1-15 | 2026-09-03 00:52:13 | 50.67892 | 1.72178 | 278° | 22km/h | 29020m | 5.5m/s | -45.5°C | 0% | 0hPa | 2.6V | 18:12:15 | 02:01:54 | 00:00:00 | |
| DL1XH-west | 2026-09-03 00:52:09 | 50.67879 | 1.72206 | 341° | 22km/h | 28997m | 6.6m/s | -45.4°C | 0% | 0hPa | 2.6V | 18:12:15 | 02:01:50 | 00:00:00 | |
| DM0DOS-11 | 2026-09-03 00:52:08 | 50.67864 | 1.72205 | 8° | 20km/h | 28980m | 5.1m/s | -45.4°C | 2.6% | 0hPa | 2.5V | 08:30:00 | 02:01:47 | 00:00:00 | |
| BIOWL1-15 | 2026-09-03 00:52:07 | 50.67848 | 1.72208 | 337° | 24km/h | 28963m | 4.7m/s | -45.4°C | 0% | 0hPa | 2.6V | 18:12:15 | 02:01:44 | 00:00:00 | |
| DL1XH-west | 2026-09-03 00:51:58 | 50.67834 | 1.72234 | 289° | 15km/h | 28934m | 5.3m/s | -45.4°C | 0% | 0hPa | 2.5V | 18:12:15 | 02:01:39 | 00:00:00 | |
| DM0DOS-11 | 2026-09-03 00:51:57 | 50.67829 | 1.72245 | 313° | 18km/h | 28922m | 5.7m/s | -45.4°C | 2.6% | 0hPa | 2.6V | 08:30:00 | 02:01:37 | 00:00:00 | |
| DL1XH1-15 | 2026-09-03 00:51:56 | 50.67817 | 1.72258 | 333° | 18km/h | 28905m | 6.4m/s | 0°C | 0% | 0hPa | 2.5V | 08:30:00 | 02:01:34 | 00:00:00 | |
| BIOWL1-15 | 2026-09-03 00:51:52 | 50.67808 | 1.72266 | 327° | 13km/h | 28889m | 4.8m/s | -45.4°C | 0% | 0hPa | 2.6V | 18:12:15 | 02:01:31 | 00:00:00 | |
| DM0DOS-11 | 2026-09-03 00:51:52 | 50.67794 | 1.72299 | 282° | 24km/h | 28861m | 6.5m/s | -45.4°C | 2.6% | 0hPa | 2.6V | 08:30:00 | 02:01:26 | 00:00:00 | |
| DL1XH-west | 2026-09-03 00:51:47 | 50.67796 | 1.72290 | 293° | 24km/h | 28866m | 5.2m/s | -45.4°C | 0% | 0hPa | 2.5V | 18:12:15 | 02:01:27 | 00:00:00 | |
| DL1XH1-15 | 2026-09-03 00:51:46 | 50.67794 | 1.72317 | 261° | 20km/h | 28847m | 5.7m/s | 0°C | 0% | 0hPa | 2.5V | 00:00:00 | 02:01:24 | 00:00:00 | |
| BIOWL1-15 | 2026-09-03 00:51:42 | 50.67794 | 1.72324 | 263° | 16km/h | 28842m | 5m/s | -45.4°C | 0% | 0hPa | 2.5V | 18:12:15 | 02:01:23 | 00:00:00 | |
| DM0DOS-11 | 2026-09-03 00:51:40 | 50.67778 | 1.72347 | 306° | 13km/h | 28802m | 5m/s | -45.4°C | 2.6% | 0hPa | 2.5V | 08:30:00 | 02:01:16 | 00:00:00 | |
| DL1XH-west | 2026-09-03 00:51:37 | 50.67783 | 1.72342 | 341° | 13km/h | 28813m | 6.5m/s | -45.4°C | 0% | 0hPa | 2.5V | 18:12:15 | 02:01:18 | 00:00:00 | |
| AU51GT2 | 2026-09-03 00:51:31 | 50.67768 | 1.72376 | 296° | 24km/h | 28779m | 5.0m/s | -45.4°C | 0.5% | -1.0hPa | 2.5V | 00:00:00 | 00:00:00 | 00:00:00 | |
| DM0DOS-11 | 2026-09-03 00:51:29 | 50.67763 | 1.72408 | 308° | 11km/h | 28744m | 6.1m/s | -45.3°C | 2.6% | 0hPa | 2.5V | 08:30:00 | 02:01:06 | 00:00:00 | |
| DL1XH-west | 2026-09-03 00:51:27 | 50.67765 | 1.72401 | 274° | 9km/h | 28757m | 5.4m/s | -45.3°C | 0% | 0hPa | 2.6V | 18:12:15 | 02:01:08 | 00:00:00 | |
| BIOWL1-15 | 2026-09-03 00:51:21 | 50.67758 | 1.72457 | 274° | 29km/h | 28701m | 5.9m/s | -45.3°C | 0% | 0hPa | 2.5V | 18:12:15 | 02:00:59 | 00:00:00 | |
| DM0DOS-11 | 2026-09-03 00:51:19 | 50.67757 | 1.72489 | 263° | 24km/h | 28685m | 6.6m/s | -45.3°C | 2.6% | 0hPa | 2.6V | 08:30:00 | 02:00:56 | 00:00:00 | |
| WEDDY | 2026-09-03 00:51:18 | 50.67758 | 1.72446 | 269° | 26km/h | 28708m | 6.6m/s | -45.3°C | 0.5% | 0hPa | 2.5V | 00:00:00 | 00:00:00 | 00:00:00 | |
| DL1XH1-15 | 2026-09-03 00:51:17 | 50.67762 | 1.72509 | 244° | 13km/h | 28668m | 4.7m/s | 0°C | 0% | 0hPa | 2.5V | 00:00:00 | 02:00:53 | 00:00:00 | |
| DL1XH-west | 2026-09-03 00:51:17 | 50.67758 | 1.72468 | 274° | 29km/h | 28696m | 4.7m/s | -45.3°C | 0% | 0hPa | 2.6V | 18:12:15 | 02:00:58 | 00:00:00 | |
| BIOWL1-15 | 2026-09-03 00:51:07 | 50.67756 | 1.72537 | 296° | 20km/h | 28639m | 5.5m/s | -45.5°C | 0% | 0hPa | 2.5V | 18:12:15 | 02:00:48 | 00:00:00 | |
| DM0DOS-11 | 2026-09-03 00:51:07 | 50.67754 | 1.72551 | 258° | 18km/h | 28626m | 5.7m/s | -45.5°C | 2.6% | 0hPa | 2.6V | 08:30:00 | 02:00:46 | 00:00:00 | |
| DL1XH-west | 2026-09-03 00:51:07 | 50.67754 | 1.72544 | 279° | 18km/h | 28633m | 6.5m/s | -45.5°C | 0% | 0hPa | 2.6V | 18:12:15 | 02:00:47 | 00:00:00 | |
| DL1XH1-15 | 2026-09-03 00:51:06 | 50.67760 | 1.72571 | 238° | 20km/h | 28607m | 6.1m/s | 0°C | 0% | 0hPa | 2.5V | 00:00:00 | 02:00:43 | 00:00:00 | |
| DO1YAY-16 | 2026-09-03 00:51:06 | 50.67754 | 1.72544 | 279° | 16km/h | 28633m | 6.5m/s | -45.5°C | 0.4% | -1.0hPa | 2.6V | 00:00:00 | 00:00:00 | 00:00:00 | |
| DB0UT-7 | 2026-09-03 00:51:03 | 50.67758 | 1.72564 | 240° | 18km/h | 28614m | 7.0m/s | -45.6°C | 2.6% | 0hPa | 2.6V | 00:00:00 | 00:00:00 | 00:00:00 | |
| DJ2DS-15 | 2026-09-03 00:51:02 | 50.67760 | 1.72571 | 238° | 18km/h | 28608m | 6.1m/s | -45.7°C | 0.4% | -1.0hPa | 2.6V | 00:00:00 | 00:00:00 | 00:00:00 | |
| DM0DOS-11 | 2026-09-03 00:51:01 | 50.67785 | 1.72616 | 269° | 18km/h | 28559m | 4.7m/s | -45.9°C | 2.6% | 0hPa | 2.6V | 08:30:00 | 02:00:35 | 00:00:00 | |
| BIOWL1-15 | 2026-09-03 00:50:56 | 50.67782 | 1.72603 | 232° | 18km/h | 28572m | 6.7m/s | -45.9°C | 0% | 0hPa | 2.5V | 18:12:15 | 02:00:37 | 00:00:00 | |
| DL1XH1-15 | 2026-09-03 00:50:54 | 50.67787 | 1.72638 | 242° | 20km/h | 28543m | 6.6m/s | 0°C | 0% | 0hPa | 2.5V | 00:00:00 | 02:00:32 | 00:00:00 | |
| DM0DOS-11 | 2026-09-03 00:50:49 | 50.67817 | 1.72676 | 190° | 11km/h | 28495m | 6.7m/s | -45.9°C | 2.6% | 0hPa | 2.6V | 08:30:00 | 02:00:24 | 00:00:00 | |
| DL1XH-west | 2026-09-03 00:50:46 | 50.67808 | 1.72667 | 221° | 18km/h | 28513m | 5.8m/s | -45.9°C | 0% | 0hPa | 2.5V | 18:12:15 | 02:00:27 | 00:00:00 | |
| BIOWL1-15 | 2026-09-03 00:50:46 | 50.67814 | 1.72674 | 205° | 13km/h | 28501m | 6.6m/s | -45.9°C | 0% | 0hPa | 2.5V | 18:12:15 | 02:00:25 | 00:00:00 | |
| DL1XH-west | 2026-09-03 00:50:35 | 50.67837 | 1.72708 | 213° | 27km/h | 28447m | 5.2m/s | -45.8°C | 0% | 0hPa | 2.5V | 18:12:15 | 02:00:16 | 00:00:00 | |
| BIOWL1-15 | 2026-09-03 00:50:34 | 50.67843 | 1.72714 | 210° | 27km/h | 28441m | 5.2m/s | -45.8°C | 0% | 0hPa | 2.5V | 18:12:15 | 02:00:15 | 00:00:00 | |
| DM0DOS-11 | 2026-09-03 00:50:33 | 50.67848 | 1.72719 | 210° | 26km/h | 28435m | 6.7m/s | -45.8°C | 2.6% | 0hPa | 2.5V | 08:30:00 | 02:00:14 | 00:00:00 | |
| DB0UT-7 | 2026-09-03 00:50:33 | 50.67848 | 1.72719 | 211° | 13km/h | 28436m | 6.7m/s | -45.7°C | 2.6% | 0hPa | 2.5V | 00:00:00 | 02:00:14 | 00:00:00 | |
| BIOWL9-15 | 2026-09-03 00:50:30 | 50.67863 | 1.72729 | 175° | 11km/h | 28411m | 7.3m/s | -45.7°C | 0.5% | -1.0hPa | 2.5V | 00:00:00 | 00:00:00 | 00:00:00 | |
| AU51GT2 | 2026-09-03 00:50:29 | 50.67863 | 1.72729 | 175° | 11km/h | 28411m | 7.3m/s | -45.7°C | 0.5% | -1.0hPa | 2.5V | 00:00:00 | 00:00:00 | 00:00:00 | |
| DM0DOS-11 | 2026-09-03 00:50:28 | 50.67875 | 1.72736 | 248° | 16km/h | 28377m | 4.5m/s | -45.8°C | 2.6% | 0hPa | 2.5V | 08:30:00 | 02:00:04 | 00:00:00 | |
| DL1XH-west | 2026-09-03 00:50:24 | 50.67874 | 1.72731 | 249° | 11km/h | 28382m | 5.2m/s | -45.7°C | 0% | 0hPa | 2.6V | 18:12:15 | 02:00:05 | 00:00:00 | |
| BIOWL1-15 | 2026-09-03 00:50:23 | 50.67877 | 1.72742 | 234° | 20km/h | 28372m | 5.4m/s | -45.7°C | 0% | 0hPa | 2.5V | 18:12:15 | 02:00:03 | 00:00:00 | |
| DM0DOS-11 | 2026-09-03 00:50:17 | 50.67907 | 1.72734 | 138° | 5km/h | 28320m | 6.4m/s | -46°C | 2.7% | 0hPa | 2.5V | 08:30:00 | 01:59:54 | 00:00:00 | |
| DL1XH-west | 2026-09-03 00:50:14 | 50.67907 | 1.72736 | 111° | 7km/h | 28326m | 5.7m/s | -46°C | 0% | 0hPa | 2.6V | 18:12:15 | 01:59:55 | 00:00:00 | |
| BIOWL1-15 | 2026-09-03 00:50:12 | 50.67945 | 1.72754 | 215° | 9km/h | 28213m | 6.4m/s | -46°C | 0% | 0hPa | 2.5V | 18:12:15 | 01:59:36 | 00:00:00 | |
| DM0DOS-11 | 2026-09-03 00:50:07 | 50.67935 | 1.72735 | 180° | 11km/h | 28260m | 6.7m/s | -46.1°C | 2.7% | 0hPa | 2.6V | 08:30:00 | 01:59:44 | 00:00:00 | |
| DL1XH-west | 2026-09-03 00:50:04 | 50.67932 | 1.72735 | 184° | 15km/h | 28267m | 5.3m/s | -46.1°C | 0% | 0hPa | 2.5V | 18:12:15 | 01:59:45 | 00:00:00 | |
| BIOWL1-15 | 2026-09-03 00:50:02 | 50.67947 | 1.72755 | 195° | 9km/h | 28206m | 5.5m/s | -46°C | 0% | 0hPa | 2.5V | 18:12:15 | 01:59:35 | 00:00:00 | |
| AU51GT2 | 2026-09-03 00:49:59 | 50.67940 | 1.72743 | 242° | 11km/h | 28230m | 5.9m/s | -46.0°C | 0.5% | -1.0hPa | 2.6V | 00:00:00 | 00:00:00 | 00:00:00 | |
| DM0DOS-11 | 2026-09-03 00:49:56 | 50.67949 | 1.72756 | 182° | 11km/h | 28201m | 6m/s | -46°C | 2.7% | 0hPa | 2.6V | 08:30:00 | 01:59:34 | 00:00:00 | |
| DL1XH-west | 2026-09-03 00:49:54 | 50.67949 | 1.72756 | 183° | 11km/h | 28201m | 6m/s | -46°C | 0% | 0hPa | 2.6V | 18:12:15 | 01:59:34 | 00:00:00 | |
| DJ2DS-15 | 2026-09-03 00:49:50 | 50.67962 | 1.72756 | 179° | 20km/h | 28182m | 4.8m/s | -46.0°C | 0.5% | -1.0hPa | 2.5V | 00:00:00 | 00:00:00 | 00:00:00 | |
| DM0DOS-11 | 2026-09-03 00:49:45 | 50.67975 | 1.72759 | 241° | 11km/h | 28142m | 5.3m/s | -45.9°C | 2.6% | 0hPa | 2.5V | 08:30:00 | 01:59:24 | 00:00:00 | |
| BIOWL1-15 | 2026-09-03 00:49:44 | 50.67974 | 1.72756 | 245° | 7km/h | 28148m | 6.2m/s | -45.9°C | 0% | 0hPa | 2.5V | 18:12:15 | 01:59:25 | 00:00:00 | |
| DL1XH-west | 2026-09-03 00:49:43 | 50.67975 | 1.72759 | 242° | 11km/h | 28142m | 5.3m/s | -45.9°C | 0% | 0hPa | 2.5V | 18:12:15 | 01:59:24 | 00:00:00 | |
| DM0DOS-11 | 2026-09-03 00:49:35 | 50.67997 | 1.72795 | 184° | 7km/h | 28082m | 6.2m/s | -46°C | 2.6% | 0hPa | 2.5V | 08:30:00 | 01:59:14 | 00:00:00 | |
| BIOWL1-15 | 2026-09-03 00:49:33 | 50.68000 | 1.72796 | 229° | 5km/h | 28064m | 6.8m/s | -46.1°C | 0% | 0hPa | 2.6V | 18:12:15 | 01:59:11 | 00:00:00 | |
| DL1XH-west | 2026-09-03 00:49:32 | 50.67999 | 1.72795 | 176° | 4km/h | 28076m | 5.3m/s | -46°C | 0% | 0hPa | 2.5V | 18:12:15 | 01:59:13 | 00:00:00 | |
| BIOWL1-15 | 2026-09-03 00:49:23 | 50.68013 | 1.72829 | 169° | 15km/h | 28004m | 6.3m/s | -46.4°C | 0% | 0hPa | 2.5V | 18:12:15 | 01:59:01 | 00:00:00 | |
| DL1XH-west | 2026-09-03 00:49:22 | 50.68006 | 1.72827 | 207° | 13km/h | 28016m | 6m/s | 0°C | 0% | 0hPa | 2.5V | 18:12:15 | 01:59:03 | 00:00:00 | |
| DB0UT-7 | 2026-09-03 00:49:20 | 50.68013 | 1.72829 | 169° | 13km/h | 28005m | 6.3m/s | -46.3°C | 2.6% | 0hPa | 2.5V | 00:00:00 | 00:00:00 | 08:30:00 | |
| DM0DOS-11 | 2026-09-03 00:49:14 | 50.68034 | 1.72821 | 213° | 9km/h | 27962m | 6.7m/s | -46.7°C | 2.7% | 0hPa | 2.6V | 08:30:00 | 01:58:54 | 00:00:00 | |
| BIOWL1-15 | 2026-09-03 00:49:10 | 50.68057 | 1.72804 | 130° | 18km/h | 27909m | 5.4m/s | -46.7°C | 0% | 0hPa | 2.5V | 18:12:15 | 01:58:45 | 00:00:00 | |
| DM0DOS-11 | 2026-09-03 00:49:08 | 50.68060 | 1.72799 | 142° | 16km/h | 27903m | 6.7m/s | -46.7°C | 2.7% | 0hPa | 2.6V | 08:30:00 | 01:58:44 | 00:00:00 | |
| DL1XH-west | 2026-09-03 00:49:08 | 50.68044 | 1.72823 | 162° | 15km/h | 27933m | 4.5m/s | 0°C | 0% | 0hPa | 2.6V | 18:12:15 | 01:58:49 | 00:00:00 | |
| BIOWL1-15 | 2026-09-03 00:48:58 | 50.68074 | 1.72796 | 134° | 11km/h | 27858m | 6.5m/s | -46.9°C | 0% | 0hPa | 2.5V | 18:12:15 | 01:58:36 | 00:00:00 | |
| DM0DOS-11 | 2026-09-03 00:48:58 | 50.68079 | 1.72788 | 133° | 16km/h | 27846m | 5m/s | -46.9°C | 2.7% | 0hPa | 2.5V | 08:30:00 | 01:58:34 | 00:00:00 | |
| DL1XH-west | 2026-09-03 00:48:54 | 50.68077 | 1.72792 | 138° | 15km/h | 27851m | 5.8m/s | 0°C | 0% | 0hPa | 2.5V | 18:12:15 | 01:58:35 | 00:00:00 | |
| DB0UT-7 | 2026-09-03 00:48:50 | 50.68086 | 1.72769 | 110° | 9km/h | 27828m | 5.4m/s | -47.0°C | 2.7% | 0hPa | 2.5V | 00:00:00 | 01:58:31 | 00:00:00 | |
| DM0DOS-11 | 2026-09-03 00:48:46 | 50.68098 | 1.72745 | 102° | 7km/h | 27786m | 5.7m/s | -47.4°C | 2.8% | 0hPa | 2.5V | 08:30:00 | 01:58:24 | 00:00:00 | |
| BIOWL1-15 | 2026-09-03 00:48:45 | 50.68096 | 1.72749 | 146° | 7km/h | 27799m | 6.7m/s | -47.2°C | 0% | 0hPa | 2.5V | 18:12:15 | 01:58:26 | 00:00:00 | |
| DJ2DS-15 | 2026-09-03 00:48:38 | 50.68104 | 1.72729 | 111° | 13km/h | 27758m | 7.0m/s | -47.5°C | 0.5% | -1.0hPa | 2.5V | 00:00:00 | 00:00:00 | 00:00:00 | |
| DO9LL-15 | 2026-09-03 00:48:37 | 50.68105 | 1.72723 | 102° | 11km/h | 27751m | 6.0m/s | -47.5°C | 2.8% | 0hPa | 2.5V | 00:00:00 | 01:58:18 | 00:00:00 | |
| DM0DOS-11 | 2026-09-03 00:48:36 | 50.68111 | 1.72705 | 154° | 11km/h | 27728m | 5.6m/s | -47.6°C | 2.8% | 0hPa | 2.5V | 08:30:00 | 01:58:14 | 00:00:00 | |
| BIOWL1-15 | 2026-09-03 00:48:35 | 50.68117 | 1.72701 | 121° | 4km/h | 27710m | 6.5m/s | -47.6°C | 0% | 0hPa | 2.6V | 18:12:15 | 01:58:11 | 00:00:00 | |
| DL1XH-west | 2026-09-03 00:48:31 | 50.68115 | 1.72702 | 163° | 7km/h | 27717m | 6.3m/s | 0°C | 0% | 0hPa | 2.5V | 18:12:15 | 01:58:12 | 00:00:00 | |
| DO1YAY-16 | 2026-09-03 00:48:31 | 50.68117 | 1.72701 | 121° | 4km/h | 27711m | 6.5m/s | -47.6°C | 0.5% | -1.0hPa | 2.5V | 00:00:00 | 00:00:00 | 00:00:00 | |
| DM0DOS-11 | 2026-09-03 00:48:25 | 50.68116 | 1.72676 | 83° | 13km/h | 27670m | 6.5m/s | -47.6°C | 2.8% | 0hPa | 2.5V | 08:30:00 | 01:58:04 | 00:00:00 | |
| AU51GT2 | 2026-09-03 00:48:25 | 50.68115 | 1.72685 | 103° | 9km/h | 27682m | 5.5m/s | -47.6°C | 0.5% | -1.0hPa | 2.5V | 00:00:00 | 00:00:00 | 00:00:00 | |
| DM0DOS-11 | 2026-09-03 00:48:15 | 50.68103 | 1.72656 | 353° | 9km/h | 27612m | 6m/s | -47.9°C | 2.9% | 0hPa | 2.5V | 08:30:00 | 01:57:54 | 00:00:00 | |
| DL1XH-west | 2026-09-03 00:48:11 | 50.68101 | 1.72656 | 88° | 2km/h | 27600m | 4.8m/s | 0°C | 0% | 0hPa | 2.5V | 18:12:15 | 01:57:52 | 00:00:00 | |
| BIOWL1-15 | 2026-09-03 00:48:07 | 50.68096 | 1.72632 | 82° | 15km/h | 27565m | 6.6m/s | -48°C | 0% | 0hPa | 2.5V | 18:12:15 | 01:57:46 | 00:00:00 | |
| DM0DOS-11 | 2026-09-03 00:48:04 | 50.68095 | 1.72622 | 77° | 9km/h | 27554m | 5m/s | -48°C | 2.9% | 0hPa | 2.6V | 08:30:00 | 01:57:44 | 00:00:00 | |
| DO9LL-15 | 2026-09-03 00:48:04 | 50.68096 | 1.72627 | 89° | 9km/h | 27559m | 4.9m/s | -48.0°C | 2.9% | 0hPa | 2.6V | 00:00:00 | 01:57:45 | 00:00:00 | |
| DJ2DS-15 | 2026-09-03 00:48:02 | 50.68095 | 1.72619 | 59° | 9km/h | 27548m | 6.8m/s | -48.1°C | 0.5% | -1.0hPa | 2.6V | 00:00:00 | 00:00:00 | 00:00:00 | |
| HTAHTA | 2026-09-03 00:48:01 | 50.68091 | 1.72614 | 30° | 7km/h | 27536m | 5.2m/s | -48.1°C | 0.6% | -1.0hPa | 2.6V | 00:00:00 | 00:00:00 | 00:00:00 | |
| DO1YAY-16 | 2026-09-03 00:48:00 | 50.68090 | 1.72613 | 10° | 4km/h | 27531m | 5.9m/s | -48.1°C | 0.5% | -1.0hPa | 2.6V | 00:00:00 | 00:00:00 | 00:00:00 | |
| DM0DOS-11 | 2026-09-03 00:47:58 | 50.68092 | 1.72612 | 46° | 9km/h | 27494m | 5.6m/s | -48°C | 2.9% | 0hPa | 2.6V | 08:30:00 | 01:57:34 | 00:00:00 | |
| BIOWL1-15 | 2026-09-03 00:47:57 | 50.68093 | 1.72615 | 171° | 2km/h | 27507m | 6.2m/s | -48.1°C | 0% | 0hPa | 2.5V | 18:12:15 | 01:57:36 | 00:00:00 | |
| DL1XH-west | 2026-09-03 00:47:51 | 50.68088 | 1.72606 | 56° | 11km/h | 27483m | 6.6m/s | 0°C | 0% | 0hPa | 2.5V | 18:12:15 | 01:57:32 | 00:00:00 | |
| DM0DOS-11 | 2026-09-03 00:47:48 | 50.68079 | 1.72603 | 213° | 11km/h | 27436m | 4.9m/s | -47.9°C | 2.8% | 0hPa | 2.6V | 08:30:00 | 01:57:24 | 00:00:00 | |
| BIOWL1-15 | 2026-09-03 00:47:48 | 50.68077 | 1.72599 | 316° | 5km/h | 27448m | 6.1m/s | -47.9°C | 0% | 0hPa | 2.5V | 18:12:15 | 01:57:26 | 00:00:00 | |
| DL1XH-west | 2026-09-03 00:47:41 | 50.68084 | 1.72607 | 191° | 9km/h | 27426m | 6.1m/s | 0°C | 0% | 0hPa | 2.5V | 18:12:15 | 01:57:22 | 00:00:00 | |
| DB0UT-7 | 2026-09-03 00:47:38 | 50.68087 | 1.72601 | 96° | 11km/h | 27409m | 4.6m/s | -48.1°C | 2.9% | 0hPa | 2.5V | 00:00:00 | 00:00:00 | 00:00:00 | |
| DM0DOS-11 | 2026-09-03 00:47:37 | 50.68092 | 1.72589 | 245° | 7km/h | 27380m | 6.6m/s | -48.3°C | 2.9% | 0hPa | 2.5V | 08:30:00 | 01:57:14 | 00:00:00 | |
| BIOWL1-15 | 2026-09-03 00:47:35 | 50.68093 | 1.72598 | 270° | 15km/h | 27368m | 5.1m/s | -48.4°C | 0% | 0hPa | 2.6V | 18:12:15 | 01:57:12 | 00:00:00 | |
| HTAHTA | 2026-09-03 00:47:31 | 50.68097 | 1.72616 | 221° | 16km/h | 27351m | 5.5m/s | -48.4°C | 0.5% | -1.0hPa | 2.5V | 00:00:00 | 00:00:00 | 00:00:00 | |
| DO1YAY-16 | 2026-09-03 00:47:29 | 50.68097 | 1.72616 | 221° | 16km/h | 27351m | 5.5m/s | -48.4°C | 0.5% | -1.0hPa | 2.5V | 00:00:00 | 00:00:00 | 00:00:00 | |
| DM0DOS-11 | 2026-09-03 00:47:26 | 50.68109 | 1.72622 | 102° | 5km/h | 27323m | 5m/s | -48.4°C | 2.9% | 0hPa | 2.5V | 08:30:00 | 01:57:04 | 00:00:00 | |
| BIOWL1-15 | 2026-09-03 00:47:24 | 50.68109 | 1.72616 | 113° | 9km/h | 27312m | 6.3m/s | -48.4°C | 0% | 0hPa | 2.6V | 18:12:15 | 01:57:02 | 00:00:00 | |
| DL1XH-west | 2026-09-03 00:47:15 | 50.68115 | 1.72627 | 242° | 15km/h | 27271m | 6.7m/s | 0°C | 0% | 0hPa | 2.5V | 18:12:15 | 01:56:55 | 00:00:00 | |
| DM0DOS-11 | 2026-09-03 00:47:15 | 50.68117 | 1.72631 | 221° | 15km/h | 27265m | 5.6m/s | -48.5°C | 3% | 0hPa | 2.5V | 08:30:00 | 01:56:54 | 00:00:00 | |
| BIOWL1-15 | 2026-09-03 00:47:11 | 50.68123 | 1.72636 | 198° | 11km/h | 27253m | 6.9m/s | -48.5°C | 0% | 0hPa | 2.6V | 18:12:15 | 01:56:52 | 00:00:00 | |
| DM0DOS-11 | 2026-09-03 00:47:09 | 50.68137 | 1.72634 | 259° | 7km/h | 27200m | 5.6m/s | -48.5°C | 3% | 0hPa | 2.5V | 08:30:00 | 01:56:43 | 00:00:00 | |
| BIOWL1-15 | 2026-09-03 00:47:03 | 50.68138 | 1.72637 | 249° | 9km/h | 27195m | 4.4m/s | -48.6°C | 0% | 0hPa | 2.6V | 18:12:15 | 01:56:42 | 00:00:00 | |
| DO1YAY-16 | 2026-09-03 00:46:58 | 50.68146 | 1.72640 | 147° | 9km/h | 27170m | 6.9m/s | -48.6°C | 0.6% | -1.0hPa | 2.5V | 00:00:00 | 00:00:00 | 00:00:00 | |
| DM0DOS-11 | 2026-09-03 00:46:57 | 50.68162 | 1.72616 | 157° | 16km/h | 27137m | 4.3m/s | -48.6°C | 3% | 0hPa | 2.5V | 08:30:00 | 01:56:32 | 00:00:00 | |
| BIOWL1-15 | 2026-09-03 00:46:51 | 50.68167 | 1.72614 | 322° | 5km/h | 27113m | 5.7m/s | -48.6°C | 0% | 0hPa | 2.5V | 18:12:15 | 01:56:28 | 00:00:00 | |
| WEDDY | 2026-09-03 00:46:50 | 50.68165 | 1.72614 | 162° | 11km/h | 27132m | 6.0m/s | -48.6°C | 0.6% | 0hPa | 2.5V | 00:00:00 | 00:00:00 | 00:00:00 | |
| DM0DOS-11 | 2026-09-03 00:46:46 | 50.68164 | 1.72620 | 47° | 2km/h | 27079m | 4.8m/s | -48.5°C | 3% | 0hPa | 2.5V | 08:30:00 | 01:56:22 | 00:00:00 | |
| BIOWL1-15 | 2026-09-03 00:46:38 | 50.68174 | 1.72618 | 165° | 13km/h | 27052m | 4.5m/s | -48.5°C | 0% | 0hPa | 2.5V | 18:12:15 | 01:56:17 | 00:00:00 | |
| DM0DOS-11 | 2026-09-03 00:46:36 | 50.68171 | 1.72601 | 10° | 9km/h | 27017m | 5.7m/s | -48.6°C | 3% | 0hPa | 2.5V | 08:30:00 | 01:56:11 | 00:00:00 | |
| BIOWL1-15 | 2026-09-03 00:46:26 | 50.68162 | 1.72593 | 119° | 15km/h | 26971m | 5.7m/s | -48.7°C | 0% | 0hPa | 2.5V | 18:12:15 | 01:56:03 | 00:00:00 | |
| DM0DOS-11 | 2026-09-03 00:46:25 | 50.68163 | 1.72587 | 108° | 16km/h | 26965m | 6.7m/s | -48.7°C | 3% | 0hPa | 2.5V | 08:30:00 | 01:56:02 | 00:00:00 | |
| BIOWL1-15 | 2026-09-03 00:46:18 | 50.68167 | 1.72530 | 90° | 20km/h | 26883m | 5.7m/s | -49°C | 0% | 0hPa | 2.6V | 18:12:15 | 01:55:48 | 00:00:00 | |
| BIOWL1-15 | 2026-09-03 00:46:03 | 50.68170 | 1.72474 | 45° | 20km/h | 26838m | 4.8m/s | -49°C | 0% | 0hPa | 2.5V | 18:12:15 | 01:55:40 | 00:00:00 | |
| DM0DOS-11 | 2026-09-03 00:46:02 | 50.68174 | 1.72484 | 89° | 15km/h | 26850m | 6.7m/s | -49°C | 3% | 0hPa | 2.6V | 08:30:00 | 01:55:42 | 00:00:00 | |
| HTAHTA | 2026-09-03 00:45:57 | 50.68160 | 1.72454 | 63° | 20km/h | 26821m | 5.4m/s | -49.0°C | 0.6% | -1.0hPa | 2.6V | 00:00:00 | 00:00:00 | 00:00:00 | |
| DM0DOS-11 | 2026-09-03 00:45:56 | 50.68151 | 1.72411 | 71° | 24km/h | 26793m | 5m/s | -49°C | 3% | 0hPa | 2.6V | 08:30:00 | 01:55:32 | 00:00:00 | |
| DL1XH-west | 2026-09-03 00:45:56 | 50.68160 | 1.72454 | 64° | 22km/h | 26821m | 5.4m/s | 0°C | 0% | 0hPa | 2.6V | 18:12:15 | 01:55:37 | 00:00:00 | |
| BIOWL1-15 | 2026-09-03 00:45:49 | 50.68150 | 1.72385 | 91° | 20km/h | 26776m | 4.8m/s | -49.1°C | 0% | 0hPa | 2.5V | 18:12:15 | 01:55:29 | 00:00:00 | |
| WEDDY | 2026-09-03 00:45:47 | 50.68149 | 1.72384 | 92° | 20km/h | 26777m | 4.8m/s | -49.1°C | 0.6% | 0hPa | 2.5V | 00:00:00 | 00:00:00 | 00:00:00 | |
| DM0DOS-11 | 2026-09-03 00:45:46 | 50.68129 | 1.72333 | 53° | 26km/h | 26731m | 5.6m/s | -49.3°C | 3% | 0hPa | 2.5V | 08:30:00 | 01:55:21 | 00:00:00 | |
| BIOWL1-15 | 2026-09-03 00:45:37 | 50.68099 | 1.72267 | 46° | 26km/h | 26685m | 6.7m/s | -49.5°C | 0% | 0hPa | 2.6V | 18:12:15 | 01:55:13 | 00:00:00 | |
| DO9LL-15 | 2026-09-03 00:45:30 | 50.68088 | 1.72253 | 32° | 13km/h | 26673m | 5.5m/s | -49.6°C | 3.1% | 0hPa | 2.5V | 00:00:00 | 01:55:11 | 00:00:00 | |
| WEDDY | 2026-09-03 00:45:27 | 50.68076 | 1.72241 | 35° | 26km/h | 26661m | 6.4m/s | -49.8°C | 0.7% | 0hPa | 2.6V | 00:00:00 | 00:00:00 | 00:00:00 | |
| HTAHTA | 2026-09-03 00:45:26 | 50.68062 | 1.72221 | 46° | 15km/h | 26636m | 5.7m/s | -49.8°C | 0.6% | -1.0hPa | 2.6V | 00:00:00 | 00:00:00 | 00:00:00 | |
| DO1YAY-16 | 2026-09-03 00:45:25 | 50.68062 | 1.72221 | 46° | 15km/h | 26636m | 5.7m/s | -49.8°C | 0.6% | -1.0hPa | 2.6V | 00:00:00 | 00:00:00 | 00:00:00 | |
| DM0DOS-11 | 2026-09-03 00:45:24 | 50.68059 | 1.72211 | 106° | 7km/h | 26618m | 6.4m/s | -49.9°C | 3.2% | 0hPa | 2.6V | 08:30:00 | 01:55:02 | 00:00:00 | |
| BIOWL1-15 | 2026-09-03 00:45:21 | 50.68052 | 1.72201 | 0° | 16km/h | 26590m | 5.1m/s | -49.9°C | 0% | 0hPa | 2.6V | 18:12:15 | 01:54:57 | 00:00:00 | |
| BIOWL9-15 | 2026-09-03 00:45:19 | 50.68059 | 1.72203 | 32° | 9km/h | 26601m | 6.2m/s | -49.9°C | 0.6% | -1.0hPa | 2.6V | 00:00:00 | 00:00:00 | 00:00:00 | |
| DM0DOS-11 | 2026-09-03 00:45:14 | 50.68040 | 1.72212 | 311° | 7km/h | 26560m | 6.6m/s | -49.7°C | 3.1% | 0hPa | 2.6V | 08:30:00 | 01:54:52 | 00:00:00 | |
| BIOWL1-15 | 2026-09-03 00:45:11 | 50.68034 | 1.72228 | 285° | 5km/h | 26512m | 5m/s | -49.7°C | 0% | 0hPa | 2.5V | 18:12:15 | 01:54:44 | 00:00:00 | |
| WEDDY | 2026-09-03 00:45:08 | 50.68036 | 1.72215 | 331° | 5km/h | 26542m | 5.8m/s | -49.7°C | 0.7% | 0hPa | 2.5V | 00:00:00 | 00:00:00 | 00:00:00 | |
| DM0DOS-11 | 2026-09-03 00:45:03 | 50.68034 | 1.72234 | 253° | 11km/h | 26501m | 7m/s | -49.8°C | 3.1% | 0hPa | 2.5V | 08:30:00 | 01:54:42 | 00:00:00 | |
| BIOWL1-15 | 2026-09-03 00:45:01 | 50.68036 | 1.72244 | 255° | 15km/h | 26489m | 5.5m/s | -49.9°C | 0% | 0hPa | 2.6V | 18:12:15 | 01:54:40 | 00:00:00 | |
| DM0DOS-11 | 2026-09-03 00:44:57 | 50.68037 | 1.72298 | 256° | 16km/h | 26437m | 6.5m/s | -50.2°C | 3.2% | 0hPa | 2.6V | 08:30:00 | 01:54:31 | 00:00:00 | |
| BIOWL1-15 | 2026-09-03 00:44:48 | 50.68039 | 1.72311 | 246° | 16km/h | 26425m | 5.8m/s | -50.3°C | 0% | 0hPa | 2.5V | 18:12:15 | 01:54:29 | 00:00:00 | |
| BIOWL9-15 | 2026-09-03 00:44:48 | 50.68041 | 1.72317 | 234° | 16km/h | 26419m | 6.9m/s | -50.3°C | 0.6% | -1.0hPa | 2.5V | 00:00:00 | 00:00:00 | 00:00:00 | |
| BIOWL1-15 | 2026-09-03 00:44:41 | 50.68049 | 1.72361 | 286° | 7km/h | 26360m | 7m/s | -50.2°C | 0% | 0hPa | 2.5V | 18:12:15 | 01:54:18 | 00:00:00 | |
| DM0DOS-11 | 2026-09-03 00:44:35 | 50.68054 | 1.72377 | 225° | 9km/h | 26323m | 7.1m/s | -50.2°C | 3.2% | 0hPa | 2.5V | 08:30:00 | 01:54:12 | 00:00:00 | |
| BIOWL1-15 | 2026-09-03 00:44:28 | 50.68058 | 1.72390 | 256° | 9km/h | 26293m | 5.4m/s | -50.2°C | 0% | 0hPa | 2.5V | 18:12:15 | 01:54:07 | 00:00:00 | |
| WEDDY | 2026-09-03 00:44:26 | 50.68057 | 1.72387 | 249° | 7km/h | 26299m | 6.3m/s | -50.2°C | 0.7% | 0hPa | 2.5V | 00:00:00 | 00:00:00 | 00:00:00 | |
| DM0DOS-11 | 2026-09-03 00:44:24 | 50.68050 | 1.72406 | 333° | 7km/h | 26264m | 6.4m/s | -50.3°C | 3.3% | 0hPa | 2.5V | 08:30:00 | 01:54:02 | 00:00:00 | |
| BIOWL1-15 | 2026-09-03 00:44:15 | 50.68053 | 1.72405 | 216° | 4km/h | 26230m | 5.8m/s | -50.3°C | 0% | 0hPa | 2.6V | 18:12:15 | 01:53:56 | 00:00:00 | |
| DM0DOS-11 | 2026-09-03 00:44:13 | 50.68056 | 1.72420 | 289° | 18km/h | 26207m | 6m/s | -50.1°C | 3.3% | 0hPa | 2.5V | 08:30:00 | 01:53:52 | 00:00:00 | |
| BIOWL1-15 | 2026-09-03 00:44:04 | 50.68037 | 1.72435 | 223° | 4km/h | 26155m | 5.8m/s | -50.1°C | 0% | 0hPa | 2.5V | 18:12:15 | 01:53:43 | 00:00:00 | |
| DM0DOS-11 | 2026-09-03 00:44:02 | 50.68037 | 1.72437 | 236° | 5km/h | 26149m | 5.4m/s | -50°C | 3.3% | 0hPa | 2.5V | 08:30:00 | 01:53:42 | 00:00:00 | |
| BIOWL1-15 | 2026-09-03 00:43:53 | 50.68043 | 1.72471 | 264° | 7km/h | 26089m | 5.4m/s | -49.5°C | 0% | 0hPa | 2.5V | 18:12:15 | 01:53:32 | 00:00:00 | |
| HTAHTA | 2026-09-03 00:43:53 | 50.68046 | 1.72484 | 218° | 9km/h | 26066m | 6.0m/s | -49.4°C | -1.0% | -1.0hPa | 2.5V | 00:00:00 | 00:00:00 | 00:00:00 | |
| DM0DOS-11 | 2026-09-03 00:43:52 | 50.68043 | 1.72471 | 263° | 7km/h | 26089m | 5.3m/s | -49.5°C | 3.2% | 0hPa | 2.5V | 08:30:00 | 01:53:32 | 00:00:00 | |
| DO1YAY-16 | 2026-09-03 00:43:51 | 50.68043 | 1.72471 | 263° | 7km/h | 26090m | 5.4m/s | -49.5°C | 0.6% | -1.0hPa | 2.5V | 00:00:00 | 00:00:00 | 00:00:00 | |
| WEDDY | 2026-09-03 00:43:45 | 50.68048 | 1.72486 | 202° | 13km/h | 26060m | 7.0m/s | -49.3°C | 0.7% | 0hPa | 2.5V | 00:00:00 | 00:00:00 | 00:00:00 | |
| DM0DOS-11 | 2026-09-03 00:43:42 | 50.68057 | 1.72501 | 286° | 11km/h | 26031m | 4.9m/s | -49.3°C | 3.1% | 0hPa | 2.5V | 08:30:00 | 01:53:22 | 00:00:00 | |
| BIOWL1-15 | 2026-09-03 00:43:42 | 50.68056 | 1.72505 | 290° | 11km/h | 26025m | 6.6m/s | -49.3°C | 0% | 0hPa | 2.6V | 18:12:15 | 01:53:21 | 00:00:00 | |
| DM0DOS-11 | 2026-09-03 00:43:32 | 50.68053 | 1.72525 | 111° | 2km/h | 25970m | 5.8m/s | -49.3°C | 3.1% | 0hPa | 2.5V | 08:30:00 | 01:53:12 | 00:00:00 | |
| BIOWL1-15 | 2026-09-03 00:43:30 | 50.68052 | 1.72525 | 333° | 5km/h | 25958m | 5m/s | -49.3°C | 0% | 0hPa | 2.6V | 18:12:15 | 01:53:10 | 00:00:00 | |
| DM0DOS-11 | 2026-09-03 00:43:27 | 50.68045 | 1.72532 | 265° | 7km/h | 25913m | 5.7m/s | -49°C | 3.1% | 0hPa | 2.5V | 08:30:00 | 01:53:02 | 00:00:00 | |
| BIOWL1-15 | 2026-09-03 00:43:20 | 50.68051 | 1.72553 | 54° | 2km/h | 25856m | 6.1m/s | -49.1°C | 0% | 0hPa | 2.5V | 18:12:15 | 01:52:52 | 00:00:00 | |
| DM0DOS-11 | 2026-09-03 00:43:16 | 50.68052 | 1.72553 | 54° | 2km/h | 25856m | 6.1m/s | -49.1°C | 3.1% | 0hPa | 2.5V | 08:30:00 | 01:52:52 | 00:00:00 | |
| AU51GT2 | 2026-09-03 00:43:15 | 50.68050 | 1.72555 | 252° | 0km/h | 25873m | 6.8m/s | -49.0°C | 0.6% | -1.0hPa | 2.5V | 00:00:00 | 00:00:00 | 00:00:00 | |
| BIOWL9-15 | 2026-09-03 00:43:14 | 50.68050 | 1.72555 | 252° | 0km/h | 25873m | 6.8m/s | -49.0°C | 0.6% | -1.0hPa | 2.5V | 00:00:00 | 00:00:00 | 00:00:00 | |
| DO9LL-15 | 2026-09-03 00:43:11 | 50.68051 | 1.72553 | 55° | 7km/h | 25857m | 6.0m/s | -49.1°C | 3.1% | 0hPa | 2.5V | 00:00:00 | 01:52:52 | 00:00:00 | |
| DM0DOS-11 | 2026-09-03 00:43:06 | 50.68041 | 1.72585 | 327° | 9km/h | 25799m | 6.5m/s | -49°C | 3% | 0hPa | 2.5V | 08:30:00 | 01:52:42 | 00:00:00 | |
| BIOWL1-15 | 2026-09-03 00:43:04 | 50.68045 | 1.72573 | 284° | 11km/h | 25816m | 6.5m/s | -49.1°C | 0% | 0hPa | 2.6V | 18:12:15 | 01:52:45 | 00:00:00 | |
| WEDDY | 2026-09-03 00:43:03 | 50.68044 | 1.72578 | 296° | 13km/h | 25810m | 5.7m/s | -49.1°C | 0.7% | 0hPa | 2.5V | 00:00:00 | 00:00:00 | 00:00:00 | |
| DM0DOS-11 | 2026-09-03 00:42:55 | 50.68025 | 1.72591 | 217° | 2km/h | 25742m | 5.4m/s | -49°C | 3.1% | 0hPa | 2.5V | 08:30:00 | 01:52:32 | 00:00:00 | |
| BIOWL1-15 | 2026-09-03 00:42:55 | 50.68026 | 1.72586 | 314° | 9km/h | 25760m | 5.8m/s | -49.1°C | 0% | 0hPa | 2.6V | 18:12:15 | 01:52:35 | 00:00:00 | |
| HTAHTA | 2026-09-03 00:42:51 | 50.68025 | 1.72592 | 256° | 2km/h | 25736m | 6.1m/s | -49.0°C | -1.0% | -1.0hPa | 2.6V | 00:00:00 | 00:00:00 | 00:00:00 | |
| DO1YAY-16 | 2026-09-03 00:42:49 | 50.68025 | 1.72593 | 273° | 4km/h | 25730m | 5.3m/s | -48.9°C | 0.6% | -1.0hPa | 2.6V | 00:00:00 | 00:00:00 | 00:00:00 | |
| BIOWL1-15 | 2026-09-03 00:42:46 | 50.68020 | 1.72587 | 48° | 9km/h | 25703m | 5.9m/s | -48.9°C | 0% | 0hPa | 2.6V | 18:12:15 | 01:52:25 | 00:00:00 | |
| DM0DOS-11 | 2026-09-03 00:42:44 | 50.68017 | 1.72585 | 14° | 0km/h | 25685m | 6.2m/s | -48.9°C | 3% | 0hPa | 2.5V | 08:30:00 | 01:52:22 | 00:00:00 | |
| AU51GT2 | 2026-09-03 00:42:44 | 50.68018 | 1.72585 | 28° | 5km/h | 25697m | 6.1m/s | -48.9°C | 0.6% | -1.0hPa | 2.6V | 00:00:00 | 00:00:00 | 00:00:00 | |
| BIOWL1-15 | 2026-09-03 00:42:36 | 50.68040 | 1.72561 | 188° | 18km/h | 25587m | 4.2m/s | -49.3°C | 0% | 0hPa | 2.6V | 18:12:15 | 01:52:05 | 00:00:00 | |
| DM0DOS-11 | 2026-09-03 00:42:33 | 50.68022 | 1.72580 | 89° | 11km/h | 25628m | 5.8m/s | -49.2°C | 3.1% | 0hPa | 2.5V | 08:30:00 | 01:52:12 | 00:00:00 | |
| DB0UT-7 | 2026-09-03 00:42:30 | 50.68022 | 1.72576 | 102° | 11km/h | 25623m | 5.8m/s | -49.2°C | 3.1% | 0hPa | 2.6V | 00:00:00 | 00:00:00 | 00:00:00 | |
| DM0DOS-11 | 2026-09-03 00:42:26 | 50.68053 | 1.72557 | 108° | 11km/h | 25566m | 5.2m/s | -49.2°C | 3.1% | 0hPa | 2.6V | 08:30:00 | 01:52:01 | 00:00:00 | |
| BIOWL1-15 | 2026-09-03 00:42:24 | 50.68048 | 1.72562 | 172° | 15km/h | 25578m | 6.3m/s | -49.3°C | 0% | 0hPa | 2.5V | 18:12:15 | 01:52:03 | 00:00:00 | |
| DO1YAY-16 | 2026-09-03 00:42:20 | 50.68053 | 1.72548 | 73° | 9km/h | 25555m | 5.3m/s | -49.2°C | 0.6% | -1.0hPa | 2.6V | 00:00:00 | 00:00:00 | 00:00:00 | |
| DM0DOS-11 | 2026-09-03 00:42:14 | 50.68062 | 1.72531 | 228° | 7km/h | 25510m | 4.4m/s | -49°C | 3.1% | 0hPa | 2.6V | 08:30:00 | 01:51:51 | 00:00:00 | |
| BIOWL1-15 | 2026-09-03 00:42:11 | 50.68060 | 1.72530 | 202° | 9km/h | 25515m | 5.3m/s | -49.1°C | 0% | 0hPa | 2.5V | 18:12:15 | 01:51:52 | 00:00:00 | |
| DO9LL-15 | 2026-09-03 00:42:08 | 50.68062 | 1.72533 | 81° | 15km/h | 25500m | 5.8m/s | -48.9°C | 3.1% | 0hPa | 2.5V | 00:00:00 | 01:51:49 | 00:00:00 | |
| DM0DOS-11 | 2026-09-03 00:42:04 | 50.68053 | 1.72508 | 42° | 9km/h | 25454m | 5.1m/s | -48.9°C | 3% | 0hPa | 2.6V | 08:30:00 | 01:51:41 | 00:00:00 | |
| BIOWL1-15 | 2026-09-03 00:42:01 | 50.68054 | 1.72511 | 48° | 11km/h | 25460m | 6.8m/s | -48.9°C | 0% | 0hPa | 2.5V | 18:12:15 | 01:51:42 | 00:00:00 | |
| DB0UT-7 | 2026-09-03 00:42:00 | 50.68053 | 1.72508 | 43° | 20km/h | 25454m | 5.0m/s | -48.9°C | 3.0% | 0hPa | 2.6V | 00:00:00 | 01:51:41 | 08:30:00 | |
| WEDDY | 2026-09-03 00:41:57 | 50.68049 | 1.72506 | 344° | 7km/h | 25443m | 6.4m/s | -49.0°C | 0.7% | 0hPa | 2.6V | 00:00:00 | 00:00:00 | 00:00:00 | |
| DM0DOS-11 | 2026-09-03 00:41:54 | 50.68034 | 1.72495 | 43° | 9km/h | 25397m | 5.6m/s | -49.2°C | 3.1% | 0hPa | 2.6V | 08:30:00 | 01:51:31 | 00:00:00 | |
| BIOWL1-15 | 2026-09-03 00:41:52 | 50.68034 | 1.72495 | 44° | 9km/h | 25397m | 5.6m/s | -49.2°C | 0% | 0hPa | 2.6V | 18:12:15 | 01:51:31 | 00:00:00 | |
| DO1YAY-16 | 2026-09-03 00:41:48 | 50.68026 | 1.72485 | 25° | 18km/h | 25381m | 4.6m/s | -49.2°C | 0.6% | -1.0hPa | 2.6V | 00:00:00 | 00:00:00 | 00:00:00 | |
| DM0DOS-11 | 2026-09-03 00:41:42 | 50.67989 | 1.72500 | 345° | 20km/h | 25342m | 5.1m/s | -49.1°C | 3.1% | 0hPa | 2.6V | 08:30:00 | 01:51:21 | 00:00:00 | |
| BIOWL1-15 | 2026-09-03 00:41:39 | 50.67977 | 1.72505 | 343° | 13km/h | 25325m | 5.5m/s | -49°C | 0% | 0hPa | 2.5V | 18:12:15 | 01:51:18 | 00:00:00 | |
| DO9LL-15 | 2026-09-03 00:41:38 | 50.67980 | 1.72504 | 346° | 16km/h | 25331m | 5.8m/s | 0°C | 0% | 0hPa | 2.6V | 00:00:00 | 01:51:19 | 00:00:00 | |
| WEDDY | 2026-09-03 00:41:37 | 50.67980 | 1.72504 | 346° | 16km/h | 25331m | 5.8m/s | -49.0°C | 0.7% | 0hPa | 2.6V | 00:00:00 | 00:00:00 | 00:00:00 | |
| DM0DOS-11 | 2026-09-03 00:41:32 | 50.67952 | 1.72516 | 316° | 18km/h | 25287m | 4.6m/s | -49°C | 3% | 0hPa | 2.6V | 08:30:00 | 01:51:11 | 00:00:00 | |
| BIOWL1-15 | 2026-09-03 00:41:30 | 50.67939 | 1.72530 | 334° | 24km/h | 25270m | 4.4m/s | -49°C | 0% | 0hPa | 2.5V | 18:12:15 | 01:51:08 | 00:00:00 | |
| DM0DOS-11 | 2026-09-03 00:41:26 | 50.67914 | 1.72559 | 326° | 15km/h | 25226m | 4.6m/s | -49.3°C | 3.1% | 0hPa | 2.6V | 08:30:00 | 01:51:00 | 00:00:00 | |
| BIOWL1-15 | 2026-09-03 00:41:16 | 50.67901 | 1.72592 | 305° | 15km/h | 25192m | 4.9m/s | -49.4°C | 0% | 0hPa | 2.5V | 18:12:15 | 01:50:54 | 00:00:00 | |
| DO1YAY-16 | 2026-09-03 00:41:16 | 50.67906 | 1.72574 | 291° | 16km/h | 25208m | 4.9m/s | -49.3°C | 0.6% | -1.0hPa | 2.6V | 00:00:00 | 00:00:00 | 00:00:00 | |
| DM0DOS-11 | 2026-09-03 00:41:14 | 50.67897 | 1.72615 | 267° | 20km/h | 25170m | 4.7m/s | -49.5°C | 3.1% | 0hPa | 2.6V | 08:30:00 | 01:50:50 | 00:00:00 | |
| AU51GT2 | 2026-09-03 00:41:11 | 50.67897 | 1.72608 | 275° | 16km/h | 25176m | 6.1m/s | -49.5°C | 0.6% | -1.0hPa | 2.5V | 00:00:00 | 00:00:00 | 00:00:00 | |
| BIOWL9-15 | 2026-09-03 00:41:10 | 50.67897 | 1.72608 | 275° | 16km/h | 25176m | 6.1m/s | -49.5°C | 0.6% | -1.0hPa | 2.5V | 00:00:00 | 00:00:00 | 00:00:00 | |
| DO9LL-15 | 2026-09-03 00:41:08 | 50.67897 | 1.72623 | 269° | 20km/h | 25166m | 4.4m/s | 0°C | 0% | 0hPa | 2.5V | 00:00:00 | 01:50:49 | 00:00:00 | |
| DM0DOS-11 | 2026-09-03 00:41:04 | 50.67885 | 1.72703 | 275° | 24km/h | 25111m | 5m/s | -49.7°C | 3.2% | 0hPa | 2.5V | 08:30:00 | 01:50:39 | 00:00:00 | |
| BIOWL1-15 | 2026-09-03 00:41:02 | 50.67890 | 1.72670 | 279° | 22km/h | 25134m | 5.1m/s | -49.7°C | 0% | 0hPa | 2.5V | 18:12:15 | 01:50:43 | 00:00:00 | |
| WEDDY | 2026-09-03 00:40:56 | 50.67885 | 1.72712 | 268° | 26km/h | 25106m | 6.6m/s | -49.7°C | 0.7% | 0hPa | 2.5V | 00:00:00 | 00:00:00 | 00:00:00 | |
| DM0DOS-11 | 2026-09-03 00:40:53 | 50.67904 | 1.72803 | 262° | 18km/h | 25048m | 5.7m/s | -49.7°C | 3.1% | 0hPa | 2.5V | 08:30:00 | 01:50:28 | 00:00:00 | |
| BIOWL1-15 | 2026-09-03 00:40:52 | 50.67895 | 1.72768 | 249° | 24km/h | 25072m | 6m/s | -49.7°C | 0% | 0hPa | 2.5V | 18:12:15 | 01:50:32 | 00:00:00 | |
| HTAHTA | 2026-09-03 00:40:46 | 50.67904 | 1.72810 | 264° | 16km/h | 25043m | 3.9m/s | 0°C | -1.0% | -1.0hPa | 2.5V | 00:00:00 | 00:00:00 | 00:00:00 | |
| DO1YAY-16 | 2026-09-03 00:40:45 | 50.67905 | 1.72817 | 256° | 16km/h | 25038m | 4.9m/s | -49.8°C | 0.6% | -1.0hPa | 2.5V | 00:00:00 | 00:00:00 | 00:00:00 | |
| DM0DOS-11 | 2026-09-03 00:40:42 | 50.67928 | 1.72868 | 232° | 20km/h | 24987m | 4.9m/s | -50.2°C | 3.2% | 0hPa | 2.5V | 08:30:00 | 01:50:17 | 00:00:00 | |
| BIOWL1-15 | 2026-09-03 00:40:41 | 50.67918 | 1.72848 | 228° | 15km/h | 25009m | 6m/s | -50.1°C | 0% | 0hPa | 2.6V | 18:12:15 | 01:50:21 | 00:00:00 | |
| BIOWL9-15 | 2026-09-03 00:40:40 | 50.67920 | 1.72852 | 231° | 13km/h | 25004m | 4.7m/s | -50.1°C | 0.6% | -1.0hPa | 2.5V | 00:00:00 | 00:00:00 | 00:00:00 | |
| DO9LL-15 | 2026-09-03 00:40:38 | 50.67922 | 1.72857 | 233° | 16km/h | 24999m | 5.0m/s | 0°C | 0% | 0hPa | 2.5V | 00:00:00 | 01:50:19 | 00:00:00 | |
| WEDDY | 2026-09-03 00:40:35 | 50.67927 | 1.72868 | 234° | 20km/h | 24987m | 4.9m/s | -50.2°C | 0.7% | 0hPa | 2.5V | 00:00:00 | 00:00:00 | 00:00:00 | |
| DM0DOS-11 | 2026-09-03 00:40:31 | 50.67968 | 1.72887 | 165° | 18km/h | 24928m | 6.2m/s | -50.1°C | 3.2% | 0hPa | 2.5V | 08:30:00 | 01:50:07 | 00:00:00 | |
| BIOWL1-15 | 2026-09-03 00:40:27 | 50.67972 | 1.72886 | 177° | 18km/h | 24923m | 5.6m/s | -50.1°C | 0% | 0hPa | 2.6V | 18:12:15 | 01:50:06 | 00:00:00 | |
| DM0DOS-11 | 2026-09-03 00:40:21 | 50.68011 | 1.72895 | 147° | 18km/h | 24867m | 5.7m/s | -50.5°C | 3.3% | 0hPa | 2.6V | 08:30:00 | 01:49:56 | 00:00:00 | |
| BIOWL1-15 | 2026-09-03 00:40:11 | 50.68041 | 1.72851 | 147° | 7km/h | 24805m | 6.2m/s | -50.7°C | 0% | 0hPa | 2.6V | 18:12:15 | 01:49:45 | 00:00:00 | |
| DM0DOS-11 | 2026-09-03 00:40:09 | 50.68036 | 1.72854 | 148° | 11km/h | 24816m | 5.8m/s | -50.7°C | 3.3% | 0hPa | 2.5V | 08:30:00 | 01:49:47 | 00:00:00 | |
| BIOWL9-15 | 2026-09-03 00:40:09 | 50.68036 | 1.72855 | 148° | 9km/h | 24816m | 5.8m/s | -50.7°C | 0.7% | -1.0hPa | 2.5V | 00:00:00 | 00:00:00 | 00:00:00 | |
| DO9LL-15 | 2026-09-03 00:40:03 | 50.68042 | 1.72849 | 129° | 9km/h | 24799m | 5.8m/s | 0°C | 0% | 0hPa | 2.5V | 00:00:00 | 01:49:44 | 00:00:00 | |
| DM0DOS-11 | 2026-09-03 00:39:58 | 50.68059 | 1.72811 | 110° | 20km/h | 24760m | 4.4m/s | -50.6°C | 3.3% | 0hPa | 2.5V | 08:30:00 | 01:49:37 | 00:00:00 | |
| BIOWL1-15 | 2026-09-03 00:39:57 | 50.68057 | 1.72819 | 119° | 22km/h | 24765m | 6.4m/s | -50.6°C | 0% | 0hPa | 2.5V | 18:12:15 | 01:49:38 | 00:00:00 | |
| WEDDY | 2026-09-03 00:39:54 | 50.68060 | 1.72804 | 112° | 16km/h | 24756m | 4.1m/s | -50.6°C | 0.7% | 0hPa | 2.5V | 00:00:00 | 00:00:00 | 00:00:00 | |
| DM0DOS-11 | 2026-09-03 00:39:52 | 50.68064 | 1.72804 | 150° | 2km/h | 24704m | 5.5m/s | -50.6°C | 3.2% | 0hPa | 2.5V | 08:30:00 | 01:49:27 | 00:00:00 | |
| BIOWL1-15 | 2026-09-03 00:39:49 | 50.68065 | 1.72800 | 112° | 9km/h | 24692m | 6.8m/s | -50.7°C | 0% | 0hPa | 2.6V | 18:12:15 | 01:49:25 | 00:00:00 | |
| DO1YAY-16 | 2026-09-03 00:39:43 | 50.68066 | 1.72797 | 102° | 9km/h | 24686m | 5.4m/s | -50.8°C | 0.6% | -1.0hPa | 2.5V | 00:00:00 | 00:00:00 | 00:00:00 | |
| DM0DOS-11 | 2026-09-03 00:39:39 | 50.68067 | 1.72796 | 287° | 9km/h | 24646m | 5.5m/s | -50.9°C | 3.3% | 0hPa | 2.5V | 08:30:00 | 01:49:17 | 00:00:00 | |
| BIOWL1-15 | 2026-09-03 00:39:36 | 50.68067 | 1.72796 | 287° | 9km/h | 24646m | 5.5m/s | -50.9°C | 0% | 0hPa | 2.5V | 18:12:15 | 01:49:17 | 00:00:00 | |
| WEDDY | 2026-09-03 00:39:34 | 50.68067 | 1.72801 | 275° | 11km/h | 24640m | 6.7m/s | -50.9°C | 0.7% | 0hPa | 2.5V | 00:00:00 | 00:00:00 | 00:00:00 | |
| DO9LL-15 | 2026-09-03 00:39:33 | 50.68067 | 1.72809 | 264° | 13km/h | 24628m | 6.0m/s | 0°C | 0% | 0hPa | 2.5V | 00:00:00 | 01:49:14 | 00:00:00 | |
| DM0DOS-11 | 2026-09-03 00:39:27 | 50.68079 | 1.72806 | 194° | 11km/h | 24588m | 6.1m/s | -51.1°C | 3.3% | 0hPa | 2.5V | 08:30:00 | 01:49:07 | 00:00:00 | |
| DM0DOS-11 | 2026-09-03 00:39:22 | 50.68108 | 1.72834 | 181° | 18km/h | 24528m | 6.1m/s | -51.4°C | 3.4% | 0hPa | 2.5V | 08:30:00 | 01:48:57 | 00:00:00 | |
| WEDDY | 2026-09-03 00:39:13 | 50.68118 | 1.72833 | 174° | 18km/h | 24518m | 6.0m/s | -51.4°C | 0.8% | 0hPa | 2.6V | 00:00:00 | 00:00:00 | 00:00:00 | |
| DO1YAY-16 | 2026-09-03 00:39:12 | 50.68126 | 1.72832 | 174° | 15km/h | 24505m | 5.3m/s | -51.3°C | 0.7% | -1.0hPa | 2.6V | 00:00:00 | 00:00:00 | 00:00:00 | |
| AU51GT2 | 2026-09-03 00:39:06 | 50.68151 | 1.72842 | 193° | 9km/h | 24471m | 5.9m/s | -51.3°C | 0.7% | -1.0hPa | 2.6V | 00:00:00 | 00:00:00 | 00:00:00 | |
| DB0UT-7 | 2026-09-03 00:39:05 | 50.68153 | 1.72842 | 167° | 18km/h | 24465m | 5.2m/s | -51.3°C | 3.4% | 0hPa | 2.6V | 00:00:00 | 00:00:00 | 00:00:00 | |
| DO9LL-15 | 2026-09-03 00:39:03 | 50.68157 | 1.72840 | 161° | 18km/h | 24454m | 6.3m/s | 0°C | 0% | 0hPa | 2.5V | 00:00:00 | 01:48:44 | 00:00:00 | |
| DJ2DS-15 | 2026-09-03 00:39:01 | 50.68166 | 1.72836 | 164° | 20km/h | 24442m | 5.3m/s | -51.2°C | 0.7% | -1.0hPa | 2.5V | 00:00:00 | 00:00:00 | 00:00:00 | |
| DM0DOS-11 | 2026-09-03 00:38:58 | 50.68190 | 1.72821 | 161° | 20km/h | 24412m | 4.7m/s | -51.2°C | 3.4% | 0hPa | 2.5V | 08:30:00 | 01:48:37 | 00:00:00 | |
| BIOWL1-15 | 2026-09-03 00:38:57 | 50.68208 | 1.72795 | 131° | 22km/h | 24383m | 7m/s | -51.3°C | 0% | 0hPa | 2.5V | 18:12:15 | 01:48:32 | 00:00:00 | |
| DM0DOS-11 | 2026-09-03 00:38:52 | 50.68229 | 1.72756 | 126° | 26km/h | 24354m | 5.3m/s | -51.2°C | 3.4% | 0hPa | 2.5V | 08:30:00 | 01:48:27 | 00:00:00 | |
| BIOWL1-15 | 2026-09-03 00:38:40 | 50.68251 | 1.72720 | 113° | 16km/h | 24308m | 5.9m/s | -51.2°C | 0% | 0hPa | 2.5V | 18:12:15 | 01:48:19 | 00:00:00 | |
| DM0DOS-11 | 2026-09-03 00:38:40 | 50.68254 | 1.72707 | 116° | 20km/h | 24298m | 4.7m/s | -51.2°C | 3.3% | 0hPa | 2.5V | 08:30:00 | 01:48:17 | 00:00:00 | |
| BIOWL1-15 | 2026-09-03 00:38:29 | 50.68277 | 1.72632 | 94° | 20km/h | 24234m | 6.2m/s | -51.8°C | 0% | 0hPa | 2.6V | 18:12:15 | 01:48:06 | 00:00:00 | |
| DM0DOS-11 | 2026-09-03 00:38:28 | 50.68276 | 1.72639 | 97° | 16km/h | 24240m | 5.8m/s | -51.8°C | 3.4% | 0hPa | 2.5V | 08:30:00 | 01:48:07 | 00:00:00 | |
| DM0DOS-11 | 2026-09-03 00:38:22 | 50.68275 | 1.72571 | 95° | 7km/h | 24181m | 5.4m/s | -51.9°C | 3.5% | 0hPa | 2.5V | 08:30:00 | 01:47:57 | 00:00:00 | |
| BIOWL1-15 | 2026-09-03 00:38:14 | 50.68271 | 1.72564 | 39° | 11km/h | 24164m | 4.1m/s | -51.8°C | 0% | 0hPa | 2.5V | 18:12:15 | 01:47:54 | 00:00:00 | |
| WEDDY | 2026-09-03 00:38:12 | 50.68271 | 1.72564 | 40° | 11km/h | 24165m | 4.1m/s | 0°C | 0% | 0hPa | 2.5V | 00:00:00 | 00:00:00 | 00:00:00 | |
| DM0DOS-11 | 2026-09-03 00:38:10 | 50.68266 | 1.72529 | 93° | 11km/h | 24125m | 5.5m/s | -51.9°C | 3.5% | 0hPa | 2.5V | 08:30:00 | 01:47:47 | 00:00:00 | |
| AU51GT2 | 2026-09-03 00:38:04 | 50.68267 | 1.72521 | 97° | 9km/h | 24113m | 5.1m/s | -51.9°C | 0.7% | -1.0hPa | 2.5V | 00:00:00 | 00:00:00 | 00:00:00 | |
| DM0DOS-11 | 2026-09-03 00:37:58 | 50.68263 | 1.72502 | 111° | 4km/h | 24065m | 5m/s | -52.1°C | 3.6% | 0hPa | 2.5V | 08:30:00 | 01:47:37 | 00:00:00 | |
| DM0DOS-11 | 2026-09-03 00:37:51 | 50.68281 | 1.72508 | 239° | 7km/h | 24010m | 5.4m/s | -52.1°C | 3.6% | 0hPa | 2.5V | 08:30:00 | 01:47:27 | 00:00:00 | |
| DM0DOS-11 | 2026-09-03 00:37:40 | 50.68300 | 1.72513 | 176° | 15km/h | 23953m | 5.2m/s | -52°C | 3.5% | 0hPa | 2.5V | 08:30:00 | 01:47:17 | 00:00:00 | |
| DO1YAY-16 | 2026-09-03 00:37:39 | 50.68288 | 1.72517 | 167° | 16km/h | 23971m | 5.5m/s | -52.0°C | 0.7% | -1.0hPa | 2.5V | 00:00:00 | 00:00:00 | 00:00:00 | |
| AU51GT2 | 2026-09-03 00:37:33 | 50.68312 | 1.72516 | 208° | 15km/h | 23936m | 4.8m/s | -52.1°C | 0.7% | -1.0hPa | 2.5V | 00:00:00 | 00:00:00 | 00:00:00 | |
| WEDDY | 2026-09-03 00:37:30 | 50.68317 | 1.72525 | 254° | 16km/h | 23924m | 5.2m/s | 0°C | 0% | 0hPa | 2.5V | 00:00:00 | 00:00:00 | 00:00:00 | |
| DM0DOS-11 | 2026-09-03 00:37:27 | 50.68328 | 1.72550 | 202° | 13km/h | 23897m | 6m/s | -51.9°C | 3.5% | 0hPa | 2.5V | 08:30:00 | 01:47:07 | 00:00:00 | |
| DB0UT-7 | 2026-09-03 00:37:24 | 50.68335 | 1.72551 | 171° | 22km/h | 23887m | 4.9m/s | -51.8°C | 3.5% | 0hPa | 2.6V | 00:00:00 | 00:00:00 | 00:00:00 | |
| DM0DOS-11 | 2026-09-03 00:37:21 | 50.68382 | 1.72560 | 227° | 18km/h | 23836m | 5.4m/s | -51.7°C | 3.4% | 0hPa | 2.6V | 08:30:00 | 01:46:56 | 00:00:00 | |
| DM0DOS-11 | 2026-09-03 00:37:10 | 50.68431 | 1.72557 | 168° | 26km/h | 23782m | 5.2m/s | -52°C | 3.5% | 0hPa | 2.6V | 08:30:00 | 01:46:46 | 00:00:00 | |
| BIOWL1-15 | 2026-09-03 00:37:07 | 50.68471 | 1.72556 | 171° | 18km/h | 23746m | 4.6m/s | -52°C | 0% | 0hPa | 2.5V | 18:12:15 | 01:46:39 | 00:00:00 | |
| AU51GT2 | 2026-09-03 00:37:03 | 50.68451 | 1.72556 | 184° | 26km/h | 23766m | 4.2m/s | -52.0°C | 0.7% | -1.0hPa | 2.6V | 00:00:00 | 00:00:00 | 00:00:00 | |
| BIOWL9-15 | 2026-09-03 00:37:02 | 50.68457 | 1.72557 | 183° | 22km/h | 23762m | 5.6m/s | -52.0°C | 0.7% | -1.0hPa | 2.6V | 00:00:00 | 00:00:00 | 00:00:00 | |
| DM0DOS-11 | 2026-09-03 00:37:00 | 50.68487 | 1.72552 | 171° | 22km/h | 23730m | 6.2m/s | -51.9°C | 3.4% | 0hPa | 2.6V | 08:30:00 | 01:46:36 | 00:00:00 | |
| BIOWL1-15 | 2026-09-03 00:36:55 | 50.68487 | 1.72552 | 171° | 22km/h | 23730m | 6.3m/s | -51.9°C | 0% | 0hPa | 2.6V | 18:12:15 | 01:46:36 | 00:00:00 | |
| DB0UT-7 | 2026-09-03 00:36:54 | 50.68492 | 1.72551 | 169° | 16km/h | 23725m | 5.6m/s | -51.9°C | 3.5% | 0hPa | 2.6V | 00:00:00 | 01:46:35 | 00:00:00 | |
| DM0DOS-11 | 2026-09-03 00:36:47 | 50.68546 | 1.72516 | 150° | 24km/h | 23675m | 5.3m/s | -52.5°C | 3.6% | 0hPa | 2.6V | 08:30:00 | 01:46:26 | 00:00:00 | |
| BIOWL1-15 | 2026-09-03 00:36:44 | 50.68578 | 1.72495 | 162° | 24km/h | 23638m | 4.4m/s | -52.4°C | 0.1% | 0hPa | 2.5V | 18:12:15 | 01:46:19 | 00:00:00 | |
| BIOWL1-15 | 2026-09-03 00:36:31 | 50.68609 | 1.72460 | 131° | 20km/h | 23600m | 5.1m/s | -52.2°C | 0% | 0hPa | 2.5V | 18:12:15 | 01:46:12 | 00:00:00 | |
| DM0DOS-11 | 2026-09-03 00:36:26 | 50.68623 | 1.72430 | 140° | 13km/h | 23566m | 6.3m/s | -52°C | 3.5% | 0hPa | 2.6V | 08:30:00 | 01:46:06 | 00:00:00 | |
| BIOWL1-15 | 2026-09-03 00:36:22 | 50.68640 | 1.72414 | 161° | 18km/h | 23540m | 4.1m/s | -52.1°C | 0% | 0hPa | 2.6V | 18:12:15 | 01:46:01 | 00:00:00 | |
| DM0DOS-11 | 2026-09-03 00:36:20 | 50.68653 | 1.72393 | 117° | 13km/h | 23514m | 6.2m/s | -52.2°C | 3.5% | 0hPa | 2.6V | 08:30:00 | 01:45:56 | 00:00:00 | |
| BIOWL1-15 | 2026-09-03 00:36:10 | 50.68660 | 1.72368 | 113° | 9km/h | 23476m | 5.5m/s | -52.2°C | 0.1% | 0hPa | 2.5V | 18:12:15 | 01:45:49 | 00:00:00 | |
| DM0DOS-11 | 2026-09-03 00:36:09 | 50.68663 | 1.72355 | 93° | 15km/h | 23460m | 5.5m/s | -52.4°C | 3.6% | 0hPa | 2.6V | 08:30:00 | 01:45:46 | 00:00:00 | |
| DO1YAY-16 | 2026-09-03 00:36:06 | 50.68662 | 1.72361 | 102° | 11km/h | 23466m | 5.9m/s | -52.3°C | 0.8% | -1.0hPa | 2.6V | 00:00:00 | 00:00:00 | 00:00:00 | |
| DJ2DS-15 | 2026-09-03 00:36:01 | 50.68667 | 1.72326 | 113° | 13km/h | 23435m | 4.6m/s | -52.3°C | -1.0% | -1.0hPa | 2.6V | 00:00:00 | 00:00:00 | 00:00:00 | |
| BIOWL9-15 | 2026-09-03 00:36:00 | 50.68668 | 1.72321 | 97° | 15km/h | 23430m | 6.2m/s | -52.3°C | 0.8% | -1.0hPa | 2.6V | 00:00:00 | 00:00:00 | 00:00:00 | |
| DM0DOS-11 | 2026-09-03 00:35:58 | 50.68664 | 1.72295 | 64° | 15km/h | 23408m | 5.4m/s | -52.3°C | 3.6% | 0hPa | 2.6V | 08:30:00 | 01:45:36 | 00:00:00 | |
| BIOWL1-15 | 2026-09-03 00:35:57 | 50.68667 | 1.72307 | 71° | 18km/h | 23419m | 4.6m/s | -52.3°C | 0.1% | 0hPa | 2.5V | 18:12:15 | 01:45:38 | 00:00:00 | |
| DM0DOS-11 | 2026-09-03 00:35:48 | 50.68650 | 1.72243 | 101° | 13km/h | 23356m | 4.8m/s | -51.9°C | 3.5% | 0hPa | 2.6V | 08:30:00 | 01:45:26 | 00:00:00 | |
| BIOWL1-15 | 2026-09-03 00:35:47 | 50.68650 | 1.72243 | 102° | 13km/h | 23356m | 4.8m/s | -51.9°C | 0.1% | 0hPa | 2.6V | 18:12:15 | 01:45:26 | 00:00:00 | |
| DB0UT-7 | 2026-09-03 00:35:40 | 50.68654 | 1.72226 | 107° | 13km/h | 23330m | 6.4m/s | -51.7°C | 3.5% | 0hPa | 2.6V | 00:00:00 | 00:00:00 | 00:00:00 | |
| DM0DOS-11 | 2026-09-03 00:35:38 | 50.68654 | 1.72195 | 82° | 15km/h | 23303m | 4.7m/s | -51.8°C | 3.5% | 0hPa | 2.6V | 08:30:00 | 01:45:16 | 00:00:00 | |
| BIOWL1-15 | 2026-09-03 00:35:38 | 50.68655 | 1.72201 | 79° | 15km/h | 23308m | 5.1m/s | -51.8°C | 0% | 0hPa | 2.5V | 18:12:15 | 01:45:17 | 00:00:00 | |
| DO1YAY-16 | 2026-09-03 00:35:35 | 50.68654 | 1.72190 | 95° | 13km/h | 23298m | 6.1m/s | -51.8°C | 0.7% | -1.0hPa | 2.6V | 00:00:00 | 00:00:00 | 00:00:00 | |
| BIOWL9-15 | 2026-09-03 00:35:29 | 50.68666 | 1.72174 | 180° | 11km/h | 23267m | 4.7m/s | -51.9°C | 0.7% | -1.0hPa | 2.6V | 00:00:00 | 00:00:00 | 00:00:00 | |
| DM0DOS-11 | 2026-09-03 00:35:28 | 50.68676 | 1.72170 | 146° | 13km/h | 23251m | 5m/s | -52°C | 3.5% | 0hPa | 2.6V | 08:30:00 | 01:45:06 | 00:00:00 | |
| BIOWL1-15 | 2026-09-03 00:35:27 | 50.68675 | 1.72170 | 146° | 13km/h | 23251m | 5m/s | -52°C | 0% | 0hPa | 2.6V | 18:12:15 | 01:45:06 | 00:00:00 | |
| DJ2DS-15 | 2026-09-03 00:35:25 | 50.68678 | 1.72167 | 133° | 11km/h | 23246m | 5.7m/s | 0°C | -1.0% | -1.0hPa | 2.6V | 00:00:00 | 00:00:00 | 00:00:00 | |
| DM0DOS-11 | 2026-09-03 00:35:16 | 50.68687 | 1.72131 | 191° | 11km/h | 23201m | 5.3m/s | -52.3°C | 3.5% | 0hPa | 2.6V | 08:30:00 | 01:44:56 | 00:00:00 | |
| BIOWL1-15 | 2026-09-03 00:35:14 | 50.68699 | 1.72129 | 162° | 18km/h | 23185m | 5.1m/s | -52.5°C | 0.1% | 0hPa | 2.5V | 18:12:15 | 01:44:53 | 00:00:00 | |
| BIOWL1-15 | 2026-09-03 00:35:01 | 50.68741 | 1.72078 | 146° | 16km/h | 23125m | 4.7m/s | -52.5°C | 0.1% | 0hPa | 2.5V | 18:12:15 | 01:44:42 | 00:00:00 | |
| DM0DOS-11 | 2026-09-03 00:35:00 | 50.68760 | 1.72051 | 127° | 15km/h | 23086m | 6.1m/s | -52.8°C | 3.6% | 0hPa | 2.6V | 08:30:00 | 01:44:35 | 00:00:00 | |
| BIOWL1-15 | 2026-09-03 00:34:51 | 50.68773 | 1.72029 | 140° | 18km/h | 23066m | 3.7m/s | -52.9°C | 0.1% | 0hPa | 2.6V | 18:12:15 | 01:44:31 | 00:00:00 | |
| DM0DOS-11 | 2026-09-03 00:34:49 | 50.68780 | 1.72015 | 84° | 9km/h | 23039m | 5.7m/s | -53°C | 3.7% | 0hPa | 2.6V | 08:30:00 | 01:44:26 | 00:00:00 | |
| DM0DOS-11 | 2026-09-03 00:34:39 | 50.68792 | 1.71969 | 182° | 9km/h | 22982m | 5.9m/s | -53.2°C | 3.7% | 0hPa | 2.6V | 08:30:00 | 01:44:16 | 00:00:00 | |
| BIOWL1-15 | 2026-09-03 00:34:39 | 50.68783 | 1.71982 | 109° | 15km/h | 23006m | 5.4m/s | -53.2°C | 0.2% | 0hPa | 2.6V | 18:12:15 | 01:44:20 | 00:00:00 | |
| BIOWL1-15 | 2026-09-03 00:34:29 | 50.68823 | 1.71913 | 139° | 18km/h | 22893m | 5.5m/s | -53.3°C | 0.2% | 0hPa | 2.6V | 18:12:15 | 01:44:00 | 00:00:00 | |
| DM0DOS-11 | 2026-09-03 00:34:28 | 50.68810 | 1.71941 | 110° | 20km/h | 22927m | 4.6m/s | -53.2°C | 3.8% | 0hPa | 2.6V | 08:30:00 | 01:44:06 | 00:00:00 | |
| BIOWL9-15 | 2026-09-03 00:34:27 | 50.68808 | 1.71948 | 106° | 16km/h | 22933m | 6.4m/s | -53.2°C | 0.8% | -1.0hPa | 2.6V | 00:00:00 | 00:00:00 | 00:00:00 | |
| DM0DOS-11 | 2026-09-03 00:34:20 | 50.68837 | 1.71895 | 136° | 18km/h | 22871m | 4.9m/s | -53.3°C | 3.8% | 0hPa | 2.6V | 08:30:00 | 01:43:56 | 00:00:00 | |
| BIOWL1-15 | 2026-09-03 00:34:13 | 50.68844 | 1.71882 | 119° | 24km/h | 22859m | 5.6m/s | -53.3°C | 0.2% | 0hPa | 2.5V | 18:12:15 | 01:43:54 | 00:00:00 | |
| DM0DOS-11 | 2026-09-03 00:34:10 | 50.68862 | 1.71817 | 123° | 20km/h | 22814m | 6.6m/s | -53.3°C | 3.8% | 0hPa | 2.6V | 08:30:00 | 01:43:46 | 00:00:00 | |
| BIOWL1-15 | 2026-09-03 00:34:03 | 50.68870 | 1.71799 | 127° | 20km/h | 22798m | 5.9m/s | -53.3°C | 0.2% | 0hPa | 2.5V | 18:12:15 | 01:43:43 | 00:00:00 | |
| DO1YAY-16 | 2026-09-03 00:34:01 | 50.68873 | 1.71791 | 120° | 22km/h | 22792m | 6.3m/s | -53.3°C | 0.8% | -1.0hPa | 2.6V | 00:00:00 | 00:00:00 | 00:00:00 | |
| DM0DOS-11 | 2026-09-03 00:34:00 | 50.68882 | 1.71742 | 99° | 20km/h | 22759m | 6.3m/s | -53.1°C | 3.8% | 0hPa | 2.6V | 08:30:00 | 01:43:36 | 00:00:00 | |
| BIOWL9-15 | 2026-09-03 00:33:56 | 50.68883 | 1.71734 | 95° | 20km/h | 22754m | 5.0m/s | -53.1°C | 0.8% | -1.0hPa | 2.6V | 00:00:00 | 00:00:00 | 00:00:00 | |
| DM0DOS-11 | 2026-09-03 00:33:50 | 50.68879 | 1.71674 | 92° | 11km/h | 22703m | 4.9m/s | -52.9°C | 3.7% | 0hPa | 2.6V | 08:30:00 | 01:43:26 | 00:00:00 | |
| BIOWL1-15 | 2026-09-03 00:33:49 | 50.68880 | 1.71691 | 80° | 18km/h | 22720m | 5.2m/s | -52.9°C | 0.2% | 0hPa | 2.5V | 18:12:15 | 01:43:29 | 00:00:00 | |
| BIOWL1-15 | 2026-09-03 00:33:44 | 50.68879 | 1.71629 | 85° | 20km/h | 22663m | 5m/s | -52.8°C | 0.2% | 0hPa | 2.5V | 18:12:15 | 01:43:19 | 00:00:00 | |
| DM0DOS-11 | 2026-09-03 00:33:38 | 50.68877 | 1.71610 | 79° | 11km/h | 22646m | 5.7m/s | -52.7°C | 3.7% | 0hPa | 2.6V | 08:30:00 | 01:43:16 | 00:00:00 | |
| DM0DOS-11 | 2026-09-03 00:33:31 | 50.68865 | 1.71559 | 41° | 15km/h | 22586m | 5.8m/s | -52.7°C | 3.7% | 0hPa | 2.6V | 08:30:00 | 01:43:05 | 00:00:00 | |
| BIOWL1-15 | 2026-09-03 00:33:28 | 50.68873 | 1.71575 | 51° | 11km/h | 22608m | 5.3m/s | -52.8°C | 0.2% | 0hPa | 2.5V | 18:12:15 | 01:43:09 | 00:00:00 | |
| DB0UT-7 | 2026-09-03 00:33:27 | 50.68871 | 1.71572 | 50° | 13km/h | 22603m | 5.6m/s | -52.7°C | 3.7% | 0hPa | 2.6V | 00:00:00 | 01:43:08 | 00:00:00 | |
| BIOWL9-15 | 2026-09-03 00:33:25 | 50.68865 | 1.71559 | 41° | 13km/h | 22586m | 5.8m/s | -52.7°C | 0.8% | -1.0hPa | 2.6V | 00:00:00 | 00:00:00 | 00:00:00 | |
| DM0DOS-11 | 2026-09-03 00:33:19 | 50.68853 | 1.71537 | 61° | 5km/h | 22535m | 5m/s | -52.3°C | 3.7% | 0hPa | 2.6V | 08:30:00 | 01:42:56 | 00:00:00 | |
| BIOWL1-15 | 2026-09-03 00:33:19 | 50.68854 | 1.71540 | 73° | 4km/h | 22546m | 5.9m/s | -52.4°C | 0.2% | 0hPa | 2.5V | 18:12:15 | 01:42:58 | 00:00:00 | |
| DM0DOS-11 | 2026-09-03 00:33:09 | 50.68856 | 1.71515 | 242° | 2km/h | 22479m | 6.1m/s | -52°C | 3.6% | 0hPa | 2.6V | 08:30:00 | 01:42:46 | 00:00:00 | |
| BIOWL1-15 | 2026-09-03 00:33:06 | 50.68855 | 1.71515 | 151° | 2km/h | 22486m | 6.4m/s | -52°C | 0.1% | 0hPa | 2.5V | 18:12:15 | 01:42:47 | 00:00:00 | |
| DM0DOS-11 | 2026-09-03 00:32:59 | 50.68852 | 1.71511 | 124° | 5km/h | 22425m | 4.3m/s | -51.9°C | 3.6% | 0hPa | 2.6V | 08:30:00 | 01:42:36 | 00:00:00 | |
| BIOWL1-15 | 2026-09-03 00:32:56 | 50.68852 | 1.71511 | 124° | 5km/h | 22425m | 4.3m/s | -51.9°C | 0.1% | 0hPa | 2.6V | 18:12:15 | 01:42:36 | 00:00:00 | |
| BIOWL9-15 | 2026-09-03 00:32:54 | 50.68855 | 1.71510 | 201° | 9km/h | 22414m | 5.9m/s | -51.9°C | 0.7% | -1.0hPa | 2.6V | 00:00:00 | 00:00:00 | 00:00:00 | |
| DM0DOS-11 | 2026-09-03 00:32:50 | 50.68868 | 1.71521 | 125° | 9km/h | 22370m | 5.7m/s | -51.8°C | 3.5% | 0hPa | 2.6V | 08:30:00 | 01:42:26 | 00:00:00 | |
| BIOWL1-15 | 2026-09-03 00:32:45 | 50.68868 | 1.71521 | 125° | 9km/h | 22371m | 5.7m/s | -51.8°C | 0.1% | 0hPa | 2.6V | 18:12:15 | 01:42:26 | 00:00:00 | |
| DM0DOS-11 | 2026-09-03 00:32:39 | 50.68880 | 1.71523 | 140° | 5km/h | 22321m | 5.4m/s | -51.9°C | 3.5% | 0hPa | 2.6V | 08:30:00 | 01:42:16 | 00:00:00 | |
| BIOWL1-15 | 2026-09-03 00:32:34 | 50.68885 | 1.71509 | 98° | 11km/h | 22300m | 6.1m/s | -51.9°C | 0.1% | 0hPa | 2.5V | 18:12:15 | 01:42:12 | 00:00:00 | |
| DM0DOS-11 | 2026-09-03 00:32:29 | 50.68884 | 1.71493 | 114° | 5km/h | 22268m | 6.2m/s | -52.2°C | 3.5% | 0hPa | 2.6V | 08:30:00 | 01:42:06 | 00:00:00 | |
| BIOWL1-15 | 2026-09-03 00:32:22 | 50.68888 | 1.71482 | 119° | 15km/h | 22252m | 6.4m/s | -52.2°C | 0.1% | 0hPa | 2.5V | 18:12:15 | 01:42:03 | 00:00:00 | |
| BIOWL1-15 | 2026-09-03 00:32:13 | 50.68890 | 1.71395 | 82° | 20km/h | 22195m | 4.4m/s | -52.2°C | 0.1% | 0hPa | 2.5V | 18:12:15 | 01:41:52 | 00:00:00 | |
| DM0DOS-11 | 2026-09-03 00:32:10 | 50.68895 | 1.71352 | 86° | 13km/h | 22164m | 5.4m/s | -52.3°C | 3.5% | 0hPa | 2.6V | 08:30:00 | 01:41:46 | 00:00:00 | |
| BIOWL1-15 | 2026-09-03 00:32:00 | 50.68895 | 1.71329 | 85° | 15km/h | 22138m | 6m/s | -52.5°C | 0.2% | 0hPa | 2.6V | 18:12:15 | 01:41:41 | 00:00:00 | |
| DM0DOS-11 | 2026-09-03 00:31:59 | 50.68895 | 1.71276 | 91° | 20km/h | 22106m | 5.4m/s | -52.4°C | 3.6% | 0hPa | 2.6V | 08:30:00 | 01:41:35 | 00:00:00 | |
| BIOWL1-15 | 2026-09-03 00:31:49 | 50.68894 | 1.71242 | 69° | 16km/h | 22081m | 6m/s | -52.4°C | 0.1% | 0hPa | 2.6V | 18:12:15 | 01:41:30 | 00:00:00 | |
| DM0DOS-11 | 2026-09-03 00:31:48 | 50.68885 | 1.71216 | 71° | 20km/h | 22059m | 5.2m/s | -52.5°C | 3.6% | 0hPa | 2.6V | 08:30:00 | 01:41:26 | 00:00:00 | |
| BIOWL1-15 | 2026-09-03 00:31:38 | 50.68884 | 1.71154 | 94° | 15km/h | 22013m | 5.5m/s | -52.6°C | 0.1% | 0hPa | 2.5V | 18:12:15 | 01:41:17 | 00:00:00 | |
| DM0DOS-11 | 2026-09-03 00:31:36 | 50.68884 | 1.71148 | 83° | 13km/h | 22008m | 3.9m/s | -52.6°C | 3.6% | 0hPa | 2.6V | 08:30:00 | 01:41:16 | 00:00:00 | |
| DM0DOS-11 | 2026-09-03 00:31:31 | 50.68881 | 1.71088 | 76° | 20km/h | 21951m | 4.5m/s | -52.7°C | 3.7% | 0hPa | 2.6V | 08:30:00 | 01:41:05 | 00:00:00 | |
| BIOWL1-15 | 2026-09-03 00:31:25 | 50.68881 | 1.71044 | 85° | 18km/h | 21921m | 3.8m/s | -52.7°C | 0.2% | 0hPa | 2.5V | 18:12:15 | 01:40:59 | 00:00:00 | |
| BIOWL1-15 | 2026-09-03 00:31:19 | 50.68881 | 1.71023 | 107° | 18km/h | 21905m | 5m/s | -52.7°C | 0.1% | 0hPa | 2.6V | 18:12:15 | 01:40:56 | 00:00:00 | |
| DM0DOS-11 | 2026-09-03 00:31:18 | 50.68881 | 1.71023 | 106° | 18km/h | 21905m | 5m/s | -52.6°C | 3.6% | 0hPa | 2.6V | 08:30:00 | 01:40:56 | 00:00:00 | |
| DM0DOS-11 | 2026-09-03 00:31:06 | 50.68892 | 1.70961 | 148° | 13km/h | 21851m | 4.9m/s | -52.8°C | 3.6% | 0hPa | 2.7V | 08:30:00 | 01:40:46 | 00:00:00 | |
| BIOWL1-15 | 2026-09-03 00:31:04 | 50.68895 | 1.70958 | 158° | 15km/h | 21847m | 4.5m/s | -52.8°C | 0.1% | 0hPa | 2.6V | 18:12:15 | 01:40:45 | 00:00:00 | |
| DM0DOS-11 | 2026-09-03 00:31:00 | 50.68929 | 1.70924 | 124° | 22km/h | 21799m | 5.5m/s | -52.8°C | 3.7% | 0hPa | 2.6V | 08:30:00 | 01:40:36 | 00:00:00 | |
| BIOWL1-15 | 2026-09-03 00:30:54 | 50.68932 | 1.70917 | 121° | 20km/h | 21794m | 5.8m/s | -52.9°C | 0.2% | 0hPa | 2.6V | 18:12:15 | 01:40:35 | 00:00:00 | |
| BIOWL9-15 | 2026-09-03 00:30:49 | 50.68949 | 1.70884 | 133° | 20km/h | 21769m | 4.6m/s | -53.0°C | 0.8% | -1.0hPa | 2.6V | 00:00:00 | 00:00:00 | 00:00:00 | |
| DM0DOS-11 | 2026-09-03 00:30:48 | 50.68959 | 1.70862 | 126° | 16km/h | 21750m | 5.2m/s | -53.2°C | 3.7% | 0hPa | 2.6V | 08:30:00 | 01:40:26 | 00:00:00 | |
| BIOWL1-15 | 2026-09-03 00:30:44 | 50.68983 | 1.70785 | 113° | 29km/h | 21708m | 5.6m/s | -53.1°C | 0.2% | 0hPa | 2.5V | 18:12:15 | 01:40:18 | 00:00:00 | |
| DM0DOS-11 | 2026-09-03 00:30:36 | 50.68987 | 1.70764 | 101° | 24km/h | 21697m | 5m/s | -53.1°C | 3.7% | 0hPa | 2.6V | 08:30:00 | 01:40:16 | 00:00:00 | |
| DB0UT-7 | 2026-09-03 00:30:33 | 50.68989 | 1.70747 | 112° | 20km/h | 21687m | 6.0m/s | -53.0°C | 3.7% | 0hPa | 2.7V | 00:00:00 | 00:00:00 | 00:00:00 | |
| DM0DOS-11 | 2026-09-03 00:30:31 | 50.69001 | 1.70684 | 101° | 22km/h | 21643m | 6.1m/s | -53°C | 3.7% | 0hPa | 2.7V | 08:30:00 | 01:40:06 | 00:00:00 | |
| BIOWL1-15 | 2026-09-03 00:30:26 | 50.68998 | 1.70588 | 82° | 24km/h | 21575m | 5.7m/s | -53.1°C | 0.2% | 0hPa | 2.5V | 18:12:15 | 01:39:54 | 00:00:00 | |
| DO1YAY-16 | 2026-09-03 00:30:24 | 50.69002 | 1.70675 | 95° | 20km/h | 21637m | 5.2m/s | -53.1°C | 0.8% | -1.0hPa | 2.7V | 00:00:00 | 00:00:00 | 00:00:00 | |
| DM0DOS-11 | 2026-09-03 00:30:18 | 50.69000 | 1.70606 | 81° | 22km/h | 21587m | 6.4m/s | -53.1°C | 3.7% | 0hPa | 2.7V | 08:30:00 | 01:39:56 | 00:00:00 | |
| BIOWL1-15 | 2026-09-03 00:30:12 | 50.68997 | 1.70579 | 83° | 22km/h | 21569m | 5.8m/s | -53.1°C | 0.2% | 0hPa | 2.5V | 18:12:15 | 01:39:53 | 00:00:00 | |
| DM0DOS-11 | 2026-09-03 00:30:07 | 50.68984 | 1.70537 | 46° | 11km/h | 21531m | 5.1m/s | -52.9°C | 3.7% | 0hPa | 2.7V | 08:30:00 | 01:39:46 | 00:00:00 | |
| BIOWL1-15 | 2026-09-03 00:30:02 | 50.68975 | 1.70527 | 34° | 16km/h | 21515m | 4.5m/s | -52.9°C | 0.2% | 0hPa | 2.5V | 18:12:15 | 01:39:43 | 00:00:00 | |
| DM0DOS-11 | 2026-09-03 00:30:00 | 50.68956 | 1.70499 | 43° | 13km/h | 21478m | 5.1m/s | -52.6°C | 3.7% | 0hPa | 2.7V | 08:30:00 | 01:39:36 | 00:00:00 | |
| BIOWL1-15 | 2026-09-03 00:29:52 | 50.68952 | 1.70489 | 48° | 5km/h | 21456m | 6.6m/s | -52.5°C | 0.2% | 0hPa | 2.5V | 18:12:15 | 01:39:32 | 00:00:00 | |
| DM0DOS-11 | 2026-09-03 00:29:47 | 50.68945 | 1.70466 | 61° | 18km/h | 21423m | 6.3m/s | -52.4°C | 3.6% | 0hPa | 2.7V | 08:30:00 | 01:39:26 | 00:00:00 | |
| BIOWL1-15 | 2026-09-03 00:29:41 | 50.68940 | 1.70434 | 63° | 2km/h | 21384m | 4.5m/s | -52.5°C | 0.1% | 0hPa | 2.5V | 18:12:15 | 01:39:19 | 00:00:00 | |
| DM0DOS-11 | 2026-09-03 00:29:41 | 50.68942 | 1.70430 | 106° | 7km/h | 21368m | 4.9m/s | -52.5°C | 3.6% | 0hPa | 2.7V | 08:30:00 | 01:39:16 | 00:00:00 | |
| BIOWL1-15 | 2026-09-03 00:29:29 | 50.68941 | 1.70386 | 95° | 16km/h | 21329m | 6.4m/s | -52.3°C | 0.1% | 0hPa | 2.5V | 18:12:15 | 01:39:09 | 00:00:00 | |
| DM0DOS-11 | 2026-09-03 00:29:28 | 50.68946 | 1.70372 | 149° | 15km/h | 21311m | 5m/s | -52.3°C | 3.6% | 0hPa | 2.7V | 08:30:00 | 01:39:06 | 00:00:00 | |
| DO1YAY-16 | 2026-09-03 00:29:22 | 50.68954 | 1.70365 | 141° | 9km/h | 21296m | 4.9m/s | -52.4°C | 0.8% | -1.0hPa | 2.7V | 00:00:00 | 00:00:00 | 00:00:00 | |
| DM0DOS-11 | 2026-09-03 00:29:18 | 50.68966 | 1.70326 | 106° | 20km/h | 21260m | 4.5m/s | -52.5°C | 3.5% | 0hPa | 2.7V | 08:30:00 | 01:38:56 | 00:00:00 | |
| BIOWL1-15 | 2026-09-03 00:29:17 | 50.68965 | 1.70334 | 106° | 20km/h | 21265m | 6.1m/s | -52.5°C | 0.1% | 0hPa | 2.5V | 18:12:15 | 01:38:57 | 00:00:00 | |
| AU51GT2 | 2026-09-03 00:29:17 | 50.68965 | 1.70334 | 105° | 18km/h | 21265m | 6.1m/s | -52.5°C | 0.8% | -1.0hPa | 2.7V | 00:00:00 | 00:00:00 | 00:00:00 | |
| BIOWL9-15 | 2026-09-03 00:29:16 | 50.68965 | 1.70334 | 105° | 18km/h | 21265m | 6.1m/s | -52.5°C | 0.8% | -1.0hPa | 2.7V | 00:00:00 | 00:00:00 | 00:00:00 | |
| DM0DOS-11 | 2026-09-03 00:29:07 | 50.68996 | 1.70259 | 115° | 27km/h | 21208m | 5.4m/s | -52.7°C | 3.6% | 0hPa | 2.7V | 08:30:00 | 01:38:46 | 00:00:00 | |
| BIOWL1-15 | 2026-09-03 00:29:05 | 50.69001 | 1.70239 | 116° | 29km/h | 21198m | 4.2m/s | -52.7°C | 0.1% | 0hPa | 2.5V | 18:12:15 | 01:38:44 | 00:00:00 | |
| DM0DOS-11 | 2026-09-03 00:29:00 | 50.69040 | 1.70154 | 125° | 29km/h | 21150m | 5m/s | -53.2°C | 3.7% | 0hPa | 2.6V | 08:30:00 | 01:38:35 | 00:00:00 | |
| BIOWL1-15 | 2026-09-03 00:28:55 | 50.69035 | 1.70164 | 126° | 29km/h | 21154m | 3.7m/s | -53.1°C | 0.2% | 0hPa | 2.7V | 18:12:15 | 01:38:36 | 00:00:00 | |
| DO1YAY-16 | 2026-09-03 00:28:51 | 50.69050 | 1.70124 | 115° | 31km/h | 21134m | 5.9m/s | -53.3°C | 0.8% | -1.0hPa | 2.7V | 00:00:00 | 00:00:00 | 00:00:00 | |
| DM0DOS-11 | 2026-09-03 00:28:49 | 50.69072 | 1.70051 | 117° | 35km/h | 21102m | 5.2m/s | -53.3°C | 3.7% | 0hPa | 2.7V | 08:30:00 | 01:38:26 | 00:00:00 | |
| BIOWL9-15 | 2026-09-03 00:28:45 | 50.69072 | 1.70051 | 117° | 35km/h | 21102m | 5.3m/s | -53.3°C | 0.8% | -1.0hPa | 2.7V | 00:00:00 | 00:00:00 | 00:00:00 | |
| BIOWL1-15 | 2026-09-03 00:28:44 | 50.69076 | 1.70038 | 115° | 37km/h | 21097m | 4.1m/s | -53.3°C | 0.1% | 0hPa | 2.7V | 18:12:15 | 01:38:25 | 00:00:00 | |
| DM0DOS-11 | 2026-09-03 00:28:37 | 50.69101 | 1.69945 | 116° | 24km/h | 21050m | 5.6m/s | -53.7°C | 3.8% | 0hPa | 2.7V | 08:30:00 | 01:38:16 | 00:00:00 | |
| BIOWL1-15 | 2026-09-03 00:28:33 | 50.69106 | 1.69926 | 106° | 27km/h | 21040m | 6m/s | -53.9°C | 0.2% | 0hPa | 2.5V | 18:12:15 | 01:38:14 | 00:00:00 | |
| DM0DOS-11 | 2026-09-03 00:28:29 | 50.69114 | 1.69824 | 101° | 33km/h | 21000m | 4.5m/s | -54°C | 3.9% | 0hPa | 2.7V | 08:30:00 | 01:38:06 | 00:00:00 | |
| BIOWL1-15 | 2026-09-03 00:28:20 | 50.69156 | 1.69651 | 129° | 26km/h | 20913m | 5.3m/s | -54.5°C | 0.3% | 0hPa | 2.5V | 18:12:15 | 01:37:49 | 00:00:00 | |
| DB0UT-7 | 2026-09-03 00:28:20 | 50.69122 | 1.69776 | 107° | 24km/h | 20973m | 5.5m/s | -54.0°C | 3.8% | 0hPa | 2.7V | 00:00:00 | 01:38:01 | 00:00:00 | |
| DM0DOS-11 | 2026-09-03 00:28:18 | 50.69131 | 1.69727 | 110° | 33km/h | 20949m | 6.4m/s | -54.4°C | 3.9% | 0hPa | 2.7V | 08:30:00 | 01:37:56 | 00:00:00 | |
| BIOWL1-15 | 2026-09-03 00:28:09 | 50.69160 | 1.69644 | 132° | 26km/h | 20908m | 4.3m/s | -54.5°C | 0.3% | 0hPa | 2.5V | 18:12:15 | 01:37:48 | 00:00:00 | |
| DM0DOS-11 | 2026-09-03 00:28:08 | 50.69167 | 1.69630 | 129° | 18km/h | 20899m | 5.5m/s | -54.5°C | 4% | 0hPa | 2.7V | 08:30:00 | 01:37:46 | 00:00:00 | |
| BIOWL1-15 | 2026-09-03 00:27:58 | 50.69195 | 1.69564 | 113° | 27km/h | 20852m | 5.5m/s | -54.6°C | 0.3% | 0hPa | 2.5V | 18:12:15 | 01:37:37 | 00:00:00 | |
| DM0DOS-11 | 2026-09-03 00:27:57 | 50.69197 | 1.69553 | 110° | 29km/h | 20847m | 4.3m/s | -54.6°C | 3.9% | 0hPa | 2.7V | 08:30:00 | 01:37:36 | 00:00:00 | |
| BIOWL1-15 | 2026-09-03 00:27:48 | 50.69223 | 1.69466 | 119° | 29km/h | 20795m | 4.9m/s | -55°C | 0.4% | 0hPa | 2.7V | 18:12:15 | 01:37:26 | 00:00:00 | |
| DM0DOS-11 | 2026-09-03 00:27:47 | 50.69223 | 1.69466 | 118° | 29km/h | 20795m | 4.9m/s | -55°C | 4.1% | 0hPa | 2.7V | 08:30:00 | 01:37:26 | 00:00:00 | |
| BIOWL1-15 | 2026-09-03 00:27:36 | 50.69240 | 1.69343 | 106° | 27km/h | 20745m | 6m/s | -54.8°C | 0.3% | 0hPa | 2.7V | 18:12:15 | 01:37:16 | 00:00:00 | |
| DM0DOS-11 | 2026-09-03 00:27:31 | 50.69258 | 1.69231 | 104° | 22km/h | 20692m | 4.3m/s | -54.7°C | 4% | 0hPa | 2.6V | 08:30:00 | 01:37:05 | 00:00:00 | |
| BIOWL1-15 | 2026-09-03 00:27:26 | 50.69265 | 1.69189 | 100° | 29km/h | 20672m | 5.5m/s | -54.7°C | 0.3% | 0hPa | 2.7V | 18:12:15 | 01:37:01 | 00:00:00 | |
| DM0DOS-11 | 2026-09-03 00:27:18 | 50.69272 | 1.69142 | 116° | 22km/h | 20646m | 4.1m/s | -54.8°C | 3.9% | 0hPa | 2.7V | 08:30:00 | 01:36:56 | 00:00:00 | |
| BIOWL1-15 | 2026-09-03 00:27:15 | 50.69274 | 1.69135 | 118° | 18km/h | 20641m | 5.7m/s | -54.8°C | 0.2% | 0hPa | 2.7V | 18:12:15 | 01:36:55 | 00:00:00 | |
| BIOWL9-15 | 2026-09-03 00:27:12 | 50.69281 | 1.69116 | 119° | 20km/h | 20626m | 5.9m/s | -54.8°C | 0.9% | -1.0hPa | 2.7V | 00:00:00 | 00:00:00 | 00:00:00 | |
| DB0UT-7 | 2026-09-03 00:27:11 | 50.69281 | 1.69116 | 120° | 31km/h | 20626m | 5.8m/s | -54.8°C | 3.9% | 0hPa | 2.7V | 00:00:00 | 00:00:00 | 00:00:00 | |
| DM0DOS-11 | 2026-09-03 00:27:07 | 50.69300 | 1.69065 | 124° | 26km/h | 20597m | 5.6m/s | -55.2°C | 4% | 0hPa | 2.7V | 08:30:00 | 01:36:46 | 00:00:00 | |
| BIOWL1-15 | 2026-09-03 00:27:05 | 50.69308 | 1.69047 | 124° | 31km/h | 20587m | 5m/s | -55.5°C | 0.4% | 0hPa | 2.5V | 18:12:15 | 01:36:44 | 00:00:00 | |
| DM0DOS-11 | 2026-09-03 00:26:58 | 50.69341 | 1.68967 | 127° | 37km/h | 20549m | 5.7m/s | -55.7°C | 4.3% | 0hPa | 2.7V | 08:30:00 | 01:36:36 | 00:00:00 | |
| BIOWL1-15 | 2026-09-03 00:26:55 | 50.69351 | 1.68945 | 127° | 37km/h | 20539m | 5.4m/s | -55.6°C | 0.4% | 0hPa | 2.5V | 18:12:15 | 01:36:34 | 00:00:00 | |
| DM0DOS-11 | 2026-09-03 00:26:48 | 50.69388 | 1.68847 | 121° | 37km/h | 20497m | 4.5m/s | -55.3°C | 4.2% | 0hPa | 2.7V | 08:30:00 | 01:36:26 | 00:00:00 | |
| DO1YAY-16 | 2026-09-03 00:26:47 | 50.69383 | 1.68859 | 119° | 33km/h | 20503m | 6.2m/s | -55.4°C | 1.0% | -1.0hPa | 2.7V | 00:00:00 | 00:00:00 | 00:00:00 | |
| BIOWL1-15 | 2026-09-03 00:26:44 | 50.69392 | 1.68834 | 122° | 37km/h | 20493m | 4m/s | -55.3°C | 0.4% | 0hPa | 2.7V | 18:12:15 | 01:36:25 | 00:00:00 | |
| BIOWL9-15 | 2026-09-03 00:26:41 | 50.69407 | 1.68789 | 114° | 31km/h | 20473m | 5.9m/s | -55.2°C | 1.0% | -1.0hPa | 2.7V | 00:00:00 | 00:00:00 | 00:00:00 | |
| DM0DOS-11 | 2026-09-03 00:26:36 | 50.69423 | 1.68737 | 119° | 27km/h | 20447m | 5.9m/s | -55°C | 4.1% | 0hPa | 2.7V | 08:30:00 | 01:36:16 | 00:00:00 | |
| BIOWL1-15 | 2026-09-03 00:26:34 | 50.69468 | 1.68599 | 120° | 20km/h | 20374m | 6m/s | -55.2°C | 0.4% | 0hPa | 2.6V | 18:12:15 | 01:36:02 | 00:00:00 | |
| DM0DOS-11 | 2026-09-03 00:26:28 | 50.69456 | 1.68633 | 112° | 24km/h | 20395m | 4.7m/s | -55.1°C | 4% | 0hPa | 2.7V | 08:30:00 | 01:36:06 | 00:00:00 | |
| BIOWL1-15 | 2026-09-03 00:26:26 | 50.69478 | 1.68505 | 120° | 15km/h | 20313m | 4.8m/s | -54.9°C | 0.4% | 0hPa | 2.7V | 18:12:15 | 01:35:50 | 00:00:00 | |
| DM0DOS-11 | 2026-09-03 00:26:16 | 50.69474 | 1.68548 | 79° | 20km/h | 20344m | 5.6m/s | -55°C | 4.1% | 0hPa | 2.7V | 08:30:00 | 01:35:56 | 00:00:00 | |
| BIOWL1-15 | 2026-09-03 00:26:15 | 50.69480 | 1.68500 | 123° | 15km/h | 20308m | 4.5m/s | -54.9°C | 0.4% | 0hPa | 2.5V | 18:12:15 | 01:35:49 | 00:00:00 | |
| BIOWL9-15 | 2026-09-03 00:26:10 | 50.69478 | 1.68505 | 120° | 13km/h | 20313m | 4.8m/s | -54.9°C | 1.0% | -1.0hPa | 2.7V | 00:00:00 | 00:00:00 | 00:00:00 | |
| DM0DOS-11 | 2026-09-03 00:26:08 | 50.69487 | 1.68482 | 116° | 20km/h | 20292m | 5.7m/s | -54.8°C | 4.1% | 0hPa | 2.7V | 08:30:00 | 01:35:46 | 00:00:00 | |
| BIOWL1-15 | 2026-09-03 00:25:58 | 50.69498 | 1.68400 | 107° | 15km/h | 20249m | 5.4m/s | -54.7°C | 0.3% | 0hPa | 2.6V | 18:12:15 | 01:35:37 | 00:00:00 | |
| DM0DOS-11 | 2026-09-03 00:25:57 | 50.69501 | 1.68388 | 127° | 18km/h | 20238m | 5.3m/s | -54.6°C | 4% | 0hPa | 2.7V | 08:30:00 | 01:35:35 | 00:00:00 | |
| DM0DOS-11 | 2026-09-03 00:25:47 | 50.69529 | 1.68302 | 116° | 22km/h | 20174m | 5.3m/s | -54.5°C | 3.8% | 0hPa | 2.6V | 08:30:00 | 01:35:23 | 00:00:00 | |
| BIOWL1-15 | 2026-09-03 00:25:42 | 50.69529 | 1.68302 | 116° | 22km/h | 20174m | 5.3m/s | -54.5°C | 0.2% | 0hPa | 2.6V | 18:12:15 | 01:35:23 | 00:00:00 | |
| BIOWL1-15 | 2026-09-03 00:25:34 | 50.69562 | 1.68213 | 115° | 33km/h | 20123m | 5.5m/s | -54.8°C | 0.3% | 0hPa | 2.5V | 18:12:15 | 01:35:13 | 00:00:00 | |
| BIOWL1-15 | 2026-09-03 00:25:24 | 50.69627 | 1.67971 | 102° | 46km/h | 20034m | 5.7m/s | -55.3°C | 0.4% | 0hPa | 2.7V | 18:12:15 | 01:34:56 | 00:00:00 | |
| DM0DOS-11 | 2026-09-03 00:25:18 | 50.69631 | 1.67935 | 100° | 46km/h | 20024m | 5.2m/s | -55.3°C | 4.1% | 0hPa | 2.5V | 08:30:00 | 01:34:54 | 00:00:00 | |
| BIOWL1-15 | 2026-09-03 00:25:07 | 50.69647 | 1.67728 | 94° | 42km/h | 19960m | 5.3m/s | -55.2°C | 0.4% | 0hPa | 2.6V | 18:12:15 | 01:34:42 | 00:00:00 | |
| DM0DOS-11 | 2026-09-03 00:25:06 | 50.69646 | 1.67728 | 93° | 42km/h | 19960m | 5.2m/s | -55.2°C | 4.2% | 0hPa | 2.6V | 08:30:00 | 01:34:42 | 00:00:00 | |
| BIOWL1-15 | 2026-09-03 00:24:58 | 50.69642 | 1.67602 | 81° | 49km/h | 19921m | 4.9m/s | -55°C | 0.5% | 0hPa | 2.7V | 18:12:15 | 01:34:35 | 00:00:00 | |
| DB0UT-7 | 2026-09-03 00:24:55 | 50.69643 | 1.67621 | 83° | 31km/h | 19927m | 6.1m/s | -55.0°C | 4.2% | 0hPa | 2.6V | 00:00:00 | 01:34:36 | 00:00:00 | |
| DM0DOS-11 | 2026-09-03 00:24:46 | 50.69622 | 1.67397 | 78° | 38km/h | 19859m | 5m/s | -54.8°C | 4.1% | 0hPa | 2.6V | 08:30:00 | 01:34:23 | 00:00:00 | |
| BIOWL1-15 | 2026-09-03 00:24:46 | 50.69620 | 1.67382 | 79° | 38km/h | 19854m | 5.1m/s | -54.7°C | 0.4% | 0hPa | 2.6V | 18:12:15 | 01:34:22 | 00:00:00 | |
| DO1YAY-16 | 2026-09-03 00:24:43 | 50.69622 | 1.67397 | 78° | 37km/h | 19859m | 5.0m/s | -54.8°C | 1.0% | -1.0hPa | 2.6V | 00:00:00 | 00:00:00 | 00:00:00 | |
| DM0DOS-11 | 2026-09-03 00:24:38 | 50.69605 | 1.67235 | 72° | 38km/h | 19805m | 5.4m/s | -54.4°C | 4% | 0hPa | 2.6V | 08:30:00 | 01:34:13 | 00:00:00 | |
| BIOWL1-15 | 2026-09-03 00:24:32 | 50.69605 | 1.67235 | 73° | 38km/h | 19805m | 5.4m/s | -54.4°C | 0.3% | 0hPa | 2.6V | 18:12:15 | 01:34:13 | 00:00:00 | |
| DM0DOS-11 | 2026-09-03 00:24:26 | 50.69582 | 1.67094 | 87° | 35km/h | 19753m | 4.5m/s | -54.2°C | 3.9% | 0hPa | 2.6V | 08:30:00 | 01:34:03 | 00:00:00 | |
| BIOWL1-15 | 2026-09-03 00:24:23 | 50.69581 | 1.67068 | 86° | 31km/h | 19742m | 4.7m/s | -54.4°C | 0.3% | 0hPa | 2.7V | 18:12:15 | 01:34:01 | 00:00:00 | |
| BIOWL1-15 | 2026-09-03 00:24:09 | 50.69557 | 1.66878 | 95° | 24km/h | 19665m | 6.3m/s | -54.6°C | 0.4% | 0hPa | 2.7V | 18:12:15 | 01:33:46 | 00:00:00 | |
| BIOWL1-15 | 2026-09-03 00:23:59 | 50.69546 | 1.66810 | 74° | 22km/h | 19625m | 5.1m/s | -54.6°C | 0.4% | 0hPa | 2.6V | 18:12:15 | 01:33:38 | 00:00:00 | |
| BIOWL1-15 | 2026-09-03 00:23:48 | 50.69559 | 1.66717 | 89° | 24km/h | 19579m | 4.3m/s | 0°C | 0% | 0hPa | 2.6V | 18:12:15 | 01:33:29 | 00:00:00 | |
| BIOWL1-15 | 2026-09-03 00:23:35 | 50.69565 | 1.66538 | 94° | 31km/h | 19502m | 4.5m/s | 0°C | 0% | 0hPa | 2.6V | 18:12:15 | 01:33:13 | 00:00:00 | |
| BIOWL9-15 | 2026-09-03 00:23:35 | 50.69563 | 1.66563 | 100° | 29km/h | 19513m | 5.3m/s | -55.0°C | 1.0% | -1.0hPa | 2.7V | 00:00:00 | 00:00:00 | 00:00:00 | |
| DO1YAY-16 | 2026-09-03 00:23:09 | 50.69560 | 1.66210 | 92° | 33km/h | 19390m | 4.9m/s | -55.3°C | 1.0% | -1.0hPa | 2.7V | 00:00:00 | 00:00:00 | 00:00:00 | |
| AU51GT2 | 2026-09-03 00:23:04 | 50.69555 | 1.66147 | 79° | 26km/h | 19365m | 5.3m/s | -55.3°C | 1.0% | -1.0hPa | 2.7V | 00:00:00 | 00:00:00 | 00:00:00 | |
| DO1YAY-16 | 2026-09-03 00:22:38 | 50.69523 | 1.65867 | 66° | 31km/h | 19239m | 4.5m/s | -55.2°C | 1.0% | -1.0hPa | 2.7V | 00:00:00 | 00:00:00 | 00:00:00 | |
| AU51GT2 | 2026-09-03 00:22:33 | 50.69511 | 1.65817 | 79° | 26km/h | 19214m | 5.0m/s | -55.1°C | 1.0% | -1.0hPa | 2.7V | 00:00:00 | 00:00:00 | 00:00:00 | |
| BIOWL1-15 | 2026-09-03 00:22:13 | 50.69477 | 1.65623 | 67° | 16km/h | 19096m | 5.5m/s | -54.6°C | 0.3% | 0hPa | 2.7V | 18:12:15 | 01:31:50 | 00:00:00 | |
| HTAHTA | 2026-09-03 00:22:08 | 50.69474 | 1.65610 | 72° | 18km/h | 19085m | 5.8m/s | 0°C | -1.0% | -1.0hPa | 2.7V | 00:00:00 | 00:00:00 | 00:00:00 | |
| DM0DOS-11 | 2026-09-03 00:22:07 | 50.69472 | 1.65585 | 93° | 20km/h | 19071m | 5.9m/s | -54.5°C | 4% | 0hPa | 2.7V | 08:30:00 | 01:31:45 | 00:00:00 | |
| BIOWL1-15 | 2026-09-03 00:21:58 | 50.69476 | 1.65509 | 90° | 22km/h | 19032m | 5.2m/s | -54.3°C | 0.2% | 0hPa | 2.6V | 18:12:15 | 01:31:37 | 00:00:00 | |
| DM0DOS-11 | 2026-09-03 00:21:56 | 50.69476 | 1.65491 | 89° | 24km/h | 19022m | 4.4m/s | -54.2°C | 3.8% | 0hPa | 2.7V | 08:30:00 | 01:31:35 | 00:00:00 | |
| BIOWL1-15 | 2026-09-03 00:21:47 | 50.69477 | 1.65379 | 84° | 29km/h | 18962m | 5.6m/s | -54.3°C | 0.1% | 0hPa | 2.6V | 18:12:15 | 01:31:23 | 00:00:00 | |
| BIOWL1-15 | 2026-09-03 00:21:31 | 50.69484 | 1.65253 | 100° | 33km/h | 18907m | 5.2m/s | -55.1°C | 0.3% | 0hPa | 2.6V | 18:12:15 | 01:31:12 | 00:00:00 | |
| BIOWL1-15 | 2026-09-03 00:21:20 | 50.69510 | 1.65111 | 106° | 31km/h | 18850m | 4.1m/s | -55.4°C | 0.3% | 0hPa | 2.7V | 18:12:15 | 01:31:01 | 00:00:00 | |
| BIOWL1-15 | 2026-09-03 00:21:12 | 50.69513 | 1.64983 | 86° | 35km/h | 18798m | 5.1m/s | -55.9°C | 0.4% | 0hPa | 2.7V | 18:12:15 | 01:30:51 | 00:00:00 | |
| BIOWL1-15 | 2026-09-03 00:21:00 | 50.69509 | 1.64804 | 95° | 35km/h | 18721m | 6m/s | -55.9°C | 0.5% | 0hPa | 2.7V | 18:12:15 | 01:30:36 | 00:00:00 | |
| AU51GT2 | 2026-09-03 00:21:00 | 50.69506 | 1.64859 | 101° | 29km/h | 18742m | 4.1m/s | -56.1°C | 1.1% | -1.0hPa | 2.6V | 00:00:00 | 00:00:00 | 00:00:00 | |
| BIOWL9-15 | 2026-09-03 00:20:59 | 50.69506 | 1.64859 | 101° | 29km/h | 18742m | 4.1m/s | -56.1°C | 1.1% | -1.0hPa | 2.6V | 00:00:00 | 00:00:00 | 00:00:00 | |
| BIOWL1-15 | 2026-09-03 00:20:45 | 50.69516 | 1.64662 | 95° | 26km/h | 18658m | 5.2m/s | -55.6°C | 0.5% | 0hPa | 2.6V | 18:12:15 | 01:30:24 | 00:00:00 | |
| BIOWL1-15 | 2026-09-03 00:20:33 | 50.69522 | 1.64559 | 97° | 26km/h | 18607m | 6m/s | -55.2°C | 0.4% | 0hPa | 2.6V | 18:12:15 | 01:30:14 | 00:00:00 | |
| BIOWL1-15 | 2026-09-03 00:20:22 | 50.69525 | 1.64405 | 97° | 33km/h | 18532m | 5m/s | -55°C | 0.4% | 0hPa | 2.6V | 18:12:15 | 01:29:59 | 00:00:00 | |
| BIOWL1-15 | 2026-09-03 00:20:12 | 50.69543 | 1.64187 | 106° | 20km/h | 18440m | 4.7m/s | -55°C | 0.4% | 0hPa | 2.7V | 18:12:15 | 01:29:40 | 00:00:00 | |
| BIOWL1-15 | 2026-09-03 00:20:01 | 50.69547 | 1.64170 | 107° | 22km/h | 18431m | 5.8m/s | -55°C | 0.4% | 0hPa | 2.6V | 18:12:15 | 01:29:38 | 00:00:00 | |
| BIOWL1-15 | 2026-09-03 00:19:50 | 50.69559 | 1.64086 | 96° | 42km/h | 18394m | 3.8m/s | -55°C | 0.2% | 0hPa | 2.7V | 18:12:15 | 01:29:31 | 00:00:00 | |
| BIOWL1-15 | 2026-09-03 00:19:40 | 50.69597 | 1.63909 | 118° | 40km/h | 18322m | 3.9m/s | -55.4°C | 0.3% | 0hPa | 2.6V | 18:12:15 | 01:29:17 | 00:00:00 | |
| BIOWL1-15 | 2026-09-03 00:19:32 | 50.69626 | 1.63815 | 114° | 47km/h | 18294m | 4.5m/s | -55.3°C | 0.4% | 0hPa | 2.7V | 18:12:15 | 01:29:11 | 00:00:00 | |
| BIOWL9-15 | 2026-09-03 00:19:26 | 50.69641 | 1.63745 | 108° | 46km/h | 18275m | 5.0m/s | -55.5°C | 1.1% | -1.0hPa | 2.6V | 00:00:00 | 00:00:00 | 00:00:00 | |
| DM0DOS-11 | 2026-09-03 00:19:21 | 50.69677 | 1.63574 | 106° | 46km/h | 18228m | 3.9m/s | -56.3°C | 4.4% | 0hPa | 2.6V | 08:30:00 | 01:28:57 | 00:00:00 | |
| BIOWL1-15 | 2026-09-03 00:19:19 | 50.69667 | 1.63625 | 111° | 44km/h | 18241m | 3.3m/s | -56°C | 0.5% | 0hPa | 2.7V | 18:12:15 | 01:29:00 | 00:00:00 | |
| BIOWL1-15 | 2026-09-03 00:19:11 | 50.69694 | 1.63443 | 98° | 49km/h | 18194m | 5.1m/s | -56.5°C | 0.5% | 0hPa | 2.7V | 18:12:15 | 01:28:50 | 00:00:00 | |
| DM0DOS-11 | 2026-09-03 00:19:09 | 50.69699 | 1.63364 | 99° | 49km/h | 18175m | 5m/s | -56.4°C | 4.4% | 0hPa | 2.7V | 08:30:00 | 01:28:46 | 00:00:00 | |
| BIOWL1-15 | 2026-09-03 00:18:59 | 50.69720 | 1.63244 | 106° | 40km/h | 18140m | 4.5m/s | -56.4°C | 0.5% | 0hPa | 2.6V | 18:12:15 | 01:28:39 | 00:00:00 | |
| DM0DOS-11 | 2026-09-03 00:18:56 | 50.69737 | 1.63123 | 109° | 38km/h | 18099m | 5.7m/s | -56.5°C | 4.5% | 0hPa | 2.7V | 08:30:00 | 01:28:31 | 00:00:00 | |
| BIOWL1-15 | 2026-09-03 00:18:48 | 50.69745 | 1.63095 | 117° | 38km/h | 18090m | 3.8m/s | -56.4°C | 0.6% | 0hPa | 2.6V | 18:12:15 | 01:28:29 | 00:00:00 | |
| DM0DOS-11 | 2026-09-03 00:18:44 | 50.69764 | 1.62985 | 102° | 42km/h | 18055m | 5.2m/s | -56.3°C | 4.4% | 0hPa | 2.6V | 08:30:00 | 01:28:22 | 00:00:00 | |
| BIOWL1-15 | 2026-09-03 00:18:38 | 50.69771 | 1.62939 | 109° | 44km/h | 18041m | 5.1m/s | -56.4°C | 0.6% | 0hPa | 2.6V | 18:12:15 | 01:28:19 | 00:00:00 | |
| BIOWL1-15 | 2026-09-03 00:18:27 | 50.69829 | 1.62720 | 106° | 46km/h | 17977m | 5.5m/s | -56.6°C | 0.6% | 0hPa | 2.6V | 18:12:15 | 01:28:06 | 00:00:00 | |
| DM0DOS-11 | 2026-09-03 00:18:26 | 50.69835 | 1.62685 | 104° | 46km/h | 17966m | 4.8m/s | -56.6°C | 4.4% | 0hPa | 2.7V | 08:30:00 | 01:28:04 | 00:00:00 | |
| BIOWL1-15 | 2026-09-03 00:18:14 | 50.69863 | 1.62479 | 98° | 51km/h | 17910m | 4.5m/s | -56.8°C | 0.6% | 0hPa | 2.7V | 18:12:15 | 01:27:53 | 00:00:00 | |
| DM0DOS-11 | 2026-09-03 00:18:11 | 50.69876 | 1.62365 | 100° | 42km/h | 17879m | 4.8m/s | -56.9°C | 4.6% | 0hPa | 2.6V | 08:30:00 | 01:27:47 | 00:00:00 | |
| HTAHTA | 2026-09-03 00:18:00 | 50.69886 | 1.62083 | 94° | 37km/h | 17794m | 4.4m/s | 0°C | -1.0% | -1.0hPa | 2.6V | 00:00:00 | 00:00:00 | 00:00:00 | |
| DM0DOS-11 | 2026-09-03 00:17:53 | 50.69887 | 1.62067 | 95° | 40km/h | 17788m | 5.9m/s | -56.4°C | 4.5% | 0hPa | 2.6V | 08:30:00 | 01:27:29 | 00:00:00 | |
| DM0DOS-11 | 2026-09-03 00:17:41 | 50.69902 | 1.61863 | 104° | 40km/h | 17728m | 4.5m/s | -56°C | 4.4% | 0hPa | 2.7V | 08:30:00 | 01:27:17 | 00:00:00 | |
| DM0DOS-11 | 2026-09-03 00:17:29 | 50.69923 | 1.61709 | 105° | 46km/h | 17678m | 5.4m/s | -55.9°C | 4.4% | 0hPa | 2.6V | 08:30:00 | 01:27:07 | 00:00:00 | |
| BIOWL1-15 | 2026-09-03 00:17:21 | 50.69970 | 1.61479 | 110° | 49km/h | 17614m | 5m/s | -56°C | 0.7% | 0hPa | 2.7V | 18:12:15 | 01:26:54 | 00:00:00 | |
| DM0DOS-11 | 2026-09-03 00:17:18 | 50.69957 | 1.61534 | 112° | 46km/h | 17628m | 5.6m/s | -56.1°C | 4.4% | 0hPa | 2.6V | 08:30:00 | 01:26:57 | 00:00:00 | |
| BIOWL1-15 | 2026-09-03 00:17:08 | 50.69993 | 1.61379 | 111° | 58km/h | 17589m | 5m/s | -55.9°C | 0.6% | 0hPa | 2.7V | 18:12:15 | 01:26:49 | 00:00:00 | |
| BIOWL1-15 | 2026-09-03 00:17:00 | 50.70035 | 1.61168 | 108° | 55km/h | 17538m | 4.4m/s | -56.1°C | 0.6% | 0hPa | 2.6V | 18:12:15 | 01:26:39 | 00:00:00 | |
| BIOWL1-15 | 2026-09-03 00:16:49 | 50.70079 | 1.60939 | 101° | 49km/h | 17481m | 5.1m/s | -56.2°C | 0.7% | 0hPa | 2.7V | 18:12:15 | 01:26:28 | 00:00:00 | |
| DM0DOS-11 | 2026-09-03 00:16:47 | 50.70085 | 1.60881 | 102° | 51km/h | 17467m | 4.8m/s | -56.1°C | 4.5% | 0hPa | 2.6V | 08:30:00 | 01:26:25 | 00:00:00 | |
| BIOWL1-15 | 2026-09-03 00:16:36 | 50.70105 | 1.60711 | 95° | 46km/h | 17423m | 4.5m/s | -56.1°C | 0.7% | 0hPa | 2.7V | 18:12:15 | 01:26:16 | 00:00:00 | |
| BIOWL1-15 | 2026-09-03 00:16:25 | 50.70116 | 1.60530 | 88° | 47km/h | 17377m | 5m/s | -56°C | 0.8% | 0hPa | 2.7V | 18:12:15 | 01:26:06 | 00:00:00 | |
| BIOWL1-15 | 2026-09-03 00:16:14 | 50.70112 | 1.60332 | 90° | 40km/h | 17326m | 4.2m/s | -55.8°C | 0.7% | 0hPa | 2.7V | 18:12:15 | 01:25:55 | 00:00:00 | |
| DM0DOS-11 | 2026-09-03 00:16:12 | 50.70107 | 1.60212 | 79° | 46km/h | 17293m | 5.7m/s | -55.8°C | 4.4% | 0hPa | 2.7V | 08:30:00 | 01:25:48 | 00:00:00 | |
| BIOWL1-15 | 2026-09-03 00:16:03 | 50.70101 | 1.60145 | 83° | 40km/h | 17275m | 3.3m/s | -56°C | 0.8% | 0hPa | 2.7V | 18:12:15 | 01:25:44 | 00:00:00 | |
| BIOWL1-15 | 2026-09-03 00:15:53 | 50.70109 | 1.59977 | 96° | 42km/h | 17231m | 4m/s | -55.8°C | 0.8% | 0hPa | 2.6V | 18:12:15 | 01:25:34 | 00:00:00 | |
| BIOWL9-15 | 2026-09-03 00:15:48 | 50.70108 | 1.59899 | 89° | 35km/h | 17210m | 5.4m/s | -55.9°C | 1.3% | -1.0hPa | 2.6V | 00:00:00 | 00:00:00 | 00:00:00 | |
| BIOWL1-15 | 2026-09-03 00:15:42 | 50.70120 | 1.59806 | 110° | 42km/h | 17183m | 3.7m/s | -55.9°C | 0.8% | 0hPa | 2.6V | 18:12:15 | 01:25:23 | 00:00:00 | |
| BIOWL1-15 | 2026-09-03 00:15:33 | 50.70132 | 1.59619 | 94° | 44km/h | 17137m | 4.7m/s | -56.1°C | 0.9% | 0hPa | 2.6V | 18:12:15 | 01:25:12 | 00:00:00 | |
| BIOWL1-15 | 2026-09-03 00:15:21 | 50.70155 | 1.59413 | 107° | 38km/h | 17086m | 3.3m/s | -56.2°C | 0.8% | 0hPa | 2.7V | 18:12:15 | 01:25:00 | 00:00:00 | |
| BIOWL1-15 | 2026-09-03 00:15:10 | 50.70185 | 1.59247 | 102° | 53km/h | 17047m | 5.4m/s | -56.4°C | 0.9% | 0hPa | 2.6V | 18:12:15 | 01:24:51 | 00:00:00 | |
| BIOWL1-15 | 2026-09-03 00:14:59 | 50.70207 | 1.59024 | 100° | 57km/h | 17002m | 4.7m/s | -56.5°C | 0.9% | 0hPa | 2.6V | 18:12:15 | 01:24:40 | 00:00:00 | |
| BIOWL1-15 | 2026-09-03 00:14:48 | 50.70236 | 1.58763 | 103° | 62km/h | 16957m | 3.7m/s | -56.4°C | 0.9% | 0hPa | 2.6V | 18:12:15 | 01:24:29 | 00:00:00 | |
| AU51GT2 | 2026-09-03 00:14:47 | 50.70239 | 1.58739 | 103° | 58km/h | 16953m | 4.0m/s | -56.5°C | 1.4% | -1.0hPa | 2.6V | 00:00:00 | 00:00:00 | 00:00:00 | |
| BIOWL1-15 | 2026-09-03 00:14:03 | 50.70393 | 1.57683 | 101° | 60km/h | 16762m | 4.2m/s | -56.4°C | 1% | 0hPa | 2.6V | 18:12:15 | 01:23:43 | 00:00:00 | |
| BIOWL1-15 | 2026-09-03 00:13:53 | 50.70434 | 1.57443 | 103° | 53km/h | 16714m | 5.2m/s | -57.1°C | 1.1% | 0hPa | 2.7V | 18:12:15 | 01:23:32 | 00:00:00 | |
| AU51GT2 | 2026-09-03 00:13:45 | 50.70449 | 1.57309 | 100° | 57km/h | 16688m | 3.9m/s | -57.0°C | 1.5% | -1.0hPa | 2.7V | 00:00:00 | 00:00:00 | 00:00:00 | |
| BIOWL1-15 | 2026-09-03 00:13:43 | 50.70465 | 1.57215 | 109° | 62km/h | 16670m | 5.5m/s | -56.9°C | 1.1% | 0hPa | 2.7V | 18:12:15 | 01:23:22 | 00:00:00 | |
| BIOWL1-15 | 2026-09-03 00:13:32 | 50.70533 | 1.56885 | 113° | 58km/h | 16603m | 3.8m/s | -56.7°C | 1.2% | 0hPa | 2.6V | 18:12:15 | 01:23:07 | 00:00:00 | |
| DM0DOS-11 | 2026-09-03 00:13:20 | 50.70586 | 1.56669 | 109° | 60km/h | 16559m | 4.8m/s | -56.8°C | 4.9% | 0hPa | 2.6V | 08:30:00 | 01:22:57 | 00:00:00 | |
| BIOWL1-15 | 2026-09-03 00:13:20 | 50.70567 | 1.56756 | 110° | 58km/h | 16577m | 4.4m/s | -56.8°C | 1.2% | 0hPa | 2.6V | 18:12:15 | 01:23:01 | 00:00:00 | |
| BIOWL1-15 | 2026-09-03 00:13:10 | 50.70618 | 1.56539 | 115° | 57km/h | 16531m | 4.5m/s | -56.9°C | 1.3% | 0hPa | 2.7V | 18:12:15 | 01:22:51 | 00:00:00 | |
| DM0DOS-11 | 2026-09-03 00:13:09 | 50.70642 | 1.56461 | 115° | 57km/h | 16512m | 4.4m/s | -56.8°C | 5% | 0hPa | 2.7V | 08:30:00 | 01:22:47 | 00:00:00 | |
| BIOWL1-15 | 2026-09-03 00:13:02 | 50.70679 | 1.56338 | 116° | 58km/h | 16483m | 5.6m/s | -56.6°C | 1.3% | 0hPa | 2.7V | 18:12:15 | 01:22:41 | 00:00:00 | |
| DM0DOS-11 | 2026-09-03 00:12:58 | 50.70715 | 1.56230 | 119° | 60km/h | 16458m | 5.2m/s | -56.5°C | 4.9% | 0hPa | 2.6V | 08:30:00 | 01:22:36 | 00:00:00 | |
| BIOWL1-15 | 2026-09-03 00:12:49 | 50.70779 | 1.56022 | 117° | 62km/h | 16410m | 3.8m/s | -56.6°C | 1.3% | 0hPa | 2.6V | 18:12:15 | 01:22:26 | 00:00:00 | |
| DM0DOS-11 | 2026-09-03 00:12:48 | 50.70779 | 1.56022 | 117° | 62km/h | 16410m | 3.8m/s | -56.6°C | 4.9% | 0hPa | 2.6V | 08:30:00 | 01:22:26 | 00:00:00 | |
| AU51GT2 | 2026-09-03 00:12:43 | 50.70794 | 1.55977 | 117° | 66km/h | 16400m | 5.0m/s | -56.8°C | 1.7% | -1.0hPa | 2.7V | 00:00:00 | 00:00:00 | 00:00:00 | |
| BIOWL9-15 | 2026-09-03 00:12:42 | 50.70801 | 1.55954 | 119° | 64km/h | 16395m | 4.7m/s | -56.8°C | 1.7% | -1.0hPa | 2.7V | 00:00:00 | 00:00:00 | 00:00:00 | |
| DM0DOS-11 | 2026-09-03 00:12:38 | 50.70854 | 1.55798 | 113° | 62km/h | 16361m | 4.8m/s | -56.9°C | 5% | 0hPa | 2.7V | 08:30:00 | 01:22:16 | 00:00:00 | |
| BIOWL1-15 | 2026-09-03 00:12:37 | 50.70840 | 1.55842 | 118° | 62km/h | 16371m | 5.8m/s | -56.9°C | 1.4% | 0hPa | 2.6V | 18:12:15 | 01:22:18 | 00:00:00 | |
| BIOWL1-15 | 2026-09-03 00:12:28 | 50.70919 | 1.55569 | 117° | 62km/h | 16314m | 4.9m/s | -57.3°C | 1.5% | 0hPa | 2.6V | 18:12:15 | 01:22:06 | 00:00:00 | |
| DM0DOS-11 | 2026-09-03 00:12:28 | 50.70919 | 1.55569 | 117° | 62km/h | 16314m | 4.9m/s | -57.3°C | 5.2% | 0hPa | 2.6V | 08:30:00 | 01:22:06 | 00:00:00 | |
| DM0DOS-11 | 2026-09-03 00:12:18 | 50.70982 | 1.55343 | 110° | 66km/h | 16268m | 4.9m/s | -57.2°C | 5.2% | 0hPa | 2.6V | 08:30:00 | 01:21:56 | 00:00:00 | |
| BIOWL1-15 | 2026-09-03 00:12:16 | 50.70977 | 1.55367 | 110° | 64km/h | 16273m | 4.7m/s | -57.2°C | 1.5% | 0hPa | 2.6V | 18:12:15 | 01:21:57 | 00:00:00 | |
| BIOWL1-15 | 2026-09-03 00:12:08 | 50.71065 | 1.55072 | 118° | 64km/h | 16214m | 4.3m/s | -57.2°C | 1.5% | 0hPa | 2.6V | 18:12:15 | 01:21:44 | 00:00:00 | |
| DM0DOS-11 | 2026-09-03 00:12:07 | 50.71050 | 1.55118 | 118° | 64km/h | 16223m | 5.5m/s | -57.1°C | 5.1% | 0hPa | 2.7V | 08:30:00 | 01:21:46 | 00:00:00 | |
| BIOWL1-15 | 2026-09-03 00:11:53 | 50.71161 | 1.54788 | 118° | 73km/h | 16158m | 5.2m/s | 0°C | 0% | 0hPa | 2.6V | 18:12:15 | 01:21:32 | 00:00:00 | |
| BIOWL1-15 | 2026-09-03 00:11:45 | 50.71230 | 1.54585 | 116° | 71km/h | 16123m | 5m/s | 0°C | 0% | 0hPa | 2.6V | 18:12:15 | 01:21:24 | 00:00:00 | |
| BIOWL1-15 | 2026-09-03 00:11:33 | 50.71297 | 1.54305 | 108° | 80km/h | 16079m | 5.1m/s | 0°C | 0% | 0hPa | 2.6V | 18:12:15 | 01:21:14 | 00:00:00 | |
| BIOWL1-15 | 2026-09-03 00:11:22 | 50.71382 | 1.53935 | 105° | 78km/h | 16023m | 3.4m/s | 0°C | 0% | 0hPa | 2.6V | 18:12:15 | 01:21:01 | 00:00:00 | |
| AU51GT2 | 2026-09-03 00:11:10 | 50.71439 | 1.53634 | 105° | 78km/h | 15979m | 4.8m/s | -57.4°C | 1.9% | -1.0hPa | 2.7V | 00:00:00 | 00:00:00 | 00:00:00 | |
| AU51GT2 | 2026-09-03 00:10:39 | 50.71570 | 1.52719 | 99° | 75km/h | 15854m | 4.8m/s | -58.3°C | 2.2% | -1.0hPa | 2.7V | 00:00:00 | 00:00:00 | 00:00:00 | |
| AU51GT2 | 2026-09-03 00:10:08 | 50.71693 | 1.51876 | 110° | 64km/h | 15726m | 3.1m/s | -58.0°C | 2.4% | -1.0hPa | 2.7V | 00:00:00 | 00:00:00 | 00:00:00 | |
| BIOWL1-15 | 2026-09-03 00:09:20 | 50.71980 | 1.50767 | 117° | 75km/h | 15517m | 4.6m/s | -57.9°C | 3% | 0hPa | 2.7V | 18:12:15 | 01:19:01 | 00:00:00 | |
| BIOWL1-15 | 2026-09-03 00:09:04 | 50.72138 | 1.50205 | 116° | 86km/h | 15435m | 3.6m/s | -57.7°C | 2.9% | 0hPa | 2.7V | 18:12:15 | 01:18:42 | 00:00:00 | |
| BIOWL1-15 | 2026-09-03 00:08:51 | 50.72273 | 1.49755 | 117° | 84km/h | 15368m | 4.9m/s | -57.8°C | 3% | 0hPa | 2.7V | 18:12:15 | 01:18:27 | 00:00:00 | |
| BIOWL1-15 | 2026-09-03 00:08:36 | 50.72405 | 1.49349 | 117° | 93km/h | 15310m | 3.8m/s | -57.9°C | 3.1% | 0hPa | 2.7V | 18:12:15 | 01:18:14 | 00:00:00 | |
| BIOWL1-15 | 2026-09-03 00:08:27 | 50.72489 | 1.49088 | 116° | 89km/h | 15275m | 5.5m/s | -57.8°C | 3.1% | 0hPa | 2.7V | 18:12:15 | 01:18:06 | 00:00:00 | |
| BIOWL1-15 | 2026-09-03 00:08:16 | 50.72601 | 1.48712 | 113° | 99km/h | 15224m | 5m/s | -57.9°C | 3% | 0hPa | 2.6V | 18:12:15 | 01:17:55 | 00:00:00 | |
| BIOWL1-15 | 2026-09-03 00:08:03 | 50.72696 | 1.48312 | 108° | 106km/h | 15173m | 3.7m/s | -58.1°C | 2.9% | 0hPa | 2.7V | 18:12:15 | 01:17:44 | 00:00:00 | |
| BIOWL1-15 | 2026-09-03 00:07:54 | 50.72781 | 1.47892 | 106° | 99km/h | 15122m | 3.6m/s | -57.6°C | 2.9% | 0hPa | 2.6V | 18:12:15 | 01:17:33 | 00:00:00 | |
| BIOWL1-15 | 2026-09-03 00:07:43 | 50.72884 | 1.47413 | 110° | 100km/h | 15064m | 5m/s | -57.5°C | 3% | 0hPa | 2.6V | 18:12:15 | 01:17:20 | 00:00:00 | |
| BIOWL1-15 | 2026-09-03 00:07:30 | 50.72958 | 1.47090 | 105° | 95km/h | 15021m | 5.8m/s | -57.9°C | 3.2% | 0hPa | 2.7V | 18:12:15 | 01:17:11 | 00:00:00 | |
| BIOWL1-15 | 2026-09-03 00:07:19 | 50.73033 | 1.46624 | 100° | 97km/h | 14959m | 4.9m/s | -58.3°C | 3.2% | 0hPa | 2.7V | 18:12:15 | 01:16:58 | 00:00:00 | |
| BIOWL1-15 | 2026-09-03 00:07:10 | 50.73082 | 1.46285 | 103° | 95km/h | 14917m | 5m/s | -58.2°C | 3.3% | 0hPa | 2.6V | 18:12:15 | 01:16:49 | 00:00:00 | |
| DM0DOS-11 | 2026-09-03 00:07:05 | 50.73107 | 1.46099 | 101° | 95km/h | 14894m | 5.1m/s | -58°C | 6.6% | 0hPa | 2.7V | 08:30:00 | 01:16:44 | 00:00:00 | |
| BIOWL1-15 | 2026-09-03 00:06:59 | 50.73137 | 1.45882 | 105° | 91km/h | 14868m | 3.8m/s | -58.2°C | 3.6% | 0hPa | 2.7V | 18:12:15 | 01:16:38 | 00:00:00 | |
| DM0DOS-11 | 2026-09-03 00:06:54 | 50.73161 | 1.45739 | 106° | 93km/h | 14850m | 4.3m/s | -58.2°C | 0% | 0hPa | 2.6V | 08:30:00 | 01:16:34 | 00:00:00 | |
| BIOWL1-15 | 2026-09-03 00:06:48 | 50.73195 | 1.45518 | 102° | 95km/h | 14824m | 4.4m/s | 0°C | 0% | 0hPa | 2.7V | 18:12:15 | 01:16:28 | 00:00:00 | |
| DM0DOS-11 | 2026-09-03 00:06:44 | 50.73214 | 1.45371 | 103° | 93km/h | 14805m | 4m/s | -58.5°C | 0% | 0hPa | 2.6V | 08:30:00 | 01:16:24 | 00:00:00 | |
| DB0UT-7 | 2026-09-03 00:06:38 | 50.73241 | 1.45194 | 103° | 95km/h | 14783m | 3.7m/s | -58.6°C | 7.3% | 0hPa | 2.8V | 00:00:00 | 01:16:19 | 00:00:00 | |
| DM0DOS-11 | 2026-09-03 00:06:34 | 50.73264 | 1.45008 | 100° | 100km/h | 14761m | 3m/s | -58.6°C | 0% | 0hPa | 2.8V | 08:30:00 | 01:16:14 | 00:00:00 | |
| AU51GT2 | 2026-09-03 00:06:31 | 50.73273 | 1.44889 | 95° | 99km/h | 14749m | 4.1m/s | -58.6°C | 3.6% | -1.0hPa | 2.6V | 00:00:00 | 00:00:00 | 00:00:00 | |
| BIOWL9-15 | 2026-09-03 00:06:29 | 50.73276 | 1.44849 | 95° | 99km/h | 14744m | 4.1m/s | -58.7°C | 3.6% | -1.0hPa | 2.6V | 00:00:00 | 00:00:00 | 00:00:00 | |
| DM0DOS-11 | 2026-09-03 00:06:24 | 50.73294 | 1.44630 | 100° | 89km/h | 14719m | 5.3m/s | -58.7°C | 0% | 0hPa | 2.6V | 08:30:00 | 01:16:04 | 00:00:00 | |
| DM0DOS-11 | 2026-09-03 00:06:14 | 50.73333 | 1.44259 | 96° | 95km/h | 14674m | 3.8m/s | -58.7°C | 0% | 0hPa | 2.7V | 08:30:00 | 01:15:54 | 00:00:00 | |
| DB0UT-7 | 2026-09-03 00:06:08 | 50.73347 | 1.44080 | 99° | 89km/h | 14652m | 4.2m/s | -58.8°C | 8.1% | 0hPa | 2.7V | 00:00:00 | 00:00:00 | 08:30:00 | |
| AU51GT2 | 2026-09-03 00:05:59 | 50.73385 | 1.43766 | 102° | 86km/h | 14611m | 5.2m/s | -58.9°C | 4.1% | -1.0hPa | 2.8V | 00:00:00 | 00:00:00 | 00:00:00 | |
| AU51GT2 | 2026-09-03 00:05:28 | 50.73491 | 1.42694 | 98° | 91km/h | 14470m | 5.4m/s | -58.2°C | 4.1% | -1.0hPa | 2.8V | 00:00:00 | 00:00:00 | 00:00:00 | |
| AU51GT2 | 2026-09-03 00:04:57 | 50.73618 | 1.41615 | 105° | 84km/h | 14327m | 4.7m/s | -58.6°C | 4.8% | -1.0hPa | 2.8V | 00:00:00 | 00:00:00 | 00:00:00 | |
| BIOWL9-15 | 2026-09-03 00:04:56 | 50.73650 | 1.41416 | 102° | 84km/h | 14299m | 4.6m/s | -58.6°C | 4.9% | -1.0hPa | 2.8V | 00:00:00 | 00:00:00 | 00:00:00 | |
| BIOWL1-15 | 2026-09-03 00:04:44 | 50.73718 | 1.40978 | 102° | 88km/h | 14239m | 4.9m/s | -58.3°C | 6.4% | 0hPa | 2.8V | 18:12:15 | 01:14:19 | 00:00:00 | |
| BIOWL1-15 | 2026-09-03 00:04:33 | 50.73778 | 1.40529 | 103° | 91km/h | 14179m | 4.6m/s | -58°C | 6.4% | 0hPa | 2.7V | 18:12:15 | 01:14:06 | 00:00:00 | |
| BIOWL1-15 | 2026-09-03 00:04:25 | 50.73787 | 1.40460 | 102° | 88km/h | 14169m | 4m/s | -57.9°C | 6.4% | 0hPa | 2.7V | 18:12:15 | 01:14:04 | 00:00:00 | |
| BIOWL1-15 | 2026-09-03 00:04:12 | 50.73869 | 1.39818 | 104° | 93km/h | 14086m | 4m/s | -57.3°C | 6.7% | 0hPa | 2.7V | 18:12:15 | 01:13:46 | 00:00:00 | |
| BIOWL1-15 | 2026-09-03 00:03:55 | 50.73921 | 1.39457 | 101° | 97km/h | 14040m | 4.3m/s | -57°C | 7.2% | 0hPa | 2.6V | 18:12:15 | 01:13:36 | 00:00:00 | |
| BIOWL9-15 | 2026-09-03 00:03:55 | 50.73925 | 1.39420 | 100° | 95km/h | 14035m | 4.9m/s | -57.1°C | 5.4% | -1.0hPa | 2.8V | 00:00:00 | 00:00:00 | 00:00:00 | |
| BIOWL1-15 | 2026-09-03 00:03:45 | 50.74014 | 1.38708 | 103° | 97km/h | 13948m | 5m/s | -57.2°C | 8.3% | 0hPa | 2.8V | 18:12:15 | 01:13:16 | 00:00:00 | |
| BIOWL1-15 | 2026-09-03 00:03:24 | 50.74084 | 1.38254 | 105° | 102km/h | 13894m | 3.9m/s | -57.6°C | 9.4% | 0hPa | 2.8V | 18:12:15 | 01:13:04 | 00:00:00 | |
| AU51GT2 | 2026-09-03 00:03:24 | 50.74077 | 1.38293 | 105° | 99km/h | 13899m | 5.4m/s | -57.6°C | 6.8% | -1.0hPa | 2.8V | 00:00:00 | 00:00:00 | 00:00:00 | |
| BIOWL9-15 | 2026-09-03 00:03:23 | 50.74084 | 1.38254 | 104° | 102km/h | 13894m | 3.9m/s | -57.6°C | 6.9% | -1.0hPa | 2.8V | 00:00:00 | 00:00:00 | 00:00:00 | |
| BIOWL1-15 | 2026-09-03 00:03:08 | 50.74314 | 1.36763 | 105° | 106km/h | 13734m | 4.4m/s | -58.6°C | 11.6% | 0hPa | 2.8V | 18:12:15 | 01:12:28 | 00:00:00 | |
| BIOWL1-15 | 2026-09-03 00:02:59 | 50.74321 | 1.36722 | 105° | 110km/h | 13730m | 3.8m/s | -58.6°C | 11.6% | 0hPa | 2.8V | 18:12:15 | 01:12:27 | 00:00:00 | |
| AU51GT2 | 2026-09-03 00:02:50 | 50.74468 | 1.35710 | 100° | 106km/h | 13631m | 3.9m/s | -58.4°C | 9.1% | -1.0hPa | 2.7V | 00:00:00 | 00:00:00 | 00:00:00 | |
| BIOWL1-15 | 2026-09-03 00:02:42 | 50.74347 | 1.36554 | 104° | 108km/h | 13714m | 3.9m/s | -58.6°C | 11.8% | 0hPa | 2.7V | 18:12:15 | 01:12:23 | 00:00:00 | |
| BIOWL1-15 | 2026-09-03 00:02:25 | 50.74473 | 1.35669 | 101° | 106km/h | 13626m | 4.3m/s | -58.5°C | 12.5% | 0hPa | 2.8V | 18:12:15 | 01:12:02 | 00:00:00 | |
| DM0DOS-11 | 2026-09-03 00:02:18 | 50.74501 | 1.35413 | 99° | 106km/h | 13602m | 3.5m/s | -58.7°C | 0% | 0hPa | 2.8V | 08:30:00 | 01:11:56 | 00:00:00 | |
| BIOWL1-15 | 2026-09-03 00:02:13 | 50.74540 | 1.35129 | 104° | 106km/h | 13572m | 3.9m/s | -58.8°C | 13.4% | 0hPa | 2.8V | 18:12:15 | 01:11:49 | 00:00:00 | |
| AU51GT2 | 2026-09-03 00:02:08 | 50.74625 | 1.34385 | 99° | 111km/h | 13501m | 4.9m/s | -58.9°C | 11.7% | -1.0hPa | 2.7V | 00:00:00 | 00:00:00 | 00:00:00 | |
| DM0DOS-11 | 2026-09-03 00:02:06 | 50.74557 | 1.35005 | 101° | 110km/h | 13560m | 4.9m/s | -58.8°C | 0% | 0hPa | 2.7V | 08:30:00 | 01:11:46 | 00:00:00 | |
| BIOWL9-15 | 2026-09-03 00:02:05 | 50.74633 | 1.34297 | 97° | 110km/h | 13492m | 4.4m/s | 0°C | -1.0% | -1.0hPa | 2.7V | 00:00:00 | 00:00:00 | 00:00:00 | |
| BIOWL1-15 | 2026-09-03 00:02:03 | 50.74568 | 1.34919 | 100° | 111km/h | 13550m | 5.1m/s | -58.9°C | 14.1% | 0hPa | 2.7V | 18:12:15 | 01:11:44 | 00:00:00 | |
| DM0DOS-11 | 2026-09-03 00:01:58 | 50.74606 | 1.34564 | 99° | 115km/h | 13517m | 3.7m/s | -58.9°C | 0% | 0hPa | 2.8V | 08:30:00 | 01:11:36 | 00:00:00 | |
| BIOWL1-15 | 2026-09-03 00:01:53 | 50.74620 | 1.34429 | 99° | 113km/h | 13505m | 3.8m/s | -58.9°C | 15.5% | 0hPa | 2.7V | 18:12:15 | 01:11:33 | 00:00:00 | |
| BIOWL1-15 | 2026-09-03 00:01:41 | 50.74664 | 1.33951 | 99° | 111km/h | 13460m | 4.6m/s | 0°C | 0% | 0hPa | 2.8V | 18:12:15 | 01:11:22 | 00:00:00 | |
| AU51GT2 | 2026-09-03 00:01:31 | 50.74777 | 1.33036 | 105° | 108km/h | 13372m | 4.3m/s | -59.1°C | 15.6% | -1.0hPa | 2.8V | 00:00:00 | 00:00:00 | 00:00:00 | |
| BIOWL1-15 | 2026-09-03 00:01:30 | 50.74724 | 1.33379 | 100° | 113km/h | 13407m | 4.7m/s | 0°C | 0% | 0hPa | 2.8V | 18:12:15 | 01:11:09 | 00:00:00 | |
| BIOWL1-15 | 2026-09-03 00:01:18 | 50.74798 | 1.32909 | 105° | 113km/h | 13360m | 4.8m/s | 0°C | 0% | 0hPa | 2.7V | 18:12:15 | 01:10:58 | 00:00:00 | |
| DB0UT-7 | 2026-09-03 00:01:04 | 50.74923 | 1.32129 | 103° | 119km/h | 13290m | 4.3m/s | 0°C | 0% | 0hPa | 2.7V | 00:00:00 | 01:10:41 | 00:00:00 | |
| AU51GT2 | 2026-09-03 00:00:50 | 50.74998 | 1.31602 | 99° | 120km/h | 13244m | 3.4m/s | 0°C | -1.0% | -1.0hPa | 2.7V | 00:00:00 | 00:00:00 | 00:00:00 | |
| DB0UT-7 | 2026-09-02 23:59:54 | 50.75297 | 1.29020 | 101° | 122km/h | 13001m | 4.4m/s | 0°C | 0% | 0hPa | 2.7V | 00:00:00 | 00:00:00 | 00:00:00 | |
| AU51GT2 | 2026-09-02 23:59:47 | 50.75436 | 1.27683 | 97° | 115km/h | 12864m | 5.0m/s | -60.8°C | 32.2% | -1.0hPa | 2.7V | 00:00:00 | 00:00:00 | 00:00:00 | |
| AU51GT2 | 2026-09-02 23:59:16 | 50.75473 | 1.27328 | 99° | 110km/h | 12828m | 3.6m/s | -60.5°C | 31.4% | -1.0hPa | 2.7V | 00:00:00 | 00:00:00 | 00:00:00 | |
| BIOWL1-15 | 2026-09-02 23:58:49 | 50.75610 | 1.26138 | 103° | 115km/h | 12693m | 6.6m/s | 0°C | 0% | 0hPa | 2.7V | 18:12:15 | 01:08:30 | 00:00:00 | |
| AU51GT2 | 2026-09-02 23:58:45 | 50.75643 | 1.25919 | 102° | 115km/h | 12666m | 5.0m/s | -59.1°C | 28.1% | -1.0hPa | 2.7V | 00:00:00 | 00:00:00 | 00:00:00 | |
| DM0DOS-11 | 2026-09-02 23:58:29 | 50.75779 | 1.25034 | 106° | 113km/h | 12569m | 5.8m/s | 0°C | 0% | 0hPa | 2.7V | 08:30:00 | 01:08:05 | 00:00:00 | |
| DM0DOS-11 | 2026-09-02 23:58:19 | 50.75880 | 1.24583 | 108° | 122km/h | 12519m | 4.9m/s | 0°C | 0% | 0hPa | 2.8V | 00:00:00 | 01:07:55 | 00:00:00 | |
| AU51GT2 | 2026-09-02 23:58:14 | 50.75890 | 1.24536 | 108° | 124km/h | 12514m | 4.9m/s | -59.0°C | 31.4% | -1.0hPa | 2.8V | 00:00:00 | 00:00:00 | 00:00:00 | |
| DM0DOS-11 | 2026-09-02 23:58:09 | 50.75978 | 1.24100 | 110° | 130km/h | 12471m | 3.2m/s | 0°C | 0% | 0hPa | 2.8V | 00:00:00 | 01:07:45 | 00:00:00 | |
| DB0UT-7 | 2026-09-02 23:58:05 | 50.75967 | 1.24148 | 110° | 135km/h | 12475m | 4.7m/s | 0°C | 0% | 0hPa | 2.8V | 00:00:00 | 01:07:46 | 00:00:00 | |
| DM0DOS-11 | 2026-09-02 23:57:57 | 50.76104 | 1.23499 | 111° | 139km/h | 12415m | 4m/s | 0°C | 0% | 0hPa | 2.8V | 00:00:00 | 01:07:33 | 00:00:00 | |
| DM0DOS-11 | 2026-09-02 23:57:46 | 50.76218 | 1.22980 | 108° | 137km/h | 12369m | 5.3m/s | 0°C | 0% | 0hPa | 2.8V | 00:00:00 | 01:07:23 | 00:00:00 | |
| AU51GT2 | 2026-09-02 23:57:43 | 50.76218 | 1.22980 | 108° | 137km/h | 12369m | 5.3m/s | -58.3°C | -1.0% | -1.0hPa | 0V | 00:00:00 | 00:00:00 | 00:00:00 | |
| DB0UT-7 | 2026-09-02 23:57:35 | 50.76297 | 1.22611 | 109° | 141km/h | 12339m | 4.1m/s | 0°C | 0% | 0hPa | 0V | 00:00:00 | 00:00:00 | 00:00:00 |